PWSweather.com
Personal Weather Stations
Station Observations

Enon Chester, VA 23836

Lat: 37.3609267, Lon: -77.31545840000001

Elevation: 89

Station Type: Acurite

http://www.wunderground.com/personal-weather-station/dashboard?ID=KVACHEST67

High Low Average
Temperature 29.3°F-1.5°C -3.3°F-19.6°C 11.6°F-11.3°C
Dew Point 3.4°F-15.9°C -5.5°F-20.8°C -1.2°F-18.4°C
Winds 8.3 mph 13.4 kmh Calm Calm 1.0 mph SSW1.6 kmh SSW
Wind Gusts 8.3 mph13.4 kmh -- 3.0 mph4.8 kmh
Humidity 91% 29% 59%
Pressure 30.74 in1041.0 mb 30.49 in1032.5 mb -
Precipitation 0.00 in0.0 mm - -
Hour Temp Dew Point Humidity Winds Wind Gusts Pressure Precip Precip Rate Daily Precip Total
12:00 AM 5.7°F-14.6°C -1.9°F-18.8°C 70% Calm Calm 2.2 mph3.5 kmh 30.61 in1036.6 mb 0.00 in0.0 mm 0.00 in0.0 mm 0.00 in0.0 mm
12:01 AM 5.4°F-14.8°C -2.8°F-19.3°C 68% Calm Calm 2.2 mph3.5 kmh 30.61 in1036.6 mb 0.00 in0.0 mm 0.00 in0.0 mm 0.00 in0.0 mm
12:02 AM 5.4°F-14.8°C -3.1°F-19.5°C 67% Calm Calm 2.2 mph3.5 kmh 30.61 in1036.6 mb 0.00 in0.0 mm 0.00 in0.0 mm 0.00 in0.0 mm
12:03 AM 5.4°F-14.8°C -3.1°F-19.5°C 67% Calm Calm 2.2 mph3.5 kmh 30.61 in1036.6 mb 0.00 in0.0 mm 0.00 in0.0 mm 0.00 in0.0 mm
12:04 AM 5.2°F-14.9°C -3.3°F-19.6°C 67% Calm Calm 2.2 mph3.5 kmh 30.61 in1036.6 mb 0.00 in0.0 mm 0.00 in0.0 mm 0.00 in0.0 mm
12:05 AM 5.0°F-15.0°C -3.8°F-19.9°C 66% Calm Calm 2.2 mph3.5 kmh 30.61 in1036.6 mb 0.00 in0.0 mm 0.00 in0.0 mm 0.00 in0.0 mm
12:06 AM 5.0°F-15.0°C -3.8°F-19.9°C 66% Calm Calm 1.7 mph2.7 kmh 30.61 in1036.6 mb 0.00 in0.0 mm 0.00 in0.0 mm 0.00 in0.0 mm
12:07 AM 5.0°F-15.0°C -3.8°F-19.9°C 66% 1.1 mph WNW1.8 kmh WNW 1.7 mph2.7 kmh 30.61 in1036.6 mb 0.00 in0.0 mm 0.00 in0.0 mm 0.00 in0.0 mm
12:08 AM 5.0°F-15.0°C -3.5°F-19.7°C 67% 1.7 mph W2.7 kmh W 1.7 mph2.7 kmh 30.61 in1036.6 mb 0.00 in0.0 mm 0.00 in0.0 mm 0.00 in0.0 mm
12:09 AM 5.0°F-15.0°C -3.5°F-19.7°C 67% 1.7 mph W2.7 kmh W 2.2 mph3.5 kmh 30.61 in1036.6 mb 0.00 in0.0 mm 0.00 in0.0 mm 0.00 in0.0 mm
12:10 AM 5.0°F-15.0°C -3.5°F-19.7°C 67% 1.7 mph W2.7 kmh W 2.2 mph3.5 kmh 30.61 in1036.6 mb 0.00 in0.0 mm 0.00 in0.0 mm 0.00 in0.0 mm
12:11 AM 5.0°F-15.0°C -3.5°F-19.7°C 67% 2.2 mph W3.5 kmh W 2.2 mph3.5 kmh 30.61 in1036.6 mb 0.00 in0.0 mm 0.00 in0.0 mm 0.00 in0.0 mm
12:12 AM 5.0°F-15.0°C -3.5°F-19.7°C 67% 2.2 mph W3.5 kmh W 2.2 mph3.5 kmh 30.61 in1036.6 mb 0.00 in0.0 mm 0.00 in0.0 mm 0.00 in0.0 mm
12:13 AM 5.2°F-14.9°C -3.3°F-19.6°C 67% 2.2 mph W3.5 kmh W 2.2 mph3.5 kmh 30.61 in1036.6 mb 0.00 in0.0 mm 0.00 in0.0 mm 0.00 in0.0 mm
12:14 AM 5.2°F-14.9°C -3.3°F-19.6°C 67% 2.2 mph W3.5 kmh W 2.2 mph3.5 kmh 30.61 in1036.6 mb 0.00 in0.0 mm 0.00 in0.0 mm 0.00 in0.0 mm
12:15 AM 5.4°F-14.8°C -3.1°F-19.5°C 67% 2.2 mph W3.5 kmh W 2.2 mph3.5 kmh 30.61 in1036.6 mb 0.00 in0.0 mm 0.00 in0.0 mm 0.00 in0.0 mm
12:16 AM 5.5°F-14.7°C -3.0°F-19.4°C 67% 2.2 mph W3.5 kmh W 2.2 mph3.5 kmh 30.61 in1036.6 mb 0.00 in0.0 mm 0.00 in0.0 mm 0.00 in0.0 mm
12:17 AM 5.7°F-14.6°C -2.5°F-19.2°C 68% 1.7 mph W2.7 kmh W 2.2 mph3.5 kmh 30.61 in1036.6 mb 0.00 in0.0 mm 0.00 in0.0 mm 0.00 in0.0 mm
12:18 AM 5.7°F-14.6°C -2.2°F-19.0°C 69% 1.7 mph W2.7 kmh W 2.2 mph3.5 kmh 30.61 in1036.6 mb 0.00 in0.0 mm 0.00 in0.0 mm 0.00 in0.0 mm
12:19 AM 5.7°F-14.6°C -1.6°F-18.7°C 71% 1.7 mph W2.7 kmh W 2.2 mph3.5 kmh 30.61 in1036.6 mb 0.00 in0.0 mm 0.00 in0.0 mm 0.00 in0.0 mm
12:20 AM 5.7°F-14.6°C -1.6°F-18.7°C 71% Calm Calm 2.2 mph3.5 kmh 30.61 in1036.6 mb 0.00 in0.0 mm 0.00 in0.0 mm 0.00 in0.0 mm
12:21 AM 5.7°F-14.6°C -1.6°F-18.7°C 71% Calm Calm 2.2 mph3.5 kmh 30.61 in1036.6 mb 0.00 in0.0 mm 0.00 in0.0 mm 0.00 in0.0 mm
12:22 AM 5.5°F-14.7°C -1.8°F-18.8°C 71% Calm Calm 2.2 mph3.5 kmh 30.61 in1036.6 mb 0.00 in0.0 mm 0.00 in0.0 mm 0.00 in0.0 mm
12:23 AM 5.4°F-14.8°C -1.9°F-18.8°C 71% Calm Calm 2.2 mph3.5 kmh 30.61 in1036.6 mb 0.00 in0.0 mm 0.00 in0.0 mm 0.00 in0.0 mm
12:24 AM 5.4°F-14.8°C -1.9°F-18.8°C 71% Calm Calm 2.2 mph3.5 kmh 30.61 in1036.6 mb 0.00 in0.0 mm 0.00 in0.0 mm 0.00 in0.0 mm
12:25 AM 5.2°F-14.9°C -2.1°F-18.9°C 71% Calm Calm 2.2 mph3.5 kmh 30.61 in1036.6 mb 0.00 in0.0 mm 0.00 in0.0 mm 0.00 in0.0 mm
12:26 AM 5.0°F-15.0°C -2.3°F-19.1°C 71% Calm Calm 2.2 mph3.5 kmh 30.61 in1036.6 mb 0.00 in0.0 mm 0.00 in0.0 mm 0.00 in0.0 mm
12:27 AM 5.0°F-15.0°C -2.6°F-19.2°C 70% Calm Calm 1.7 mph2.7 kmh 30.61 in1036.6 mb 0.00 in0.0 mm 0.00 in0.0 mm 0.00 in0.0 mm
12:28 AM 4.8°F-15.1°C -2.8°F-19.3°C 70% 1.1 mph SSW1.8 kmh SSW 1.7 mph2.7 kmh 30.61 in1036.6 mb 0.00 in0.0 mm 0.00 in0.0 mm 0.00 in0.0 mm
12:29 AM 4.8°F-15.1°C -3.1°F-19.5°C 69% 1.1 mph WSW1.8 kmh WSW 1.7 mph2.7 kmh 30.61 in1036.6 mb 0.00 in0.0 mm 0.00 in0.0 mm 0.00 in0.0 mm
12:30 AM 4.8°F-15.1°C -3.1°F-19.5°C 69% 1.1 mph WSW1.8 kmh WSW 1.7 mph2.7 kmh 30.61 in1036.6 mb 0.00 in0.0 mm 0.00 in0.0 mm 0.00 in0.0 mm
12:31 AM 4.6°F-15.2°C -3.3°F-19.6°C 69% Calm Calm 1.7 mph2.7 kmh 30.61 in1036.6 mb 0.00 in0.0 mm 0.00 in0.0 mm 0.00 in0.0 mm
12:32 AM 4.5°F-15.3°C -3.4°F-19.7°C 69% Calm Calm 1.7 mph2.7 kmh 30.61 in1036.6 mb 0.00 in0.0 mm 0.00 in0.0 mm 0.00 in0.0 mm
12:33 AM 4.5°F-15.3°C -3.7°F-19.8°C 68% Calm Calm 1.7 mph2.7 kmh 30.61 in1036.6 mb 0.00 in0.0 mm 0.00 in0.0 mm 0.00 in0.0 mm
12:34 AM 4.5°F-15.3°C -3.7°F-19.8°C 68% Calm Calm 1.7 mph2.7 kmh 30.61 in1036.6 mb 0.00 in0.0 mm 0.00 in0.0 mm 0.00 in0.0 mm
12:35 AM 4.5°F-15.3°C -3.4°F-19.7°C 69% Calm Calm 1.7 mph2.7 kmh 30.61 in1036.6 mb 0.00 in0.0 mm 0.00 in0.0 mm 0.00 in0.0 mm
12:36 AM 4.5°F-15.3°C -3.1°F-19.5°C 70% 1.7 mph W2.7 kmh W 1.7 mph2.7 kmh 30.61 in1036.6 mb 0.00 in0.0 mm 0.00 in0.0 mm 0.00 in0.0 mm
12:37 AM 4.5°F-15.3°C -3.1°F-19.5°C 70% 1.7 mph W2.7 kmh W 1.7 mph2.7 kmh 30.61 in1036.6 mb 0.00 in0.0 mm 0.00 in0.0 mm 0.00 in0.0 mm
12:38 AM 4.5°F-15.3°C -2.8°F-19.3°C 71% 2.2 mph W3.5 kmh W 2.2 mph3.5 kmh 30.61 in1036.6 mb 0.00 in0.0 mm 0.00 in0.0 mm 0.00 in0.0 mm
12:39 AM 4.5°F-15.3°C -2.5°F-19.2°C 72% 2.2 mph W3.5 kmh W 2.2 mph3.5 kmh 30.61 in1036.6 mb 0.00 in0.0 mm 0.00 in0.0 mm 0.00 in0.0 mm
12:40 AM 4.5°F-15.3°C -2.2°F-19.0°C 73% 1.7 mph W2.7 kmh W 2.2 mph3.5 kmh 30.61 in1036.6 mb 0.00 in0.0 mm 0.00 in0.0 mm 0.00 in0.0 mm
12:41 AM 4.5°F-15.3°C -1.9°F-18.8°C 74% 1.7 mph W2.7 kmh W 2.2 mph3.5 kmh 30.61 in1036.6 mb 0.00 in0.0 mm 0.00 in0.0 mm 0.00 in0.0 mm
12:42 AM 4.6°F-15.2°C -1.8°F-18.8°C 74% 1.7 mph W2.7 kmh W 2.2 mph3.5 kmh 30.61 in1036.6 mb 0.00 in0.0 mm 0.00 in0.0 mm 0.00 in0.0 mm
12:43 AM 4.6°F-15.2°C -1.8°F-18.8°C 74% 1.1 mph W1.8 kmh W 2.2 mph3.5 kmh 30.61 in1036.6 mb 0.00 in0.0 mm 0.00 in0.0 mm 0.00 in0.0 mm
12:44 AM 4.6°F-15.2°C -2.1°F-18.9°C 73% 1.1 mph NW1.8 kmh NW 2.2 mph3.5 kmh 30.61 in1036.6 mb 0.00 in0.0 mm 0.00 in0.0 mm 0.00 in0.0 mm
12:45 AM 4.5°F-15.3°C -2.5°F-19.2°C 72% Calm Calm 2.2 mph3.5 kmh 30.61 in1036.6 mb 0.00 in0.0 mm 0.00 in0.0 mm 0.00 in0.0 mm
12:46 AM 4.5°F-15.3°C -2.5°F-19.2°C 72% Calm Calm 2.2 mph3.5 kmh 30.61 in1036.6 mb 0.00 in0.0 mm 0.00 in0.0 mm 0.00 in0.0 mm
12:47 AM 4.3°F-15.4°C -3.0°F-19.4°C 71% Calm Calm 2.2 mph3.5 kmh 30.61 in1036.6 mb 0.00 in0.0 mm 0.00 in0.0 mm 0.00 in0.0 mm
12:48 AM 4.3°F-15.4°C -3.3°F-19.6°C 70% Calm Calm 2.2 mph3.5 kmh 30.61 in1036.6 mb 0.00 in0.0 mm 0.00 in0.0 mm 0.00 in0.0 mm
12:49 AM 4.1°F-15.5°C -3.5°F-19.7°C 70% Calm Calm 2.2 mph3.5 kmh 30.61 in1036.6 mb 0.00 in0.0 mm 0.00 in0.0 mm 0.00 in0.0 mm
12:50 AM 4.1°F-15.5°C -3.5°F-19.7°C 70% Calm Calm 1.7 mph2.7 kmh 30.61 in1036.6 mb 0.00 in0.0 mm 0.00 in0.0 mm 0.00 in0.0 mm
12:51 AM 3.9°F-15.6°C -3.7°F-19.8°C 70% Calm Calm 1.7 mph2.7 kmh 30.61 in1036.6 mb 0.00 in0.0 mm 0.00 in0.0 mm 0.00 in0.0 mm
12:52 AM 3.7°F-15.7°C -3.9°F-19.9°C 70% Calm Calm 1.7 mph2.7 kmh 30.61 in1036.6 mb 0.00 in0.0 mm 0.00 in0.0 mm 0.00 in0.0 mm
12:53 AM 3.7°F-15.7°C -3.9°F-19.9°C 70% Calm Calm 1.7 mph2.7 kmh 30.61 in1036.6 mb 0.00 in0.0 mm 0.00 in0.0 mm 0.00 in0.0 mm
12:54 AM 3.9°F-15.6°C -3.7°F-19.8°C 70% Calm Calm 1.1 mph1.8 kmh 30.61 in1036.6 mb 0.00 in0.0 mm 0.00 in0.0 mm 0.00 in0.0 mm
12:55 AM 3.9°F-15.6°C -3.7°F-19.8°C 70% Calm Calm -- 30.61 in1036.6 mb 0.00 in0.0 mm 0.00 in0.0 mm 0.00 in0.0 mm
12:56 AM 3.7°F-15.7°C -3.9°F-19.9°C 70% 1.7 mph W2.7 kmh W 2.2 mph3.5 kmh 30.61 in1036.6 mb 0.00 in0.0 mm 0.00 in0.0 mm 0.00 in0.0 mm
12:57 AM 3.7°F-15.7°C -3.9°F-19.9°C 70% 2.2 mph W3.5 kmh W 2.2 mph3.5 kmh 30.61 in1036.6 mb 0.00 in0.0 mm 0.00 in0.0 mm 0.00 in0.0 mm
12:58 AM 3.9°F-15.6°C -3.7°F-19.8°C 70% 2.2 mph W3.5 kmh W 2.2 mph3.5 kmh 30.61 in1036.6 mb 0.00 in0.0 mm 0.00 in0.0 mm 0.00 in0.0 mm
12:59 AM 3.9°F-15.6°C -3.7°F-19.8°C 70% 2.7 mph W4.3 kmh W 2.7 mph4.3 kmh 30.61 in1036.6 mb 0.00 in0.0 mm 0.00 in0.0 mm 0.00 in0.0 mm
01:00 AM 3.9°F-15.6°C -3.7°F-19.8°C 70% 1.7 mph W2.7 kmh W 2.7 mph4.3 kmh 30.61 in1036.6 mb 0.00 in0.0 mm 0.00 in0.0 mm 0.00 in0.0 mm
01:01 AM 3.9°F-15.6°C -3.4°F-19.7°C 71% 2.2 mph W3.5 kmh W 2.7 mph4.3 kmh 30.61 in1036.6 mb 0.00 in0.0 mm 0.00 in0.0 mm 0.00 in0.0 mm
01:02 AM 3.9°F-15.6°C -3.4°F-19.7°C 71% 2.2 mph W3.5 kmh W 2.7 mph4.3 kmh 30.61 in1036.6 mb 0.00 in0.0 mm 0.00 in0.0 mm 0.00 in0.0 mm
01:03 AM 3.9°F-15.6°C -3.4°F-19.7°C 71% 1.7 mph WNW2.7 kmh WNW 2.7 mph4.3 kmh 30.61 in1036.6 mb 0.00 in0.0 mm 0.00 in0.0 mm 0.00 in0.0 mm
01:04 AM 3.9°F-15.6°C -3.1°F-19.5°C 72% 1.7 mph W2.7 kmh W 2.7 mph4.3 kmh 30.61 in1036.6 mb 0.00 in0.0 mm 0.00 in0.0 mm 0.00 in0.0 mm
01:05 AM 3.9°F-15.6°C -2.8°F-19.3°C 73% 1.1 mph W1.8 kmh W 2.7 mph4.3 kmh 30.61 in1036.6 mb 0.00 in0.0 mm 0.00 in0.0 mm 0.00 in0.0 mm
01:06 AM 3.9°F-15.6°C -2.5°F-19.2°C 74% Calm Calm 2.7 mph4.3 kmh 30.61 in1036.6 mb 0.00 in0.0 mm 0.00 in0.0 mm 0.00 in0.0 mm
01:07 AM 3.7°F-15.7°C -2.7°F-19.3°C 74% Calm Calm 2.7 mph4.3 kmh 30.61 in1036.6 mb 0.00 in0.0 mm 0.00 in0.0 mm 0.00 in0.0 mm
01:08 AM 3.7°F-15.7°C -2.7°F-19.3°C 74% Calm Calm 2.7 mph4.3 kmh 30.61 in1036.6 mb 0.00 in0.0 mm 0.00 in0.0 mm 0.00 in0.0 mm
01:09 AM 3.7°F-15.7°C -2.7°F-19.3°C 74% Calm Calm 2.7 mph4.3 kmh 30.61 in1036.6 mb 0.00 in0.0 mm 0.00 in0.0 mm 0.00 in0.0 mm
01:10 AM 3.4°F-15.9°C -3.0°F-19.4°C 74% Calm Calm 2.2 mph3.5 kmh 30.61 in1036.6 mb 0.00 in0.0 mm 0.00 in0.0 mm 0.00 in0.0 mm
01:11 AM 3.2°F-16.0°C -3.2°F-19.6°C 74% Calm Calm 2.2 mph3.5 kmh 30.61 in1036.6 mb 0.00 in0.0 mm 0.00 in0.0 mm 0.00 in0.0 mm
01:12 AM 3.2°F-16.0°C -2.9°F-19.4°C 75% Calm Calm 2.2 mph3.5 kmh 30.61 in1036.6 mb 0.00 in0.0 mm 0.00 in0.0 mm 0.00 in0.0 mm
01:13 AM 3.4°F-15.9°C -3.0°F-19.4°C 74% Calm Calm 1.7 mph2.7 kmh 30.61 in1036.6 mb 0.00 in0.0 mm 0.00 in0.0 mm 0.00 in0.0 mm
01:14 AM 3.6°F-15.8°C -3.4°F-19.7°C 72% Calm Calm 1.7 mph2.7 kmh 30.61 in1036.6 mb 0.00 in0.0 mm 0.00 in0.0 mm 0.00 in0.0 mm
01:15 AM 3.6°F-15.8°C -3.4°F-19.7°C 72% Calm Calm 1.1 mph1.8 kmh 30.61 in1036.6 mb 0.00 in0.0 mm 0.00 in0.0 mm 0.00 in0.0 mm
01:16 AM 3.6°F-15.8°C -3.7°F-19.8°C 71% Calm Calm -- 30.61 in1036.6 mb 0.00 in0.0 mm 0.00 in0.0 mm 0.00 in0.0 mm
01:17 AM 3.4°F-15.9°C -3.9°F-19.9°C 71% Calm Calm -- 30.61 in1036.6 mb 0.00 in0.0 mm 0.00 in0.0 mm 0.00 in0.0 mm
01:18 AM 3.4°F-15.9°C -3.9°F-19.9°C 71% 2.2 mph W3.5 kmh W 2.2 mph3.5 kmh 30.61 in1036.6 mb 0.00 in0.0 mm 0.00 in0.0 mm 0.00 in0.0 mm
01:19 AM 3.6°F-15.8°C -3.7°F-19.8°C 71% 2.7 mph W4.3 kmh W 2.7 mph4.3 kmh 30.61 in1036.6 mb 0.00 in0.0 mm 0.00 in0.0 mm 0.00 in0.0 mm
01:20 AM 3.7°F-15.7°C -3.3°F-19.6°C 72% 2.7 mph W4.3 kmh W 2.7 mph4.3 kmh 30.61 in1036.6 mb 0.00 in0.0 mm 0.00 in0.0 mm 0.00 in0.0 mm
01:21 AM 3.7°F-15.7°C -3.0°F-19.4°C 73% 2.7 mph WSW4.3 kmh WSW 3.2 mph5.1 kmh 30.61 in1036.6 mb 0.00 in0.0 mm 0.00 in0.0 mm 0.00 in0.0 mm
01:22 AM 3.9°F-15.6°C -2.2°F-19.0°C 75% 2.7 mph W4.3 kmh W 3.2 mph5.1 kmh 30.61 in1036.6 mb 0.00 in0.0 mm 0.00 in0.0 mm 0.00 in0.0 mm
01:23 AM 3.9°F-15.6°C -2.2°F-19.0°C 75% 2.7 mph WSW4.3 kmh WSW 3.2 mph5.1 kmh 30.61 in1036.6 mb 0.00 in0.0 mm 0.00 in0.0 mm 0.00 in0.0 mm
01:24 AM 4.1°F-15.5°C -1.8°F-18.8°C 76% 1.1 mph SSW1.8 kmh SSW 3.2 mph5.1 kmh 30.61 in1036.6 mb 0.00 in0.0 mm 0.00 in0.0 mm 0.00 in0.0 mm
01:25 AM 4.1°F-15.5°C -2.0°F-18.9°C 75% Calm Calm 3.2 mph5.1 kmh 30.61 in1036.6 mb 0.00 in0.0 mm 0.00 in0.0 mm 0.00 in0.0 mm
01:26 AM 3.9°F-15.6°C -2.2°F-19.0°C 75% Calm Calm 3.2 mph5.1 kmh 30.61 in1036.6 mb 0.00 in0.0 mm 0.00 in0.0 mm 0.00 in0.0 mm
01:27 AM 3.7°F-15.7°C -2.4°F-19.1°C 75% Calm Calm 3.2 mph5.1 kmh 30.61 in1036.6 mb 0.00 in0.0 mm 0.00 in0.0 mm 0.00 in0.0 mm
01:28 AM 3.6°F-15.8°C -2.5°F-19.2°C 75% Calm Calm 3.2 mph5.1 kmh 30.62 in1036.9 mb 0.00 in0.0 mm 0.00 in0.0 mm 0.00 in0.0 mm
01:29 AM 3.4°F-15.9°C -3.0°F-19.4°C 74% Calm Calm 3.2 mph5.1 kmh 30.62 in1036.9 mb 0.00 in0.0 mm 0.00 in0.0 mm 0.00 in0.0 mm
01:30 AM 3.2°F-16.0°C -3.2°F-19.6°C 74% Calm Calm 3.2 mph5.1 kmh 30.62 in1036.9 mb 0.00 in0.0 mm 0.00 in0.0 mm 0.00 in0.0 mm
01:31 AM 3.2°F-16.0°C -3.2°F-19.6°C 74% Calm Calm 2.7 mph4.3 kmh 30.62 in1036.9 mb 0.00 in0.0 mm 0.00 in0.0 mm 0.00 in0.0 mm
01:32 AM 3.0°F-16.1°C -3.4°F-19.7°C 74% Calm Calm 2.7 mph4.3 kmh 30.62 in1036.9 mb 0.00 in0.0 mm 0.00 in0.0 mm 0.00 in0.0 mm
01:33 AM 2.7°F-16.3°C -3.7°F-19.8°C 74% Calm Calm 2.7 mph4.3 kmh 30.62 in1036.9 mb 0.00 in0.0 mm 0.00 in0.0 mm 0.00 in0.0 mm
01:34 AM 2.5°F-16.4°C -3.6°F-19.8°C 75% Calm Calm 1.1 mph1.8 kmh 30.62 in1036.9 mb 0.00 in0.0 mm 0.00 in0.0 mm 0.00 in0.0 mm
01:35 AM 2.5°F-16.4°C -3.0°F-19.4°C 77% Calm Calm -- 30.62 in1036.9 mb 0.00 in0.0 mm 0.00 in0.0 mm 0.00 in0.0 mm
01:36 AM 2.5°F-16.4°C -3.3°F-19.6°C 76% Calm Calm -- 30.62 in1036.9 mb 0.00 in0.0 mm 0.00 in0.0 mm 0.00 in0.0 mm
01:37 AM 2.5°F-16.4°C -3.3°F-19.6°C 76% Calm Calm -- 30.62 in1036.9 mb 0.00 in0.0 mm 0.00 in0.0 mm 0.00 in0.0 mm
01:38 AM 2.5°F-16.4°C -3.3°F-19.6°C 76% Calm Calm -- 30.62 in1036.9 mb 0.00 in0.0 mm 0.00 in0.0 mm 0.00 in0.0 mm
01:39 AM 2.1°F-16.6°C -3.7°F-19.8°C 76% Calm Calm -- 30.62 in1036.9 mb 0.00 in0.0 mm 0.00 in0.0 mm 0.00 in0.0 mm
01:40 AM 2.1°F-16.6°C -3.7°F-19.8°C 76% Calm Calm -- 30.62 in1036.9 mb 0.00 in0.0 mm 0.00 in0.0 mm 0.00 in0.0 mm
01:41 AM 1.9°F-16.7°C -3.9°F-19.9°C 76% Calm Calm -- 30.62 in1036.9 mb 0.00 in0.0 mm 0.00 in0.0 mm 0.00 in0.0 mm
01:42 AM 1.8°F-16.8°C -3.7°F-19.8°C 77% Calm Calm -- 30.62 in1036.9 mb 0.00 in0.0 mm 0.00 in0.0 mm 0.00 in0.0 mm
01:43 AM 1.8°F-16.8°C -3.7°F-19.8°C 77% Calm Calm -- 30.62 in1036.9 mb 0.00 in0.0 mm 0.00 in0.0 mm 0.00 in0.0 mm
01:44 AM 1.6°F-16.9°C -4.2°F-20.1°C 76% Calm Calm -- 30.62 in1036.9 mb 0.00 in0.0 mm 0.00 in0.0 mm 0.00 in0.0 mm
01:45 AM 1.6°F-16.9°C -4.2°F-20.1°C 76% Calm Calm -- 30.62 in1036.9 mb 0.00 in0.0 mm 0.00 in0.0 mm 0.00 in0.0 mm
01:46 AM 1.4°F-17.0°C -4.4°F-20.2°C 76% Calm Calm -- 30.62 in1036.9 mb 0.00 in0.0 mm 0.00 in0.0 mm 0.00 in0.0 mm
01:47 AM 1.2°F-17.1°C -4.3°F-20.2°C 77% Calm Calm -- 30.62 in1036.9 mb 0.00 in0.0 mm 0.00 in0.0 mm 0.00 in0.0 mm
01:48 AM 1.2°F-17.1°C -4.3°F-20.2°C 77% Calm Calm -- 30.62 in1036.9 mb 0.00 in0.0 mm 0.00 in0.0 mm 0.00 in0.0 mm
01:49 AM 1.2°F-17.1°C -4.3°F-20.2°C 77% Calm Calm -- 30.62 in1036.9 mb 0.00 in0.0 mm 0.00 in0.0 mm 0.00 in0.0 mm
01:50 AM 1.2°F-17.1°C -4.3°F-20.2°C 77% Calm Calm -- 30.62 in1036.9 mb 0.00 in0.0 mm 0.00 in0.0 mm 0.00 in0.0 mm
01:51 AM 1.2°F-17.1°C -4.6°F-20.3°C 76% Calm Calm -- 30.62 in1036.9 mb 0.00 in0.0 mm 0.00 in0.0 mm 0.00 in0.0 mm
01:52 AM 1.2°F-17.1°C -4.6°F-20.3°C 76% Calm Calm -- 30.62 in1036.9 mb 0.00 in0.0 mm 0.00 in0.0 mm 0.00 in0.0 mm
01:53 AM 1.2°F-17.1°C -4.3°F-20.2°C 77% 2.2 mph W3.5 kmh W 2.2 mph3.5 kmh 30.62 in1036.9 mb 0.00 in0.0 mm 0.00 in0.0 mm 0.00 in0.0 mm
01:54 AM 1.4°F-17.0°C -4.1°F-20.1°C 77% 1.7 mph W2.7 kmh W 2.2 mph3.5 kmh 30.62 in1036.9 mb 0.00 in0.0 mm 0.00 in0.0 mm 0.00 in0.0 mm
01:55 AM 1.4°F-17.0°C -4.1°F-20.1°C 77% 1.1 mph W1.8 kmh W 2.2 mph3.5 kmh 30.62 in1036.9 mb 0.00 in0.0 mm 0.00 in0.0 mm 0.00 in0.0 mm
01:56 AM 1.4°F-17.0°C -4.1°F-20.1°C 77% 1.1 mph W1.8 kmh W 2.2 mph3.5 kmh 30.62 in1036.9 mb 0.00 in0.0 mm 0.00 in0.0 mm 0.00 in0.0 mm
01:57 AM 1.4°F-17.0°C -4.1°F-20.1°C 77% Calm Calm 2.2 mph3.5 kmh 30.62 in1036.9 mb 0.00 in0.0 mm 0.00 in0.0 mm 0.00 in0.0 mm
01:58 AM 1.2°F-17.1°C -4.3°F-20.2°C 77% Calm Calm 2.2 mph3.5 kmh 30.62 in1036.9 mb 0.00 in0.0 mm 0.00 in0.0 mm 0.00 in0.0 mm
01:59 AM 1.2°F-17.1°C -4.3°F-20.2°C 77% Calm Calm 2.2 mph3.5 kmh 30.62 in1036.9 mb 0.00 in0.0 mm 0.00 in0.0 mm 0.00 in0.0 mm
02:00 AM 1.2°F-17.1°C -4.6°F-20.3°C 76% Calm Calm 2.2 mph3.5 kmh 30.62 in1036.9 mb 0.00 in0.0 mm 0.00 in0.0 mm 0.00 in0.0 mm
02:01 AM 1.0°F-17.2°C -4.8°F-20.4°C 76% 1.1 mph W1.8 kmh W 2.2 mph3.5 kmh 30.62 in1036.9 mb 0.00 in0.0 mm 0.00 in0.0 mm 0.00 in0.0 mm
02:02 AM 1.0°F-17.2°C -4.8°F-20.4°C 76% 1.1 mph W1.8 kmh W 2.2 mph3.5 kmh 30.62 in1036.9 mb 0.00 in0.0 mm 0.00 in0.0 mm 0.00 in0.0 mm
02:03 AM 1.0°F-17.2°C -4.8°F-20.4°C 76% Calm Calm 2.2 mph3.5 kmh 30.62 in1036.9 mb 0.00 in0.0 mm 0.00 in0.0 mm 0.00 in0.0 mm
02:04 AM 1.0°F-17.2°C -4.5°F-20.3°C 77% Calm Calm 1.7 mph2.7 kmh 30.62 in1036.9 mb 0.00 in0.0 mm 0.00 in0.0 mm 0.00 in0.0 mm
02:05 AM 1.0°F-17.2°C -4.2°F-20.1°C 78% Calm Calm 1.7 mph2.7 kmh 30.62 in1036.9 mb 0.00 in0.0 mm 0.00 in0.0 mm 0.00 in0.0 mm
02:06 AM 1.0°F-17.2°C -4.2°F-20.1°C 78% Calm Calm 1.1 mph1.8 kmh 30.62 in1036.9 mb 0.00 in0.0 mm 0.00 in0.0 mm 0.00 in0.0 mm
02:07 AM 0.9°F-17.3°C -4.6°F-20.3°C 77% Calm Calm 1.1 mph1.8 kmh 30.62 in1036.9 mb 0.00 in0.0 mm 0.00 in0.0 mm 0.00 in0.0 mm
02:08 AM 0.9°F-17.3°C -4.6°F-20.3°C 77% Calm Calm 1.1 mph1.8 kmh 30.62 in1036.9 mb 0.00 in0.0 mm 0.00 in0.0 mm 0.00 in0.0 mm
02:09 AM 0.9°F-17.3°C -4.6°F-20.3°C 77% Calm Calm 1.1 mph1.8 kmh 30.62 in1036.9 mb 0.00 in0.0 mm 0.00 in0.0 mm 0.00 in0.0 mm
02:10 AM 0.7°F-17.4°C -4.5°F-20.3°C 78% Calm Calm 1.1 mph1.8 kmh 30.62 in1036.9 mb 0.00 in0.0 mm 0.00 in0.0 mm 0.00 in0.0 mm
02:11 AM 0.7°F-17.4°C -4.5°F-20.3°C 78% Calm Calm 1.1 mph1.8 kmh 30.62 in1036.9 mb 0.00 in0.0 mm 0.00 in0.0 mm 0.00 in0.0 mm
02:12 AM 0.7°F-17.4°C -4.3°F-20.2°C 79% Calm Calm 1.1 mph1.8 kmh 30.62 in1036.9 mb 0.00 in0.0 mm 0.00 in0.0 mm 0.00 in0.0 mm
02:13 AM 0.7°F-17.4°C -4.0°F-20.0°C 80% 1.7 mph W2.7 kmh W 1.7 mph2.7 kmh 30.62 in1036.9 mb 0.00 in0.0 mm 0.00 in0.0 mm 0.00 in0.0 mm
02:14 AM 0.7°F-17.4°C -4.0°F-20.0°C 80% 1.7 mph W2.7 kmh W 1.7 mph2.7 kmh 30.62 in1036.9 mb 0.00 in0.0 mm 0.00 in0.0 mm 0.00 in0.0 mm
02:15 AM 0.7°F-17.4°C -3.7°F-19.8°C 81% 1.1 mph W1.8 kmh W 1.7 mph2.7 kmh 30.62 in1036.9 mb 0.00 in0.0 mm 0.00 in0.0 mm 0.00 in0.0 mm
02:16 AM 0.7°F-17.4°C -3.7°F-19.8°C 81% Calm Calm 1.7 mph2.7 kmh 30.62 in1036.9 mb 0.00 in0.0 mm 0.00 in0.0 mm 0.00 in0.0 mm
02:17 AM 0.7°F-17.4°C -3.7°F-19.8°C 81% Calm Calm 1.7 mph2.7 kmh 30.63 in1037.3 mb 0.00 in0.0 mm 0.00 in0.0 mm 0.00 in0.0 mm
02:18 AM 0.7°F-17.4°C -3.7°F-19.8°C 81% Calm Calm 1.7 mph2.7 kmh 30.63 in1037.3 mb 0.00 in0.0 mm 0.00 in0.0 mm 0.00 in0.0 mm
02:19 AM 0.5°F-17.5°C -3.9°F-19.9°C 81% Calm Calm 1.7 mph2.7 kmh 30.63 in1037.3 mb 0.00 in0.0 mm 0.00 in0.0 mm 0.00 in0.0 mm
02:20 AM 0.5°F-17.5°C -3.9°F-19.9°C 81% Calm Calm 1.7 mph2.7 kmh 30.63 in1037.3 mb 0.00 in0.0 mm 0.00 in0.0 mm 0.00 in0.0 mm
02:21 AM 0.5°F-17.5°C -3.7°F-19.8°C 82% Calm Calm 1.7 mph2.7 kmh 30.63 in1037.3 mb 0.00 in0.0 mm 0.00 in0.0 mm 0.00 in0.0 mm
02:22 AM 0.5°F-17.5°C -3.4°F-19.7°C 83% Calm Calm 1.7 mph2.7 kmh 30.63 in1037.3 mb 0.00 in0.0 mm 0.00 in0.0 mm 0.00 in0.0 mm
02:23 AM 0.5°F-17.5°C -3.4°F-19.7°C 83% Calm Calm 1.7 mph2.7 kmh 30.63 in1037.3 mb 0.00 in0.0 mm 0.00 in0.0 mm 0.00 in0.0 mm
02:24 AM 0.5°F-17.5°C -3.4°F-19.7°C 83% Calm Calm 1.7 mph2.7 kmh 30.63 in1037.3 mb 0.00 in0.0 mm 0.00 in0.0 mm 0.00 in0.0 mm
02:25 AM 0.5°F-17.5°C -3.4°F-19.7°C 83% Calm Calm 1.1 mph1.8 kmh 30.63 in1037.3 mb 0.00 in0.0 mm 0.00 in0.0 mm 0.00 in0.0 mm
02:26 AM 0.5°F-17.5°C -3.4°F-19.7°C 83% Calm Calm -- 30.63 in1037.3 mb 0.00 in0.0 mm 0.00 in0.0 mm 0.00 in0.0 mm
02:27 AM 0.5°F-17.5°C -3.4°F-19.7°C 83% Calm Calm -- 30.63 in1037.3 mb 0.00 in0.0 mm 0.00 in0.0 mm 0.00 in0.0 mm
02:28 AM 0.7°F-17.4°C -3.2°F-19.6°C 83% 2.2 mph W3.5 kmh W 2.2 mph3.5 kmh 30.63 in1037.3 mb 0.00 in0.0 mm 0.00 in0.0 mm 0.00 in0.0 mm
02:29 AM 0.7°F-17.4°C -3.2°F-19.6°C 83% 1.7 mph W2.7 kmh W 2.2 mph3.5 kmh 30.64 in1037.6 mb 0.00 in0.0 mm 0.00 in0.0 mm 0.00 in0.0 mm
02:30 AM 0.5°F-17.5°C -3.7°F-19.8°C 82% Calm Calm 2.2 mph3.5 kmh 30.64 in1037.6 mb 0.00 in0.0 mm 0.00 in0.0 mm 0.00 in0.0 mm
02:31 AM 0.5°F-17.5°C -3.7°F-19.8°C 82% Calm Calm 2.2 mph3.5 kmh 30.64 in1037.6 mb 0.00 in0.0 mm 0.00 in0.0 mm 0.00 in0.0 mm
02:32 AM 0.5°F-17.5°C -3.7°F-19.8°C 82% 2.2 mph W3.5 kmh W 2.2 mph3.5 kmh 30.64 in1037.6 mb 0.00 in0.0 mm 0.00 in0.0 mm 0.00 in0.0 mm
02:33 AM 0.5°F-17.5°C -3.7°F-19.8°C 82% 2.7 mph W4.3 kmh W 2.7 mph4.3 kmh 30.64 in1037.6 mb 0.00 in0.0 mm 0.00 in0.0 mm 0.00 in0.0 mm
02:34 AM 0.7°F-17.4°C -3.5°F-19.7°C 82% 2.7 mph W4.3 kmh W 3.2 mph5.1 kmh 30.64 in1037.6 mb 0.00 in0.0 mm 0.00 in0.0 mm 0.00 in0.0 mm
02:35 AM 0.7°F-17.4°C -3.5°F-19.7°C 82% 2.7 mph W4.3 kmh W 3.2 mph5.1 kmh 30.64 in1037.6 mb 0.00 in0.0 mm 0.00 in0.0 mm 0.00 in0.0 mm
02:36 AM 1.0°F-17.2°C -3.7°F-19.8°C 80% 2.7 mph W4.3 kmh W 3.2 mph5.1 kmh 30.64 in1037.6 mb 0.00 in0.0 mm 0.00 in0.0 mm 0.00 in0.0 mm
02:37 AM 1.2°F-17.1°C -3.5°F-19.7°C 80% 1.7 mph W2.7 kmh W 3.2 mph5.1 kmh 30.64 in1037.6 mb 0.00 in0.0 mm 0.00 in0.0 mm 0.00 in0.0 mm
02:38 AM 1.2°F-17.1°C -3.5°F-19.7°C 80% 1.1 mph W1.8 kmh W 3.2 mph5.1 kmh 30.64 in1037.6 mb 0.00 in0.0 mm 0.00 in0.0 mm 0.00 in0.0 mm
02:39 AM 1.2°F-17.1°C -3.5°F-19.7°C 80% Calm Calm 3.2 mph5.1 kmh 30.64 in1037.6 mb 0.00 in0.0 mm 0.00 in0.0 mm 0.00 in0.0 mm
02:40 AM 1.0°F-17.2°C -4.0°F-20.0°C 79% Calm Calm 3.2 mph5.1 kmh 30.64 in1037.6 mb 0.00 in0.0 mm 0.00 in0.0 mm 0.00 in0.0 mm
02:41 AM 1.0°F-17.2°C -4.0°F-20.0°C 79% Calm Calm 3.2 mph5.1 kmh 30.64 in1037.6 mb 0.00 in0.0 mm 0.00 in0.0 mm 0.00 in0.0 mm
02:42 AM 0.9°F-17.3°C -4.1°F-20.1°C 79% Calm Calm 3.2 mph5.1 kmh 30.64 in1037.6 mb 0.00 in0.0 mm 0.00 in0.0 mm 0.00 in0.0 mm
02:43 AM 0.9°F-17.3°C -4.1°F-20.1°C 79% Calm Calm 3.2 mph5.1 kmh 30.64 in1037.6 mb 0.00 in0.0 mm 0.00 in0.0 mm 0.00 in0.0 mm
02:44 AM 0.7°F-17.4°C -4.3°F-20.2°C 79% Calm Calm 2.7 mph4.3 kmh 30.64 in1037.6 mb 0.00 in0.0 mm 0.00 in0.0 mm 0.00 in0.0 mm
02:45 AM 0.7°F-17.4°C -4.3°F-20.2°C 79% Calm Calm 2.7 mph4.3 kmh 30.64 in1037.6 mb 0.00 in0.0 mm 0.00 in0.0 mm 0.00 in0.0 mm
02:46 AM 0.7°F-17.4°C -4.3°F-20.2°C 79% Calm Calm 2.7 mph4.3 kmh 30.64 in1037.6 mb 0.00 in0.0 mm 0.00 in0.0 mm 0.00 in0.0 mm
02:47 AM 0.5°F-17.5°C -4.4°F-20.2°C 79% Calm Calm 1.7 mph2.7 kmh 30.64 in1037.6 mb 0.00 in0.0 mm 0.00 in0.0 mm 0.00 in0.0 mm
02:48 AM 0.3°F-17.6°C -4.4°F-20.2°C 80% Calm Calm 1.1 mph1.8 kmh 30.64 in1037.6 mb 0.00 in0.0 mm 0.00 in0.0 mm 0.00 in0.0 mm
02:49 AM 0.3°F-17.6°C -4.4°F-20.2°C 80% Calm Calm -- 30.64 in1037.6 mb 0.00 in0.0 mm 0.00 in0.0 mm 0.00 in0.0 mm
02:50 AM 0.3°F-17.6°C -4.4°F-20.2°C 80% Calm Calm -- 30.64 in1037.6 mb 0.00 in0.0 mm 0.00 in0.0 mm 0.00 in0.0 mm
02:51 AM 0.3°F-17.6°C -4.4°F-20.2°C 80% Calm Calm -- 30.64 in1037.6 mb 0.00 in0.0 mm 0.00 in0.0 mm 0.00 in0.0 mm
02:52 AM 0.1°F-17.7°C -4.6°F-20.3°C 80% Calm Calm -- 30.64 in1037.6 mb 0.00 in0.0 mm 0.00 in0.0 mm 0.00 in0.0 mm
02:53 AM 0.0°F-17.8°C -4.9°F-20.5°C 79% Calm Calm -- 30.64 in1037.6 mb 0.00 in0.0 mm 0.00 in0.0 mm 0.00 in0.0 mm
02:54 AM 0.0°F-17.8°C -4.9°F-20.5°C 79% Calm Calm -- 30.64 in1037.6 mb 0.00 in0.0 mm 0.00 in0.0 mm 0.00 in0.0 mm
02:55 AM -0.2°F-17.9°C -5.1°F-20.6°C 79% Calm Calm -- 30.64 in1037.6 mb 0.00 in0.0 mm 0.00 in0.0 mm 0.00 in0.0 mm
02:56 AM -0.2°F-17.9°C -5.1°F-20.6°C 79% Calm Calm -- 30.64 in1037.6 mb 0.00 in0.0 mm 0.00 in0.0 mm 0.00 in0.0 mm
02:57 AM -0.4°F-18.0°C -5.3°F-20.7°C 79% Calm Calm -- 30.64 in1037.6 mb 0.00 in0.0 mm 0.00 in0.0 mm 0.00 in0.0 mm
02:58 AM -0.4°F-18.0°C -5.3°F-20.7°C 79% Calm Calm -- 30.64 in1037.6 mb 0.00 in0.0 mm 0.00 in0.0 mm 0.00 in0.0 mm
02:59 AM -0.4°F-18.0°C -5.3°F-20.7°C 79% Calm Calm -- 30.64 in1037.6 mb 0.00 in0.0 mm 0.00 in0.0 mm 0.00 in0.0 mm
03:00 AM -0.4°F-18.0°C -5.1°F-20.6°C 80% Calm Calm -- 30.64 in1037.6 mb 0.00 in0.0 mm 0.00 in0.0 mm 0.00 in0.0 mm
03:01 AM -0.6°F-18.1°C -5.3°F-20.7°C 80% 1.7 mph W2.7 kmh W 1.7 mph2.7 kmh 30.64 in1037.6 mb 0.00 in0.0 mm 0.00 in0.0 mm 0.00 in0.0 mm
03:02 AM -0.6°F-18.1°C -5.3°F-20.7°C 80% 1.1 mph W1.8 kmh W 1.7 mph2.7 kmh 30.64 in1037.6 mb 0.00 in0.0 mm 0.00 in0.0 mm 0.00 in0.0 mm
03:03 AM -0.6°F-18.1°C -5.3°F-20.7°C 80% Calm Calm 1.7 mph2.7 kmh 30.64 in1037.6 mb 0.00 in0.0 mm 0.00 in0.0 mm 0.00 in0.0 mm
03:04 AM -0.6°F-18.1°C -5.0°F-20.6°C 81% Calm Calm 1.7 mph2.7 kmh 30.64 in1037.6 mb 0.00 in0.0 mm 0.00 in0.0 mm 0.00 in0.0 mm
03:05 AM -0.8°F-18.2°C -5.2°F-20.7°C 81% Calm Calm 1.7 mph2.7 kmh 30.65 in1037.9 mb 0.00 in0.0 mm 0.00 in0.0 mm 0.00 in0.0 mm
03:06 AM -0.6°F-18.1°C -5.0°F-20.6°C 81% Calm Calm 1.7 mph2.7 kmh 30.65 in1037.9 mb 0.00 in0.0 mm 0.00 in0.0 mm 0.00 in0.0 mm
03:07 AM -0.8°F-18.2°C -5.2°F-20.7°C 81% Calm Calm 1.7 mph2.7 kmh 30.65 in1037.9 mb 0.00 in0.0 mm 0.00 in0.0 mm 0.00 in0.0 mm
03:08 AM -0.8°F-18.2°C -5.2°F-20.7°C 81% Calm Calm 1.7 mph2.7 kmh 30.65 in1037.9 mb 0.00 in0.0 mm 0.00 in0.0 mm 0.00 in0.0 mm
03:09 AM -0.9°F-18.3°C -5.3°F-20.7°C 81% Calm Calm 1.7 mph2.7 kmh 30.65 in1037.9 mb 0.00 in0.0 mm 0.00 in0.0 mm 0.00 in0.0 mm
03:10 AM -0.9°F-18.3°C -5.3°F-20.7°C 81% Calm Calm 1.7 mph2.7 kmh 30.65 in1037.9 mb 0.00 in0.0 mm 0.00 in0.0 mm 0.00 in0.0 mm
03:11 AM -1.1°F-18.4°C -5.5°F-20.8°C 81% Calm Calm 1.7 mph2.7 kmh 30.65 in1037.9 mb 0.00 in0.0 mm 0.00 in0.0 mm 0.00 in0.0 mm
03:12 AM -1.1°F-18.4°C -5.5°F-20.8°C 81% Calm Calm 1.1 mph1.8 kmh 30.65 in1037.9 mb 0.00 in0.0 mm 0.00 in0.0 mm 0.00 in0.0 mm
03:13 AM -1.1°F-18.4°C -5.5°F-20.8°C 81% Calm Calm -- 30.65 in1037.9 mb 0.00 in0.0 mm 0.00 in0.0 mm 0.00 in0.0 mm
03:14 AM -1.1°F-18.4°C -5.2°F-20.7°C 82% 1.7 mph W2.7 kmh W 1.7 mph2.7 kmh 30.65 in1037.9 mb 0.00 in0.0 mm 0.00 in0.0 mm 0.00 in0.0 mm
03:15 AM -0.9°F-18.3°C -5.0°F-20.6°C 82% 1.7 mph W2.7 kmh W 1.7 mph2.7 kmh 30.65 in1037.9 mb 0.00 in0.0 mm 0.00 in0.0 mm 0.00 in0.0 mm
03:16 AM -0.9°F-18.3°C -5.0°F-20.6°C 82% 1.7 mph W2.7 kmh W 1.7 mph2.7 kmh 30.65 in1037.9 mb 0.00 in0.0 mm 0.00 in0.0 mm 0.00 in0.0 mm
03:17 AM -0.8°F-18.2°C -4.9°F-20.5°C 82% 1.7 mph WSW2.7 kmh WSW 2.2 mph3.5 kmh 30.66 in1038.3 mb 0.00 in0.0 mm 0.00 in0.0 mm 0.00 in0.0 mm
03:18 AM -0.6°F-18.1°C -4.8°F-20.4°C 82% 1.7 mph W2.7 kmh W 2.2 mph3.5 kmh 30.66 in1038.3 mb 0.00 in0.0 mm 0.00 in0.0 mm 0.00 in0.0 mm
03:19 AM -0.6°F-18.1°C -4.8°F-20.4°C 82% Calm Calm 2.2 mph3.5 kmh 30.66 in1038.3 mb 0.00 in0.0 mm 0.00 in0.0 mm 0.00 in0.0 mm
03:20 AM -0.6°F-18.1°C -4.8°F-20.4°C 82% Calm Calm 2.2 mph3.5 kmh 30.66 in1038.3 mb 0.00 in0.0 mm 0.00 in0.0 mm 0.00 in0.0 mm
03:21 AM -0.6°F-18.1°C -4.8°F-20.4°C 82% Calm Calm 2.2 mph3.5 kmh 30.66 in1038.3 mb 0.00 in0.0 mm 0.00 in0.0 mm 0.00 in0.0 mm
03:22 AM -0.6°F-18.1°C -4.8°F-20.4°C 82% 1.1 mph W1.8 kmh W 2.2 mph3.5 kmh 30.66 in1038.3 mb 0.00 in0.0 mm 0.00 in0.0 mm 0.00 in0.0 mm
03:23 AM -0.6°F-18.1°C -4.8°F-20.4°C 82% Calm Calm 2.2 mph3.5 kmh 30.66 in1038.3 mb 0.00 in0.0 mm 0.00 in0.0 mm 0.00 in0.0 mm
03:24 AM -0.6°F-18.1°C -4.8°F-20.4°C 82% Calm Calm 2.2 mph3.5 kmh 30.66 in1038.3 mb 0.00 in0.0 mm 0.00 in0.0 mm 0.00 in0.0 mm
03:25 AM -0.6°F-18.1°C -4.8°F-20.4°C 82% 1.7 mph W2.7 kmh W 2.2 mph3.5 kmh 30.66 in1038.3 mb 0.00 in0.0 mm 0.00 in0.0 mm 0.00 in0.0 mm
03:26 AM -0.6°F-18.1°C -4.5°F-20.3°C 83% 1.7 mph W2.7 kmh W 2.2 mph3.5 kmh 30.66 in1038.3 mb 0.00 in0.0 mm 0.00 in0.0 mm 0.00 in0.0 mm
03:27 AM -0.4°F-18.0°C -4.3°F-20.2°C 83% 1.1 mph W1.8 kmh W 2.2 mph3.5 kmh 30.66 in1038.3 mb 0.00 in0.0 mm 0.00 in0.0 mm 0.00 in0.0 mm
03:28 AM -0.4°F-18.0°C -4.3°F-20.2°C 83% 1.7 mph W2.7 kmh W 2.2 mph3.5 kmh 30.66 in1038.3 mb 0.00 in0.0 mm 0.00 in0.0 mm 0.00 in0.0 mm
03:29 AM -0.4°F-18.0°C -4.3°F-20.2°C 83% 1.7 mph W2.7 kmh W 2.2 mph3.5 kmh 30.66 in1038.3 mb 0.00 in0.0 mm 0.00 in0.0 mm 0.00 in0.0 mm
03:30 AM -0.2°F-17.9°C -4.1°F-20.1°C 83% 1.7 mph W2.7 kmh W 2.2 mph3.5 kmh 30.66 in1038.3 mb 0.00 in0.0 mm 0.00 in0.0 mm 0.00 in0.0 mm
03:31 AM -0.2°F-17.9°C -4.1°F-20.1°C 83% 1.7 mph W2.7 kmh W 2.2 mph3.5 kmh 30.66 in1038.3 mb 0.00 in0.0 mm 0.00 in0.0 mm 0.00 in0.0 mm
03:32 AM -0.2°F-17.9°C -4.1°F-20.1°C 83% 1.7 mph W2.7 kmh W 2.2 mph3.5 kmh 30.66 in1038.3 mb 0.00 in0.0 mm 0.00 in0.0 mm 0.00 in0.0 mm
03:33 AM -0.2°F-17.9°C -3.9°F-19.9°C 84% 1.1 mph W1.8 kmh W 2.2 mph3.5 kmh 30.66 in1038.3 mb 0.00 in0.0 mm 0.00 in0.0 mm 0.00 in0.0 mm
03:34 AM -0.2°F-17.9°C -3.9°F-19.9°C 84% Calm Calm 2.2 mph3.5 kmh 30.66 in1038.3 mb 0.00 in0.0 mm 0.00 in0.0 mm 0.00 in0.0 mm
03:35 AM -0.2°F-17.9°C -3.9°F-19.9°C 84% Calm Calm 1.7 mph2.7 kmh 30.66 in1038.3 mb 0.00 in0.0 mm 0.00 in0.0 mm 0.00 in0.0 mm
03:36 AM -0.2°F-17.9°C -3.9°F-19.9°C 84% 1.7 mph W2.7 kmh W 1.7 mph2.7 kmh 30.66 in1038.3 mb 0.00 in0.0 mm 0.00 in0.0 mm 0.00 in0.0 mm
03:37 AM -0.2°F-17.9°C -3.9°F-19.9°C 84% 1.7 mph W2.7 kmh W 1.7 mph2.7 kmh 30.66 in1038.3 mb 0.00 in0.0 mm 0.00 in0.0 mm 0.00 in0.0 mm
03:38 AM -0.2°F-17.9°C -3.9°F-19.9°C 84% 1.1 mph W1.8 kmh W 1.7 mph2.7 kmh 30.66 in1038.3 mb 0.00 in0.0 mm 0.00 in0.0 mm 0.00 in0.0 mm
03:39 AM -0.2°F-17.9°C -3.6°F-19.8°C 85% Calm Calm 1.7 mph2.7 kmh 30.66 in1038.3 mb 0.00 in0.0 mm 0.00 in0.0 mm 0.00 in0.0 mm
03:40 AM -0.2°F-17.9°C -3.6°F-19.8°C 85% Calm Calm 1.7 mph2.7 kmh 30.66 in1038.3 mb 0.00 in0.0 mm 0.00 in0.0 mm 0.00 in0.0 mm
03:41 AM -0.4°F-18.0°C -3.8°F-19.9°C 85% 1.7 mph W2.7 kmh W 1.7 mph2.7 kmh 30.66 in1038.3 mb 0.00 in0.0 mm 0.00 in0.0 mm 0.00 in0.0 mm
03:42 AM -0.4°F-18.0°C -3.8°F-19.9°C 85% 1.1 mph W1.8 kmh W 1.7 mph2.7 kmh 30.66 in1038.3 mb 0.00 in0.0 mm 0.00 in0.0 mm 0.00 in0.0 mm
03:43 AM -0.4°F-18.0°C -3.8°F-19.9°C 85% 1.1 mph SSW1.8 kmh SSW 1.7 mph2.7 kmh 30.66 in1038.3 mb 0.00 in0.0 mm 0.00 in0.0 mm 0.00 in0.0 mm
03:44 AM -0.4°F-18.0°C -4.1°F-20.1°C 84% Calm Calm 1.7 mph2.7 kmh 30.66 in1038.3 mb 0.00 in0.0 mm 0.00 in0.0 mm 0.00 in0.0 mm
03:45 AM -0.6°F-18.1°C -4.3°F-20.2°C 84% Calm Calm 1.7 mph2.7 kmh 30.66 in1038.3 mb 0.00 in0.0 mm 0.00 in0.0 mm 0.00 in0.0 mm
03:46 AM -0.6°F-18.1°C -4.3°F-20.2°C 84% Calm Calm 1.7 mph2.7 kmh 30.66 in1038.3 mb 0.00 in0.0 mm 0.00 in0.0 mm 0.00 in0.0 mm
03:47 AM -0.8°F-18.2°C -4.4°F-20.2°C 84% 1.1 mph ESE1.8 kmh ESE 1.7 mph2.7 kmh 30.66 in1038.3 mb 0.00 in0.0 mm 0.00 in0.0 mm 0.00 in0.0 mm
03:48 AM -0.8°F-18.2°C -4.4°F-20.2°C 84% 1.1 mph ESE1.8 kmh ESE 1.7 mph2.7 kmh 30.66 in1038.3 mb 0.00 in0.0 mm 0.00 in0.0 mm 0.00 in0.0 mm
03:49 AM -0.8°F-18.2°C -4.4°F-20.2°C 84% 1.1 mph ESE1.8 kmh ESE 1.7 mph2.7 kmh 30.66 in1038.3 mb 0.00 in0.0 mm 0.00 in0.0 mm 0.00 in0.0 mm
03:50 AM -0.9°F-18.3°C -4.5°F-20.3°C 84% 1.1 mph ESE1.8 kmh ESE 1.7 mph2.7 kmh 30.66 in1038.3 mb 0.00 in0.0 mm 0.00 in0.0 mm 0.00 in0.0 mm
03:51 AM -0.9°F-18.3°C -4.5°F-20.3°C 84% Calm Calm 1.7 mph2.7 kmh 30.66 in1038.3 mb 0.00 in0.0 mm 0.00 in0.0 mm 0.00 in0.0 mm
03:52 AM -1.1°F-18.4°C -4.7°F-20.4°C 84% Calm Calm 1.7 mph2.7 kmh 30.66 in1038.3 mb 0.00 in0.0 mm 0.00 in0.0 mm 0.00 in0.0 mm
03:53 AM -1.1°F-18.4°C -4.7°F-20.4°C 84% Calm Calm 1.1 mph1.8 kmh 30.66 in1038.3 mb 0.00 in0.0 mm 0.00 in0.0 mm 0.00 in0.0 mm
03:54 AM -1.1°F-18.4°C -4.7°F-20.4°C 84% Calm Calm 1.1 mph1.8 kmh 30.66 in1038.3 mb 0.00 in0.0 mm 0.00 in0.0 mm 0.00 in0.0 mm
03:55 AM -1.3°F-18.5°C -4.9°F-20.5°C 84% Calm Calm 1.1 mph1.8 kmh 30.66 in1038.3 mb 0.00 in0.0 mm 0.00 in0.0 mm 0.00 in0.0 mm
03:56 AM -1.5°F-18.6°C -5.1°F-20.6°C 84% Calm Calm 1.1 mph1.8 kmh 30.66 in1038.3 mb 0.00 in0.0 mm 0.00 in0.0 mm 0.00 in0.0 mm
03:57 AM -1.5°F-18.6°C -5.1°F-20.6°C 84% Calm Calm 1.1 mph1.8 kmh 30.66 in1038.3 mb 0.00 in0.0 mm 0.00 in0.0 mm 0.00 in0.0 mm
03:58 AM -1.5°F-18.6°C -4.6°F-20.3°C 86% Calm Calm 1.1 mph1.8 kmh 30.66 in1038.3 mb 0.00 in0.0 mm 0.00 in0.0 mm 0.00 in0.0 mm
03:59 AM -1.5°F-18.6°C -4.6°F-20.3°C 86% 1.7 mph W2.7 kmh W 1.7 mph2.7 kmh 30.66 in1038.3 mb 0.00 in0.0 mm 0.00 in0.0 mm 0.00 in0.0 mm
04:00 AM -1.5°F-18.6°C -4.6°F-20.3°C 86% 2.2 mph W3.5 kmh W 2.2 mph3.5 kmh 30.66 in1038.3 mb 0.00 in0.0 mm 0.00 in0.0 mm 0.00 in0.0 mm
04:01 AM -1.3°F-18.5°C -4.5°F-20.3°C 86% 1.7 mph W2.7 kmh W 2.2 mph3.5 kmh 30.66 in1038.3 mb 0.00 in0.0 mm 0.00 in0.0 mm 0.00 in0.0 mm
04:02 AM -1.1°F-18.4°C -4.0°F-20.0°C 87% 1.7 mph W2.7 kmh W 2.2 mph3.5 kmh 30.66 in1038.3 mb 0.00 in0.0 mm 0.00 in0.0 mm 0.00 in0.0 mm
04:03 AM -1.1°F-18.4°C -4.0°F-20.0°C 87% 1.1 mph W1.8 kmh W 2.2 mph3.5 kmh 30.66 in1038.3 mb 0.00 in0.0 mm 0.00 in0.0 mm 0.00 in0.0 mm
04:04 AM -1.1°F-18.4°C -4.0°F-20.0°C 87% 1.7 mph W2.7 kmh W 2.2 mph3.5 kmh 30.66 in1038.3 mb 0.00 in0.0 mm 0.00 in0.0 mm 0.00 in0.0 mm
04:05 AM -1.1°F-18.4°C -4.0°F-20.0°C 87% 1.7 mph W2.7 kmh W 2.2 mph3.5 kmh 30.66 in1038.3 mb 0.00 in0.0 mm 0.00 in0.0 mm 0.00 in0.0 mm
04:06 AM -1.1°F-18.4°C -4.0°F-20.0°C 87% 1.7 mph W2.7 kmh W 2.2 mph3.5 kmh 30.66 in1038.3 mb 0.00 in0.0 mm 0.00 in0.0 mm 0.00 in0.0 mm
04:07 AM -1.1°F-18.4°C -4.0°F-20.0°C 87% 1.7 mph W2.7 kmh W 2.2 mph3.5 kmh 30.66 in1038.3 mb 0.00 in0.0 mm 0.00 in0.0 mm 0.00 in0.0 mm
04:08 AM -1.1°F-18.4°C -4.0°F-20.0°C 87% 1.1 mph W1.8 kmh W 2.2 mph3.5 kmh 30.66 in1038.3 mb 0.00 in0.0 mm 0.00 in0.0 mm 0.00 in0.0 mm
04:09 AM -1.1°F-18.4°C -4.0°F-20.0°C 87% Calm Calm 2.2 mph3.5 kmh 30.66 in1038.3 mb 0.00 in0.0 mm 0.00 in0.0 mm 0.00 in0.0 mm
04:10 AM -1.1°F-18.4°C -4.0°F-20.0°C 87% Calm Calm 2.2 mph3.5 kmh 30.66 in1038.3 mb 0.00 in0.0 mm 0.00 in0.0 mm 0.00 in0.0 mm
04:11 AM -1.1°F-18.4°C -4.0°F-20.0°C 87% Calm Calm 1.7 mph2.7 kmh 30.66 in1038.3 mb 0.00 in0.0 mm 0.00 in0.0 mm 0.00 in0.0 mm
04:12 AM -1.1°F-18.4°C -4.0°F-20.0°C 87% Calm Calm 1.7 mph2.7 kmh 30.66 in1038.3 mb 0.00 in0.0 mm 0.00 in0.0 mm 0.00 in0.0 mm
04:13 AM -1.1°F-18.4°C -4.0°F-20.0°C 87% Calm Calm 1.7 mph2.7 kmh 30.66 in1038.3 mb 0.00 in0.0 mm 0.00 in0.0 mm 0.00 in0.0 mm
04:14 AM -1.1°F-18.4°C -4.0°F-20.0°C 87% Calm Calm 1.7 mph2.7 kmh 30.66 in1038.3 mb 0.00 in0.0 mm 0.00 in0.0 mm 0.00 in0.0 mm
04:15 AM -1.1°F-18.4°C -4.0°F-20.0°C 87% Calm Calm 1.7 mph2.7 kmh 30.66 in1038.3 mb 0.00 in0.0 mm 0.00 in0.0 mm 0.00 in0.0 mm
04:16 AM -1.1°F-18.4°C -4.0°F-20.0°C 87% Calm Calm 1.7 mph2.7 kmh 30.66 in1038.3 mb 0.00 in0.0 mm 0.00 in0.0 mm 0.00 in0.0 mm
04:17 AM -1.1°F-18.4°C -4.0°F-20.0°C 87% Calm Calm 1.7 mph2.7 kmh 30.66 in1038.3 mb 0.00 in0.0 mm 0.00 in0.0 mm 0.00 in0.0 mm
04:18 AM -1.3°F-18.5°C -4.2°F-20.1°C 87% Calm Calm 1.1 mph1.8 kmh 30.66 in1038.3 mb 0.00 in0.0 mm 0.00 in0.0 mm 0.00 in0.0 mm
04:19 AM -1.3°F-18.5°C -4.2°F-20.1°C 87% Calm Calm -- 30.66 in1038.3 mb 0.00 in0.0 mm 0.00 in0.0 mm 0.00 in0.0 mm
04:20 AM -1.5°F-18.6°C -4.4°F-20.2°C 87% Calm Calm -- 30.66 in1038.3 mb 0.00 in0.0 mm 0.00 in0.0 mm 0.00 in0.0 mm
04:21 AM -1.5°F-18.6°C -4.4°F-20.2°C 87% Calm Calm -- 30.66 in1038.3 mb 0.00 in0.0 mm 0.00 in0.0 mm 0.00 in0.0 mm
04:22 AM -1.5°F-18.6°C -4.4°F-20.2°C 87% Calm Calm -- 30.66 in1038.3 mb 0.00 in0.0 mm 0.00 in0.0 mm 0.00 in0.0 mm
04:23 AM -1.5°F-18.6°C -4.4°F-20.2°C 87% Calm Calm -- 30.66 in1038.3 mb 0.00 in0.0 mm 0.00 in0.0 mm 0.00 in0.0 mm
04:24 AM -1.7°F-18.7°C -4.6°F-20.3°C 87% Calm Calm -- 30.66 in1038.3 mb 0.00 in0.0 mm 0.00 in0.0 mm 0.00 in0.0 mm
04:25 AM -1.8°F-18.8°C -4.7°F-20.4°C 87% Calm Calm -- 30.66 in1038.3 mb 0.00 in0.0 mm 0.00 in0.0 mm 0.00 in0.0 mm
04:26 AM -1.8°F-18.8°C -4.7°F-20.4°C 87% Calm Calm -- 30.66 in1038.3 mb 0.00 in0.0 mm 0.00 in0.0 mm 0.00 in0.0 mm
04:27 AM -1.7°F-18.7°C -4.6°F-20.3°C 87% Calm Calm -- 30.66 in1038.3 mb 0.00 in0.0 mm 0.00 in0.0 mm 0.00 in0.0 mm
04:28 AM -1.7°F-18.7°C -4.1°F-20.1°C 89% Calm Calm -- 30.66 in1038.3 mb 0.00 in0.0 mm 0.00 in0.0 mm 0.00 in0.0 mm
04:29 AM -1.5°F-18.6°C -3.9°F-19.9°C 89% Calm Calm -- 30.66 in1038.3 mb 0.00 in0.0 mm 0.00 in0.0 mm 0.00 in0.0 mm
04:30 AM -1.5°F-18.6°C -3.9°F-19.9°C 89% Calm Calm -- 30.66 in1038.3 mb 0.00 in0.0 mm 0.00 in0.0 mm 0.00 in0.0 mm
04:31 AM -1.8°F-18.8°C -4.2°F-20.1°C 89% Calm Calm -- 30.66 in1038.3 mb 0.00 in0.0 mm 0.00 in0.0 mm 0.00 in0.0 mm
04:32 AM -1.8°F-18.8°C -4.5°F-20.3°C 88% Calm Calm -- 30.66 in1038.3 mb 0.00 in0.0 mm 0.00 in0.0 mm 0.00 in0.0 mm
04:33 AM -2.0°F-18.9°C -4.7°F-20.4°C 88% Calm Calm -- 30.66 in1038.3 mb 0.00 in0.0 mm 0.00 in0.0 mm 0.00 in0.0 mm
04:34 AM -2.0°F-18.9°C -4.7°F-20.4°C 88% Calm Calm -- 30.66 in1038.3 mb 0.00 in0.0 mm 0.00 in0.0 mm 0.00 in0.0 mm
04:35 AM -2.2°F-19.0°C -5.1°F-20.6°C 87% Calm Calm -- 30.66 in1038.3 mb 0.00 in0.0 mm 0.00 in0.0 mm 0.00 in0.0 mm
04:36 AM -2.2°F-19.0°C -5.1°F-20.6°C 87% Calm Calm -- 30.66 in1038.3 mb 0.00 in0.0 mm 0.00 in0.0 mm 0.00 in0.0 mm
04:37 AM -2.2°F-19.0°C -5.1°F-20.6°C 87% Calm Calm -- 30.66 in1038.3 mb 0.00 in0.0 mm 0.00 in0.0 mm 0.00 in0.0 mm
04:38 AM -2.2°F-19.0°C -5.1°F-20.6°C 87% Calm Calm -- 30.66 in1038.3 mb 0.00 in0.0 mm 0.00 in0.0 mm 0.00 in0.0 mm
04:39 AM -2.2°F-19.0°C -4.9°F-20.5°C 88% Calm Calm -- 30.66 in1038.3 mb 0.00 in0.0 mm 0.00 in0.0 mm 0.00 in0.0 mm
04:40 AM -1.8°F-18.8°C -4.0°F-20.0°C 90% 1.7 mph W2.7 kmh W 1.7 mph2.7 kmh 30.66 in1038.3 mb 0.00 in0.0 mm 0.00 in0.0 mm 0.00 in0.0 mm
04:41 AM -1.8°F-18.8°C -4.0°F-20.0°C 90% 1.7 mph W2.7 kmh W 1.7 mph2.7 kmh 30.65 in1037.9 mb 0.00 in0.0 mm 0.00 in0.0 mm 0.00 in0.0 mm
04:42 AM -1.7°F-18.7°C -3.9°F-19.9°C 90% 1.7 mph W2.7 kmh W 1.7 mph2.7 kmh 30.65 in1037.9 mb 0.00 in0.0 mm 0.00 in0.0 mm 0.00 in0.0 mm
04:43 AM -1.7°F-18.7°C -3.9°F-19.9°C 90% 1.7 mph W2.7 kmh W 1.7 mph2.7 kmh 30.65 in1037.9 mb 0.00 in0.0 mm 0.00 in0.0 mm 0.00 in0.0 mm
04:44 AM -1.7°F-18.7°C -3.9°F-19.9°C 90% 1.1 mph W1.8 kmh W 1.7 mph2.7 kmh 30.65 in1037.9 mb 0.00 in0.0 mm 0.00 in0.0 mm 0.00 in0.0 mm
04:45 AM -1.7°F-18.7°C -3.9°F-19.9°C 90% Calm Calm 1.7 mph2.7 kmh 30.65 in1037.9 mb 0.00 in0.0 mm 0.00 in0.0 mm 0.00 in0.0 mm
04:46 AM -1.7°F-18.7°C -3.9°F-19.9°C 90% Calm Calm 1.7 mph2.7 kmh 30.65 in1037.9 mb 0.00 in0.0 mm 0.00 in0.0 mm 0.00 in0.0 mm
04:47 AM -1.7°F-18.7°C -3.9°F-19.9°C 90% 2.2 mph ESE3.5 kmh ESE 2.2 mph3.5 kmh 30.65 in1037.9 mb 0.00 in0.0 mm 0.00 in0.0 mm 0.00 in0.0 mm
04:48 AM -1.7°F-18.7°C -3.9°F-19.9°C 90% 1.7 mph ESE2.7 kmh ESE 2.2 mph3.5 kmh 30.65 in1037.9 mb 0.00 in0.0 mm 0.00 in0.0 mm 0.00 in0.0 mm
04:49 AM -1.7°F-18.7°C -3.9°F-19.9°C 90% 1.1 mph SSE1.8 kmh SSE 2.2 mph3.5 kmh 30.65 in1037.9 mb 0.00 in0.0 mm 0.00 in0.0 mm 0.00 in0.0 mm
04:50 AM -1.7°F-18.7°C -3.9°F-19.9°C 90% Calm Calm 2.2 mph3.5 kmh 30.65 in1037.9 mb 0.00 in0.0 mm 0.00 in0.0 mm 0.00 in0.0 mm
04:51 AM -1.7°F-18.7°C -3.9°F-19.9°C 90% Calm Calm 2.2 mph3.5 kmh 30.65 in1037.9 mb 0.00 in0.0 mm 0.00 in0.0 mm 0.00 in0.0 mm
04:52 AM -1.8°F-18.8°C -4.0°F-20.0°C 90% 1.7 mph W2.7 kmh W 2.2 mph3.5 kmh 30.65 in1037.9 mb 0.00 in0.0 mm 0.00 in0.0 mm 0.00 in0.0 mm
04:53 AM -1.7°F-18.7°C -3.9°F-19.9°C 90% 2.2 mph W3.5 kmh W 2.2 mph3.5 kmh 30.65 in1037.9 mb 0.00 in0.0 mm 0.00 in0.0 mm 0.00 in0.0 mm
04:54 AM -1.3°F-18.5°C -3.3°F-19.6°C 91% 2.7 mph W4.3 kmh W 2.7 mph4.3 kmh 30.65 in1037.9 mb 0.00 in0.0 mm 0.00 in0.0 mm 0.00 in0.0 mm
04:55 AM -1.1°F-18.4°C -3.1°F-19.5°C 91% 2.7 mph W4.3 kmh W 2.7 mph4.3 kmh 30.65 in1037.9 mb 0.00 in0.0 mm 0.00 in0.0 mm 0.00 in0.0 mm
04:56 AM -0.9°F-18.3°C -2.9°F-19.4°C 91% 2.7 mph W4.3 kmh W 3.2 mph5.1 kmh 30.65 in1037.9 mb 0.00 in0.0 mm 0.00 in0.0 mm 0.00 in0.0 mm
04:57 AM -0.9°F-18.3°C -3.1°F-19.5°C 90% 2.2 mph W3.5 kmh W 3.2 mph5.1 kmh 30.65 in1037.9 mb 0.00 in0.0 mm 0.00 in0.0 mm 0.00 in0.0 mm
04:58 AM -0.8°F-18.2°C -3.0°F-19.4°C 90% 1.1 mph W1.8 kmh W 3.2 mph5.1 kmh 30.65 in1037.9 mb 0.00 in0.0 mm 0.00 in0.0 mm 0.00 in0.0 mm
04:59 AM -0.8°F-18.2°C -3.0°F-19.4°C 90% Calm Calm 3.2 mph5.1 kmh 30.65 in1037.9 mb 0.00 in0.0 mm 0.00 in0.0 mm 0.00 in0.0 mm
05:00 AM -0.9°F-18.3°C -3.3°F-19.6°C 89% Calm Calm 3.2 mph5.1 kmh 30.65 in1037.9 mb 0.00 in0.0 mm 0.00 in0.0 mm 0.00 in0.0 mm
05:01 AM -0.9°F-18.3°C -3.3°F-19.6°C 89% Calm Calm 3.2 mph5.1 kmh 30.65 in1037.9 mb 0.00 in0.0 mm 0.00 in0.0 mm 0.00 in0.0 mm
05:02 AM -1.1°F-18.4°C -3.5°F-19.7°C 89% Calm Calm 3.2 mph5.1 kmh 30.65 in1037.9 mb 0.00 in0.0 mm 0.00 in0.0 mm 0.00 in0.0 mm
05:03 AM -1.1°F-18.4°C -3.5°F-19.7°C 89% 1.7 mph SW2.7 kmh SW 3.2 mph5.1 kmh 30.65 in1037.9 mb 0.00 in0.0 mm 0.00 in0.0 mm 0.00 in0.0 mm
05:04 AM -1.1°F-18.4°C -3.5°F-19.7°C 89% 1.7 mph W2.7 kmh W 3.2 mph5.1 kmh 30.65 in1037.9 mb 0.00 in0.0 mm 0.00 in0.0 mm 0.00 in0.0 mm
05:05 AM -1.1°F-18.4°C -3.5°F-19.7°C 89% 2.2 mph W3.5 kmh W 3.2 mph5.1 kmh 30.65 in1037.9 mb 0.00 in0.0 mm 0.00 in0.0 mm 0.00 in0.0 mm
05:06 AM -1.1°F-18.4°C -3.5°F-19.7°C 89% 1.7 mph W2.7 kmh W 2.7 mph4.3 kmh 30.65 in1037.9 mb 0.00 in0.0 mm 0.00 in0.0 mm 0.00 in0.0 mm
05:07 AM -1.1°F-18.4°C -3.5°F-19.7°C 89% 1.1 mph W1.8 kmh W 2.2 mph3.5 kmh 30.65 in1037.9 mb 0.00 in0.0 mm 0.00 in0.0 mm 0.00 in0.0 mm
05:08 AM -1.1°F-18.4°C -3.5°F-19.7°C 89% Calm Calm 2.2 mph3.5 kmh 30.65 in1037.9 mb 0.00 in0.0 mm 0.00 in0.0 mm 0.00 in0.0 mm
05:09 AM -1.1°F-18.4°C -3.8°F-19.9°C 88% Calm Calm 2.2 mph3.5 kmh 30.65 in1037.9 mb 0.00 in0.0 mm 0.00 in0.0 mm 0.00 in0.0 mm
05:10 AM -1.1°F-18.4°C -3.8°F-19.9°C 88% Calm Calm 2.2 mph3.5 kmh 30.65 in1037.9 mb 0.00 in0.0 mm 0.00 in0.0 mm 0.00 in0.0 mm
05:11 AM -1.5°F-18.6°C -4.2°F-20.1°C 88% Calm Calm 2.2 mph3.5 kmh 30.65 in1037.9 mb 0.00 in0.0 mm 0.00 in0.0 mm 0.00 in0.0 mm
05:12 AM -1.5°F-18.6°C -4.2°F-20.1°C 88% Calm Calm 2.2 mph3.5 kmh 30.65 in1037.9 mb 0.00 in0.0 mm 0.00 in0.0 mm 0.00 in0.0 mm
05:13 AM -1.5°F-18.6°C -4.2°F-20.1°C 88% Calm Calm 2.2 mph3.5 kmh 30.65 in1037.9 mb 0.00 in0.0 mm 0.00 in0.0 mm 0.00 in0.0 mm
05:14 AM -1.5°F-18.6°C -4.2°F-20.1°C 88% Calm Calm 2.2 mph3.5 kmh 30.65 in1037.9 mb 0.00 in0.0 mm 0.00 in0.0 mm 0.00 in0.0 mm
05:15 AM -1.5°F-18.6°C -4.2°F-20.1°C 88% Calm Calm 2.2 mph3.5 kmh 30.65 in1037.9 mb 0.00 in0.0 mm 0.00 in0.0 mm 0.00 in0.0 mm
05:16 AM -1.5°F-18.6°C -4.2°F-20.1°C 88% Calm Calm 2.2 mph3.5 kmh 30.65 in1037.9 mb 0.00 in0.0 mm 0.00 in0.0 mm 0.00 in0.0 mm
05:17 AM -1.5°F-18.6°C -4.2°F-20.1°C 88% Calm Calm -- 30.65 in1037.9 mb 0.00 in0.0 mm 0.00 in0.0 mm 0.00 in0.0 mm
05:18 AM -1.5°F-18.6°C -4.2°F-20.1°C 88% Calm Calm -- 30.65 in1037.9 mb 0.00 in0.0 mm 0.00 in0.0 mm 0.00 in0.0 mm
05:19 AM -1.5°F-18.6°C -4.2°F-20.1°C 88% 2.2 mph W3.5 kmh W 2.2 mph3.5 kmh 30.65 in1037.9 mb 0.00 in0.0 mm 0.00 in0.0 mm 0.00 in0.0 mm
05:20 AM -1.5°F-18.6°C -4.2°F-20.1°C 88% 1.7 mph W2.7 kmh W 2.2 mph3.5 kmh 30.65 in1037.9 mb 0.00 in0.0 mm 0.00 in0.0 mm 0.00 in0.0 mm
05:21 AM -1.5°F-18.6°C -4.2°F-20.1°C 88% 2.7 mph W4.3 kmh W 2.7 mph4.3 kmh 30.65 in1037.9 mb 0.00 in0.0 mm 0.00 in0.0 mm 0.00 in0.0 mm
05:22 AM -1.5°F-18.6°C -3.9°F-19.9°C 89% 1.7 mph W2.7 kmh W 2.7 mph4.3 kmh 30.65 in1037.9 mb 0.00 in0.0 mm 0.00 in0.0 mm 0.00 in0.0 mm
05:23 AM -1.5°F-18.6°C -3.9°F-19.9°C 89% Calm Calm 2.7 mph4.3 kmh 30.65 in1037.9 mb 0.00 in0.0 mm 0.00 in0.0 mm 0.00 in0.0 mm
05:24 AM -1.5°F-18.6°C -3.9°F-19.9°C 89% Calm Calm 2.7 mph4.3 kmh 30.65 in1037.9 mb 0.00 in0.0 mm 0.00 in0.0 mm 0.00 in0.0 mm
05:25 AM -1.5°F-18.6°C -3.9°F-19.9°C 89% Calm Calm 2.7 mph4.3 kmh 30.65 in1037.9 mb 0.00 in0.0 mm 0.00 in0.0 mm 0.00 in0.0 mm
05:26 AM -1.5°F-18.6°C -3.9°F-19.9°C 89% Calm Calm 2.7 mph4.3 kmh 30.65 in1037.9 mb 0.00 in0.0 mm 0.00 in0.0 mm 0.00 in0.0 mm
05:27 AM -1.5°F-18.6°C -3.9°F-19.9°C 89% 1.1 mph WNW1.8 kmh WNW 2.7 mph4.3 kmh 30.65 in1037.9 mb 0.00 in0.0 mm 0.00 in0.0 mm 0.00 in0.0 mm
05:28 AM -1.5°F-18.6°C -3.9°F-19.9°C 89% 1.7 mph W2.7 kmh W 2.7 mph4.3 kmh 30.65 in1037.9 mb 0.00 in0.0 mm 0.00 in0.0 mm 0.00 in0.0 mm
05:29 AM -1.3°F-18.5°C -3.7°F-19.8°C 89% 2.2 mph W3.5 kmh W 2.7 mph4.3 kmh 30.66 in1038.3 mb 0.00 in0.0 mm 0.00 in0.0 mm 0.00 in0.0 mm
05:30 AM -1.3°F-18.5°C -3.7°F-19.8°C 89% 2.7 mph W4.3 kmh W 2.7 mph4.3 kmh 30.66 in1038.3 mb 0.00 in0.0 mm 0.00 in0.0 mm 0.00 in0.0 mm
05:31 AM -0.9°F-18.3°C -3.3°F-19.6°C 89% 2.7 mph W4.3 kmh W 2.7 mph4.3 kmh 30.66 in1038.3 mb 0.00 in0.0 mm 0.00 in0.0 mm 0.00 in0.0 mm
05:32 AM -0.8°F-18.2°C -3.2°F-19.6°C 89% 2.2 mph W3.5 kmh W 2.7 mph4.3 kmh 30.66 in1038.3 mb 0.00 in0.0 mm 0.00 in0.0 mm 0.00 in0.0 mm
05:33 AM -0.8°F-18.2°C -3.2°F-19.6°C 89% Calm Calm 2.7 mph4.3 kmh 30.66 in1038.3 mb 0.00 in0.0 mm 0.00 in0.0 mm 0.00 in0.0 mm
05:34 AM -0.9°F-18.3°C -3.3°F-19.6°C 89% 1.1 mph SE1.8 kmh SE 2.7 mph4.3 kmh 30.66 in1038.3 mb 0.00 in0.0 mm 0.00 in0.0 mm 0.00 in0.0 mm
05:35 AM -0.9°F-18.3°C -3.3°F-19.6°C 89% 1.1 mph ESE1.8 kmh ESE 2.7 mph4.3 kmh 30.66 in1038.3 mb 0.00 in0.0 mm 0.00 in0.0 mm 0.00 in0.0 mm
05:36 AM -1.1°F-18.4°C -3.5°F-19.7°C 89% 1.1 mph ESE1.8 kmh ESE 2.7 mph4.3 kmh 30.66 in1038.3 mb 0.00 in0.0 mm 0.00 in0.0 mm 0.00 in0.0 mm
05:37 AM -1.3°F-18.5°C -3.7°F-19.8°C 89% Calm Calm 2.7 mph4.3 kmh 30.66 in1038.3 mb 0.00 in0.0 mm 0.00 in0.0 mm 0.00 in0.0 mm
05:38 AM -1.3°F-18.5°C -4.0°F-20.0°C 88% Calm Calm 2.7 mph4.3 kmh 30.66 in1038.3 mb 0.00 in0.0 mm 0.00 in0.0 mm 0.00 in0.0 mm
05:39 AM -1.3°F-18.5°C -4.0°F-20.0°C 88% Calm Calm 2.7 mph4.3 kmh 30.66 in1038.3 mb 0.00 in0.0 mm 0.00 in0.0 mm 0.00 in0.0 mm
05:40 AM -1.3°F-18.5°C -4.0°F-20.0°C 88% Calm Calm 2.7 mph4.3 kmh 30.66 in1038.3 mb 0.00 in0.0 mm 0.00 in0.0 mm 0.00 in0.0 mm
05:41 AM -1.5°F-18.6°C -4.2°F-20.1°C 88% Calm Calm 2.7 mph4.3 kmh 30.67 in1038.6 mb 0.00 in0.0 mm 0.00 in0.0 mm 0.00 in0.0 mm
05:42 AM -1.5°F-18.6°C -4.2°F-20.1°C 88% 1.7 mph W2.7 kmh W 2.2 mph3.5 kmh 30.67 in1038.6 mb 0.00 in0.0 mm 0.00 in0.0 mm 0.00 in0.0 mm
05:43 AM -1.5°F-18.6°C -4.2°F-20.1°C 88% Calm Calm 2.2 mph3.5 kmh 30.67 in1038.6 mb 0.00 in0.0 mm 0.00 in0.0 mm 0.00 in0.0 mm
05:44 AM -1.5°F-18.6°C -4.2°F-20.1°C 88% Calm Calm 2.2 mph3.5 kmh 30.67 in1038.6 mb 0.00 in0.0 mm 0.00 in0.0 mm 0.00 in0.0 mm
05:45 AM -1.5°F-18.6°C -4.2°F-20.1°C 88% Calm Calm 2.2 mph3.5 kmh 30.67 in1038.6 mb 0.00 in0.0 mm 0.00 in0.0 mm 0.00 in0.0 mm
05:46 AM -1.5°F-18.6°C -4.2°F-20.1°C 88% Calm Calm 2.2 mph3.5 kmh 30.67 in1038.6 mb 0.00 in0.0 mm 0.00 in0.0 mm 0.00 in0.0 mm
05:47 AM -1.5°F-18.6°C -4.2°F-20.1°C 88% Calm Calm 2.2 mph3.5 kmh 30.67 in1038.6 mb 0.00 in0.0 mm 0.00 in0.0 mm 0.00 in0.0 mm
05:48 AM -1.5°F-18.6°C -4.2°F-20.1°C 88% 1.7 mph W2.7 kmh W 2.2 mph3.5 kmh 30.67 in1038.6 mb 0.00 in0.0 mm 0.00 in0.0 mm 0.00 in0.0 mm
05:49 AM -1.5°F-18.6°C -4.2°F-20.1°C 88% 2.2 mph W3.5 kmh W 2.2 mph3.5 kmh 30.67 in1038.6 mb 0.00 in0.0 mm 0.00 in0.0 mm 0.00 in0.0 mm
05:50 AM -1.5°F-18.6°C -4.2°F-20.1°C 88% 1.7 mph W2.7 kmh W 2.2 mph3.5 kmh 30.67 in1038.6 mb 0.00 in0.0 mm 0.00 in0.0 mm 0.00 in0.0 mm
05:51 AM -1.5°F-18.6°C -4.2°F-20.1°C 88% 1.7 mph WSW2.7 kmh WSW 2.2 mph3.5 kmh 30.67 in1038.6 mb 0.00 in0.0 mm 0.00 in0.0 mm 0.00 in0.0 mm
05:52 AM -1.5°F-18.6°C -4.2°F-20.1°C 88% Calm Calm 2.2 mph3.5 kmh 30.67 in1038.6 mb 0.00 in0.0 mm 0.00 in0.0 mm 0.00 in0.0 mm
05:53 AM -1.5°F-18.6°C -4.2°F-20.1°C 88% 1.1 mph SSE1.8 kmh SSE 2.2 mph3.5 kmh 30.67 in1038.6 mb 0.00 in0.0 mm 0.00 in0.0 mm 0.00 in0.0 mm
05:54 AM -1.5°F-18.6°C -4.2°F-20.1°C 88% 1.1 mph SSE1.8 kmh SSE 2.2 mph3.5 kmh 30.67 in1038.6 mb 0.00 in0.0 mm 0.00 in0.0 mm 0.00 in0.0 mm
05:55 AM -1.5°F-18.6°C -4.2°F-20.1°C 88% Calm Calm 2.2 mph3.5 kmh 30.67 in1038.6 mb 0.00 in0.0 mm 0.00 in0.0 mm 0.00 in0.0 mm
05:56 AM -1.7°F-18.7°C -4.4°F-20.2°C 88% Calm Calm 2.2 mph3.5 kmh 30.67 in1038.6 mb 0.00 in0.0 mm 0.00 in0.0 mm 0.00 in0.0 mm
05:57 AM -1.8°F-18.8°C -4.5°F-20.3°C 88% 1.7 mph W2.7 kmh W 2.2 mph3.5 kmh 30.67 in1038.6 mb 0.00 in0.0 mm 0.00 in0.0 mm 0.00 in0.0 mm
05:58 AM -1.8°F-18.8°C -4.5°F-20.3°C 88% 2.2 mph W3.5 kmh W 2.2 mph3.5 kmh 30.67 in1038.6 mb 0.00 in0.0 mm 0.00 in0.0 mm 0.00 in0.0 mm
05:59 AM -1.7°F-18.7°C -4.4°F-20.2°C 88% 2.2 mph W3.5 kmh W 2.7 mph4.3 kmh 30.67 in1038.6 mb 0.00 in0.0 mm 0.00 in0.0 mm 0.00 in0.0 mm
06:00 AM -1.7°F-18.7°C -4.4°F-20.2°C 88% 2.2 mph W3.5 kmh W 2.7 mph4.3 kmh 30.67 in1038.6 mb 0.00 in0.0 mm 0.00 in0.0 mm 0.00 in0.0 mm
06:01 AM -1.7°F-18.7°C -4.4°F-20.2°C 88% 1.7 mph WSW2.7 kmh WSW 2.7 mph4.3 kmh 30.67 in1038.6 mb 0.00 in0.0 mm 0.00 in0.0 mm 0.00 in0.0 mm
06:02 AM -1.7°F-18.7°C -4.4°F-20.2°C 88% Calm Calm 2.7 mph4.3 kmh 30.67 in1038.6 mb 0.00 in0.0 mm 0.00 in0.0 mm 0.00 in0.0 mm
06:03 AM -1.7°F-18.7°C -4.4°F-20.2°C 88% Calm Calm 2.7 mph4.3 kmh 30.67 in1038.6 mb 0.00 in0.0 mm 0.00 in0.0 mm 0.00 in0.0 mm
06:04 AM -1.7°F-18.7°C -4.4°F-20.2°C 88% Calm Calm 2.7 mph4.3 kmh 30.67 in1038.6 mb 0.00 in0.0 mm 0.00 in0.0 mm 0.00 in0.0 mm
06:05 AM -1.8°F-18.8°C -4.5°F-20.3°C 88% Calm Calm 2.7 mph4.3 kmh 30.67 in1038.6 mb 0.00 in0.0 mm 0.00 in0.0 mm 0.00 in0.0 mm
06:06 AM -1.8°F-18.8°C -4.5°F-20.3°C 88% Calm Calm 2.7 mph4.3 kmh 30.67 in1038.6 mb 0.00 in0.0 mm 0.00 in0.0 mm 0.00 in0.0 mm
06:07 AM -2.0°F-18.9°C -4.7°F-20.4°C 88% Calm Calm 2.7 mph4.3 kmh 30.67 in1038.6 mb 0.00 in0.0 mm 0.00 in0.0 mm 0.00 in0.0 mm
06:08 AM -2.0°F-18.9°C -4.7°F-20.4°C 88% 1.7 mph WSW2.7 kmh WSW 2.7 mph4.3 kmh 30.67 in1038.6 mb 0.00 in0.0 mm 0.00 in0.0 mm 0.00 in0.0 mm
06:09 AM -2.0°F-18.9°C -4.7°F-20.4°C 88% 1.7 mph SW2.7 kmh SW 2.7 mph4.3 kmh 30.67 in1038.6 mb 0.00 in0.0 mm 0.00 in0.0 mm 0.00 in0.0 mm
06:10 AM -2.2°F-19.0°C -4.9°F-20.5°C 88% Calm Calm 2.2 mph3.5 kmh 30.67 in1038.6 mb 0.00 in0.0 mm 0.00 in0.0 mm 0.00 in0.0 mm
06:11 AM -2.2°F-19.0°C -4.9°F-20.5°C 88% Calm Calm 1.7 mph2.7 kmh 30.67 in1038.6 mb 0.00 in0.0 mm 0.00 in0.0 mm 0.00 in0.0 mm
06:12 AM -2.2°F-19.0°C -4.9°F-20.5°C 88% Calm Calm 1.7 mph2.7 kmh 30.67 in1038.6 mb 0.00 in0.0 mm 0.00 in0.0 mm 0.00 in0.0 mm
06:13 AM -2.4°F-19.1°C -5.1°F-20.6°C 88% Calm Calm 1.7 mph2.7 kmh 30.67 in1038.6 mb 0.00 in0.0 mm 0.00 in0.0 mm 0.00 in0.0 mm
06:14 AM -2.4°F-19.1°C -5.1°F-20.6°C 88% Calm Calm 1.7 mph2.7 kmh 30.67 in1038.6 mb 0.00 in0.0 mm 0.00 in0.0 mm 0.00 in0.0 mm
06:15 AM -2.6°F-19.2°C -5.3°F-20.7°C 88% Calm Calm 1.7 mph2.7 kmh 30.67 in1038.6 mb 0.00 in0.0 mm 0.00 in0.0 mm 0.00 in0.0 mm
06:16 AM -2.6°F-19.2°C -5.5°F-20.8°C 87% Calm Calm 1.7 mph2.7 kmh 30.67 in1038.6 mb 0.00 in0.0 mm 0.00 in0.0 mm 0.00 in0.0 mm
06:17 AM -2.6°F-19.2°C -5.3°F-20.7°C 88% Calm Calm 1.7 mph2.7 kmh 30.68 in1038.9 mb 0.00 in0.0 mm 0.00 in0.0 mm 0.00 in0.0 mm
06:18 AM -2.7°F-19.3°C -5.4°F-20.8°C 88% Calm Calm 1.7 mph2.7 kmh 30.68 in1038.9 mb 0.00 in0.0 mm 0.00 in0.0 mm 0.00 in0.0 mm
06:19 AM -2.7°F-19.3°C -5.4°F-20.8°C 88% Calm Calm 1.1 mph1.8 kmh 30.68 in1038.9 mb 0.00 in0.0 mm 0.00 in0.0 mm 0.00 in0.0 mm
06:20 AM -2.7°F-19.3°C -5.4°F-20.8°C 88% Calm Calm -- 30.68 in1038.9 mb 0.00 in0.0 mm 0.00 in0.0 mm 0.00 in0.0 mm
06:21 AM -2.7°F-19.3°C -5.4°F-20.8°C 88% 1.7 mph W2.7 kmh W 1.7 mph2.7 kmh 30.68 in1038.9 mb 0.00 in0.0 mm 0.00 in0.0 mm 0.00 in0.0 mm
06:22 AM -2.7°F-19.3°C -5.4°F-20.8°C 88% 1.1 mph W1.8 kmh W 2.2 mph3.5 kmh 30.68 in1038.9 mb 0.00 in0.0 mm 0.00 in0.0 mm 0.00 in0.0 mm
06:23 AM -2.7°F-19.3°C -5.1°F-20.6°C 89% 1.7 mph W2.7 kmh W 2.2 mph3.5 kmh 30.68 in1038.9 mb 0.00 in0.0 mm 0.00 in0.0 mm 0.00 in0.0 mm
06:24 AM -2.7°F-19.3°C -5.1°F-20.6°C 89% Calm Calm 2.2 mph3.5 kmh 30.68 in1038.9 mb 0.00 in0.0 mm 0.00 in0.0 mm 0.00 in0.0 mm
06:25 AM -2.7°F-19.3°C -5.1°F-20.6°C 89% 1.1 mph W1.8 kmh W 2.2 mph3.5 kmh 30.68 in1038.9 mb 0.00 in0.0 mm 0.00 in0.0 mm 0.00 in0.0 mm
06:26 AM -2.7°F-19.3°C -5.1°F-20.6°C 89% 1.1 mph W1.8 kmh W 2.2 mph3.5 kmh 30.68 in1038.9 mb 0.00 in0.0 mm 0.00 in0.0 mm 0.00 in0.0 mm
06:27 AM -2.7°F-19.3°C -5.1°F-20.6°C 89% 1.1 mph SSE1.8 kmh SSE 2.2 mph3.5 kmh 30.68 in1038.9 mb 0.00 in0.0 mm 0.00 in0.0 mm 0.00 in0.0 mm
06:28 AM -2.7°F-19.3°C -5.1°F-20.6°C 89% 1.1 mph SSE1.8 kmh SSE 2.2 mph3.5 kmh 30.68 in1038.9 mb 0.00 in0.0 mm 0.00 in0.0 mm 0.00 in0.0 mm
06:29 AM -2.7°F-19.3°C -5.1°F-20.6°C 89% Calm Calm 2.2 mph3.5 kmh 30.68 in1038.9 mb 0.00 in0.0 mm 0.00 in0.0 mm 0.00 in0.0 mm
06:30 AM -2.7°F-19.3°C -5.1°F-20.6°C 89% Calm Calm 2.2 mph3.5 kmh 30.68 in1038.9 mb 0.00 in0.0 mm 0.00 in0.0 mm 0.00 in0.0 mm
06:31 AM -2.9°F-19.4°C -5.3°F-20.7°C 89% Calm Calm 2.2 mph3.5 kmh 30.68 in1038.9 mb 0.00 in0.0 mm 0.00 in0.0 mm 0.00 in0.0 mm
06:32 AM -2.9°F-19.4°C -5.3°F-20.7°C 89% Calm Calm 2.2 mph3.5 kmh 30.68 in1038.9 mb 0.00 in0.0 mm 0.00 in0.0 mm 0.00 in0.0 mm
06:33 AM -2.9°F-19.4°C -5.3°F-20.7°C 89% 1.7 mph W2.7 kmh W 1.7 mph2.7 kmh 30.68 in1038.9 mb 0.00 in0.0 mm 0.00 in0.0 mm 0.00 in0.0 mm
06:34 AM -2.9°F-19.4°C -5.1°F-20.6°C 90% 1.7 mph W2.7 kmh W 1.7 mph2.7 kmh 30.68 in1038.9 mb 0.00 in0.0 mm 0.00 in0.0 mm 0.00 in0.0 mm
06:35 AM -2.9°F-19.4°C -5.1°F-20.6°C 90% 1.7 mph W2.7 kmh W 1.7 mph2.7 kmh 30.68 in1038.9 mb 0.00 in0.0 mm 0.00 in0.0 mm 0.00 in0.0 mm
06:36 AM -2.7°F-19.3°C -4.9°F-20.5°C 90% Calm Calm 1.7 mph2.7 kmh 30.68 in1038.9 mb 0.00 in0.0 mm 0.00 in0.0 mm 0.00 in0.0 mm
06:37 AM -2.6°F-19.2°C -4.8°F-20.4°C 90% Calm Calm 1.7 mph2.7 kmh 30.68 in1038.9 mb 0.00 in0.0 mm 0.00 in0.0 mm 0.00 in0.0 mm
06:38 AM -2.6°F-19.2°C -4.8°F-20.4°C 90% Calm Calm 1.7 mph2.7 kmh 30.68 in1038.9 mb 0.00 in0.0 mm 0.00 in0.0 mm 0.00 in0.0 mm
06:39 AM -2.7°F-19.3°C -4.9°F-20.5°C 90% Calm Calm 1.7 mph2.7 kmh 30.68 in1038.9 mb 0.00 in0.0 mm 0.00 in0.0 mm 0.00 in0.0 mm
06:40 AM -2.7°F-19.3°C -4.9°F-20.5°C 90% Calm Calm 1.7 mph2.7 kmh 30.68 in1038.9 mb 0.00 in0.0 mm 0.00 in0.0 mm 0.00 in0.0 mm
06:41 AM -2.7°F-19.3°C -4.9°F-20.5°C 90% Calm Calm 1.7 mph2.7 kmh 30.69 in1039.3 mb 0.00 in0.0 mm 0.00 in0.0 mm 0.00 in0.0 mm
06:42 AM -2.7°F-19.3°C -4.9°F-20.5°C 90% Calm Calm 1.7 mph2.7 kmh 30.69 in1039.3 mb 0.00 in0.0 mm 0.00 in0.0 mm 0.00 in0.0 mm
06:43 AM -2.7°F-19.3°C -4.9°F-20.5°C 90% 1.1 mph W1.8 kmh W 1.7 mph2.7 kmh 30.69 in1039.3 mb 0.00 in0.0 mm 0.00 in0.0 mm 0.00 in0.0 mm
06:44 AM -2.7°F-19.3°C -4.9°F-20.5°C 90% 2.2 mph W3.5 kmh W 2.2 mph3.5 kmh 30.69 in1039.3 mb 0.00 in0.0 mm 0.00 in0.0 mm 0.00 in0.0 mm
06:45 AM -2.7°F-19.3°C -4.9°F-20.5°C 90% 1.7 mph W2.7 kmh W 2.2 mph3.5 kmh 30.69 in1039.3 mb 0.00 in0.0 mm 0.00 in0.0 mm 0.00 in0.0 mm
06:46 AM -2.6°F-19.2°C -4.8°F-20.4°C 90% 1.1 mph W1.8 kmh W 2.2 mph3.5 kmh 30.69 in1039.3 mb 0.00 in0.0 mm 0.00 in0.0 mm 0.00 in0.0 mm
06:47 AM -2.6°F-19.2°C -4.8°F-20.4°C 90% Calm Calm 2.2 mph3.5 kmh 30.69 in1039.3 mb 0.00 in0.0 mm 0.00 in0.0 mm 0.00 in0.0 mm
06:48 AM -2.6°F-19.2°C -4.8°F-20.4°C 90% Calm Calm 2.2 mph3.5 kmh 30.69 in1039.3 mb 0.00 in0.0 mm 0.00 in0.0 mm 0.00 in0.0 mm
06:49 AM -2.6°F-19.2°C -4.8°F-20.4°C 90% Calm Calm 2.2 mph3.5 kmh 30.69 in1039.3 mb 0.00 in0.0 mm 0.00 in0.0 mm 0.00 in0.0 mm
06:50 AM -2.7°F-19.3°C -4.9°F-20.5°C 90% Calm Calm 2.2 mph3.5 kmh 30.69 in1039.3 mb 0.00 in0.0 mm 0.00 in0.0 mm 0.00 in0.0 mm
06:51 AM -2.7°F-19.3°C -4.9°F-20.5°C 90% Calm Calm 2.2 mph3.5 kmh 30.69 in1039.3 mb 0.00 in0.0 mm 0.00 in0.0 mm 0.00 in0.0 mm
06:52 AM -2.7°F-19.3°C -4.9°F-20.5°C 90% Calm Calm 2.2 mph3.5 kmh 30.69 in1039.3 mb 0.00 in0.0 mm 0.00 in0.0 mm 0.00 in0.0 mm
06:53 AM -2.7°F-19.3°C -4.9°F-20.5°C 90% 1.1 mph W1.8 kmh W 2.2 mph3.5 kmh 30.69 in1039.3 mb 0.00 in0.0 mm 0.00 in0.0 mm 0.00 in0.0 mm
06:54 AM -2.7°F-19.3°C -4.9°F-20.5°C 90% 1.7 mph W2.7 kmh W 2.2 mph3.5 kmh 30.69 in1039.3 mb 0.00 in0.0 mm 0.00 in0.0 mm 0.00 in0.0 mm
06:55 AM -2.6°F-19.2°C -4.8°F-20.4°C 90% Calm Calm 1.7 mph2.7 kmh 30.69 in1039.3 mb 0.00 in0.0 mm 0.00 in0.0 mm 0.00 in0.0 mm
06:56 AM -2.6°F-19.2°C -4.8°F-20.4°C 90% Calm Calm 1.7 mph2.7 kmh 30.69 in1039.3 mb 0.00 in0.0 mm 0.00 in0.0 mm 0.00 in0.0 mm
06:57 AM -2.6°F-19.2°C -4.8°F-20.4°C 90% Calm Calm 1.7 mph2.7 kmh 30.69 in1039.3 mb 0.00 in0.0 mm 0.00 in0.0 mm 0.00 in0.0 mm
06:58 AM -2.7°F-19.3°C -4.9°F-20.5°C 90% Calm Calm 1.7 mph2.7 kmh 30.69 in1039.3 mb 0.00 in0.0 mm 0.00 in0.0 mm 0.00 in0.0 mm
06:59 AM -2.7°F-19.3°C -4.9°F-20.5°C 90% Calm Calm 1.7 mph2.7 kmh 30.69 in1039.3 mb 0.00 in0.0 mm 0.00 in0.0 mm 0.00 in0.0 mm
07:00 AM -2.7°F-19.3°C -4.9°F-20.5°C 90% 2.7 mph W4.3 kmh W 2.7 mph4.3 kmh 30.69 in1039.3 mb 0.00 in0.0 mm 0.00 in0.0 mm 0.00 in0.0 mm
07:01 AM -2.6°F-19.2°C -4.8°F-20.4°C 90% 2.7 mph W4.3 kmh W 2.7 mph4.3 kmh 30.69 in1039.3 mb 0.00 in0.0 mm 0.00 in0.0 mm 0.00 in0.0 mm
07:02 AM -2.6°F-19.2°C -4.8°F-20.4°C 90% 1.7 mph W2.7 kmh W 2.7 mph4.3 kmh 30.69 in1039.3 mb 0.00 in0.0 mm 0.00 in0.0 mm 0.00 in0.0 mm
07:03 AM -2.4°F-19.1°C -4.6°F-20.3°C 90% 2.2 mph W3.5 kmh W 2.7 mph4.3 kmh 30.69 in1039.3 mb 0.00 in0.0 mm 0.00 in0.0 mm 0.00 in0.0 mm
07:04 AM -2.4°F-19.1°C -4.6°F-20.3°C 90% 1.1 mph SW1.8 kmh SW 2.7 mph4.3 kmh 30.69 in1039.3 mb 0.00 in0.0 mm 0.00 in0.0 mm 0.00 in0.0 mm
07:05 AM -2.4°F-19.1°C -4.6°F-20.3°C 90% Calm Calm 2.7 mph4.3 kmh 30.70 in1039.6 mb 0.00 in0.0 mm 0.00 in0.0 mm 0.00 in0.0 mm
07:06 AM -2.4°F-19.1°C -4.6°F-20.3°C 90% Calm Calm 2.7 mph4.3 kmh 30.70 in1039.6 mb 0.00 in0.0 mm 0.00 in0.0 mm 0.00 in0.0 mm
07:07 AM -2.6°F-19.2°C -4.8°F-20.4°C 90% Calm Calm 2.7 mph4.3 kmh 30.70 in1039.6 mb 0.00 in0.0 mm 0.00 in0.0 mm 0.00 in0.0 mm
07:08 AM -2.6°F-19.2°C -4.8°F-20.4°C 90% Calm Calm 2.7 mph4.3 kmh 30.70 in1039.6 mb 0.00 in0.0 mm 0.00 in0.0 mm 0.00 in0.0 mm
07:09 AM -2.6°F-19.2°C -4.8°F-20.4°C 90% Calm Calm 2.7 mph4.3 kmh 30.70 in1039.6 mb 0.00 in0.0 mm 0.00 in0.0 mm 0.00 in0.0 mm
07:10 AM -2.7°F-19.3°C -4.9°F-20.5°C 90% Calm Calm 2.7 mph4.3 kmh 30.70 in1039.6 mb 0.00 in0.0 mm 0.00 in0.0 mm 0.00 in0.0 mm
07:11 AM -2.7°F-19.3°C -4.9°F-20.5°C 90% Calm Calm 2.7 mph4.3 kmh 30.70 in1039.6 mb 0.00 in0.0 mm 0.00 in0.0 mm 0.00 in0.0 mm
07:12 AM -2.7°F-19.3°C -4.9°F-20.5°C 90% Calm Calm 2.2 mph3.5 kmh 30.70 in1039.6 mb 0.00 in0.0 mm 0.00 in0.0 mm 0.00 in0.0 mm
07:13 AM -2.9°F-19.4°C -5.1°F-20.6°C 90% Calm Calm 2.2 mph3.5 kmh 30.70 in1039.6 mb 0.00 in0.0 mm 0.00 in0.0 mm 0.00 in0.0 mm
07:14 AM -2.9°F-19.4°C -5.1°F-20.6°C 90% Calm Calm 1.1 mph1.8 kmh 30.70 in1039.6 mb 0.00 in0.0 mm 0.00 in0.0 mm 0.00 in0.0 mm
07:15 AM -3.1°F-19.5°C -5.3°F-20.7°C 90% Calm Calm -- 30.70 in1039.6 mb 0.00 in0.0 mm 0.00 in0.0 mm 0.00 in0.0 mm
07:16 AM -3.1°F-19.5°C -5.3°F-20.7°C 90% Calm Calm -- 30.70 in1039.6 mb 0.00 in0.0 mm 0.00 in0.0 mm 0.00 in0.0 mm
07:17 AM -3.1°F-19.5°C -5.3°F-20.7°C 90% Calm Calm -- 30.70 in1039.6 mb 0.00 in0.0 mm 0.00 in0.0 mm 0.00 in0.0 mm
07:18 AM -3.1°F-19.5°C -5.3°F-20.7°C 90% Calm Calm -- 30.70 in1039.6 mb 0.00 in0.0 mm 0.00 in0.0 mm 0.00 in0.0 mm
07:19 AM -3.1°F-19.5°C -5.3°F-20.7°C 90% Calm Calm -- 30.70 in1039.6 mb 0.00 in0.0 mm 0.00 in0.0 mm 0.00 in0.0 mm
07:20 AM -3.3°F-19.6°C -5.5°F-20.8°C 90% Calm Calm -- 30.70 in1039.6 mb 0.00 in0.0 mm 0.00 in0.0 mm 0.00 in0.0 mm
07:21 AM -3.3°F-19.6°C -5.5°F-20.8°C 90% Calm Calm -- 30.70 in1039.6 mb 0.00 in0.0 mm 0.00 in0.0 mm 0.00 in0.0 mm
07:22 AM -3.3°F-19.6°C -5.5°F-20.8°C 90% Calm Calm -- 30.70 in1039.6 mb 0.00 in0.0 mm 0.00 in0.0 mm 0.00 in0.0 mm
07:23 AM -3.3°F-19.6°C -5.5°F-20.8°C 90% 1.7 mph W2.7 kmh W 1.7 mph2.7 kmh 30.70 in1039.6 mb 0.00 in0.0 mm 0.00 in0.0 mm 0.00 in0.0 mm
07:24 AM -3.3°F-19.6°C -5.5°F-20.8°C 90% 2.2 mph W3.5 kmh W 2.2 mph3.5 kmh 30.70 in1039.6 mb 0.00 in0.0 mm 0.00 in0.0 mm 0.00 in0.0 mm
07:25 AM -3.1°F-19.5°C -5.3°F-20.7°C 90% 1.1 mph W1.8 kmh W 2.2 mph3.5 kmh 30.70 in1039.6 mb 0.00 in0.0 mm 0.00 in0.0 mm 0.00 in0.0 mm
07:26 AM -3.1°F-19.5°C -5.3°F-20.7°C 90% Calm Calm 2.2 mph3.5 kmh 30.70 in1039.6 mb 0.00 in0.0 mm 0.00 in0.0 mm 0.00 in0.0 mm
07:27 AM -3.1°F-19.5°C -5.3°F-20.7°C 90% Calm Calm 2.2 mph3.5 kmh 30.70 in1039.6 mb 0.00 in0.0 mm 0.00 in0.0 mm 0.00 in0.0 mm
07:28 AM -3.1°F-19.5°C -5.3°F-20.7°C 90% 1.1 mph W1.8 kmh W 2.2 mph3.5 kmh 30.70 in1039.6 mb 0.00 in0.0 mm 0.00 in0.0 mm 0.00 in0.0 mm
07:29 AM -3.1°F-19.5°C -5.3°F-20.7°C 90% 1.1 mph W1.8 kmh W 2.2 mph3.5 kmh 30.70 in1039.6 mb 0.00 in0.0 mm 0.00 in0.0 mm 0.00 in0.0 mm
07:30 AM -3.1°F-19.5°C -5.3°F-20.7°C 90% 1.1 mph W1.8 kmh W 2.2 mph3.5 kmh 30.70 in1039.6 mb 0.00 in0.0 mm 0.00 in0.0 mm 0.00 in0.0 mm
07:31 AM -3.1°F-19.5°C -5.3°F-20.7°C 90% Calm Calm 2.2 mph3.5 kmh 30.70 in1039.6 mb 0.00 in0.0 mm 0.00 in0.0 mm 0.00 in0.0 mm
07:32 AM -2.7°F-19.3°C -4.7°F-20.4°C 91% Calm Calm 2.2 mph3.5 kmh 30.70 in1039.6 mb 0.00 in0.0 mm 0.00 in0.0 mm 0.00 in0.0 mm
07:33 AM -2.7°F-19.3°C -4.7°F-20.4°C 91% Calm Calm 2.2 mph3.5 kmh 30.70 in1039.6 mb 0.00 in0.0 mm 0.00 in0.0 mm 0.00 in0.0 mm
07:34 AM -2.9°F-19.4°C -4.9°F-20.5°C 91% Calm Calm 2.2 mph3.5 kmh 30.70 in1039.6 mb 0.00 in0.0 mm 0.00 in0.0 mm 0.00 in0.0 mm
07:35 AM -2.9°F-19.4°C -4.9°F-20.5°C 91% 1.1 mph W1.8 kmh W 1.7 mph2.7 kmh 30.70 in1039.6 mb 0.00 in0.0 mm 0.00 in0.0 mm 0.00 in0.0 mm
07:36 AM -2.9°F-19.4°C -4.9°F-20.5°C 91% Calm Calm 1.7 mph2.7 kmh 30.70 in1039.6 mb 0.00 in0.0 mm 0.00 in0.0 mm 0.00 in0.0 mm
07:37 AM -2.9°F-19.4°C -5.1°F-20.6°C 90% Calm Calm 1.7 mph2.7 kmh 30.70 in1039.6 mb 0.00 in0.0 mm 0.00 in0.0 mm 0.00 in0.0 mm
07:38 AM -2.9°F-19.4°C -5.1°F-20.6°C 90% Calm Calm 1.7 mph2.7 kmh 30.70 in1039.6 mb 0.00 in0.0 mm 0.00 in0.0 mm 0.00 in0.0 mm
07:39 AM -2.9°F-19.4°C -5.1°F-20.6°C 90% Calm Calm 1.1 mph1.8 kmh 30.70 in1039.6 mb 0.00 in0.0 mm 0.00 in0.0 mm 0.00 in0.0 mm
07:40 AM -3.1°F-19.5°C -5.3°F-20.7°C 90% Calm Calm 1.1 mph1.8 kmh 30.71 in1040.0 mb 0.00 in0.0 mm 0.00 in0.0 mm 0.00 in0.0 mm
07:41 AM -3.1°F-19.5°C -5.3°F-20.7°C 90% 2.2 mph W3.5 kmh W 2.2 mph3.5 kmh 30.71 in1040.0 mb 0.00 in0.0 mm 0.00 in0.0 mm 0.00 in0.0 mm
07:42 AM -2.9°F-19.4°C -5.1°F-20.6°C 90% 1.7 mph W2.7 kmh W 2.2 mph3.5 kmh 30.71 in1040.0 mb 0.00 in0.0 mm 0.00 in0.0 mm 0.00 in0.0 mm
07:43 AM -2.7°F-19.3°C -4.9°F-20.5°C 90% 1.7 mph WSW2.7 kmh WSW 2.2 mph3.5 kmh 30.71 in1040.0 mb 0.00 in0.0 mm 0.00 in0.0 mm 0.00 in0.0 mm
07:44 AM -2.6°F-19.2°C -4.8°F-20.4°C 90% 1.1 mph W1.8 kmh W 2.2 mph3.5 kmh 30.71 in1040.0 mb 0.00 in0.0 mm 0.00 in0.0 mm 0.00 in0.0 mm
07:45 AM -2.6°F-19.2°C -4.8°F-20.4°C 90% 1.1 mph SSE1.8 kmh SSE 2.2 mph3.5 kmh 30.71 in1040.0 mb 0.00 in0.0 mm 0.00 in0.0 mm 0.00 in0.0 mm
07:46 AM -2.6°F-19.2°C -4.8°F-20.4°C 90% Calm Calm 2.2 mph3.5 kmh 30.71 in1040.0 mb 0.00 in0.0 mm 0.00 in0.0 mm 0.00 in0.0 mm
07:47 AM -2.4°F-19.1°C -4.6°F-20.3°C 90% Calm Calm 2.2 mph3.5 kmh 30.71 in1040.0 mb 0.00 in0.0 mm 0.00 in0.0 mm 0.00 in0.0 mm
07:48 AM -2.4°F-19.1°C -4.4°F-20.2°C 91% Calm Calm 2.2 mph3.5 kmh 30.71 in1040.0 mb 0.00 in0.0 mm 0.00 in0.0 mm 0.00 in0.0 mm
07:49 AM -2.4°F-19.1°C -4.4°F-20.2°C 91% Calm Calm 2.2 mph3.5 kmh 30.71 in1040.0 mb 0.00 in0.0 mm 0.00 in0.0 mm 0.00 in0.0 mm
07:50 AM -2.4°F-19.1°C -4.4°F-20.2°C 91% 1.7 mph W2.7 kmh W 2.2 mph3.5 kmh 30.71 in1040.0 mb 0.00 in0.0 mm 0.00 in0.0 mm 0.00 in0.0 mm
07:51 AM -2.2°F-19.0°C -4.2°F-20.1°C 91% 1.7 mph W2.7 kmh W 2.2 mph3.5 kmh 30.71 in1040.0 mb 0.00 in0.0 mm 0.00 in0.0 mm 0.00 in0.0 mm
07:52 AM -2.2°F-19.0°C -4.2°F-20.1°C 91% Calm Calm 2.2 mph3.5 kmh 30.71 in1040.0 mb 0.00 in0.0 mm 0.00 in0.0 mm 0.00 in0.0 mm
07:53 AM -2.2°F-19.0°C -4.2°F-20.1°C 91% Calm Calm 2.2 mph3.5 kmh 30.71 in1040.0 mb 0.00 in0.0 mm 0.00 in0.0 mm 0.00 in0.0 mm
07:54 AM -2.2°F-19.0°C -4.2°F-20.1°C 91% Calm Calm 1.7 mph2.7 kmh 30.71 in1040.0 mb 0.00 in0.0 mm 0.00 in0.0 mm 0.00 in0.0 mm
07:55 AM -2.2°F-19.0°C -4.2°F-20.1°C 91% Calm Calm 1.7 mph2.7 kmh 30.71 in1040.0 mb 0.00 in0.0 mm 0.00 in0.0 mm 0.00 in0.0 mm
07:56 AM -2.2°F-19.0°C -4.2°F-20.1°C 91% Calm Calm 1.7 mph2.7 kmh 30.71 in1040.0 mb 0.00 in0.0 mm 0.00 in0.0 mm 0.00 in0.0 mm
07:57 AM -1.8°F-18.8°C -3.8°F-19.9°C 91% Calm Calm 1.7 mph2.7 kmh 30.71 in1040.0 mb 0.00 in0.0 mm 0.00 in0.0 mm 0.00 in0.0 mm
07:58 AM -1.7°F-18.7°C -3.7°F-19.8°C 91% Calm Calm 1.7 mph2.7 kmh 30.71 in1040.0 mb 0.00 in0.0 mm 0.00 in0.0 mm 0.00 in0.0 mm
07:59 AM -1.7°F-18.7°C -3.7°F-19.8°C 91% Calm Calm 1.7 mph2.7 kmh 30.71 in1040.0 mb 0.00 in0.0 mm 0.00 in0.0 mm 0.00 in0.0 mm
08:00 AM -1.7°F-18.7°C -3.7°F-19.8°C 91% Calm Calm 1.7 mph2.7 kmh 30.71 in1040.0 mb 0.00 in0.0 mm 0.00 in0.0 mm 0.00 in0.0 mm
08:01 AM -1.8°F-18.8°C -4.0°F-20.0°C 90% Calm Calm 1.7 mph2.7 kmh 30.71 in1040.0 mb 0.00 in0.0 mm 0.00 in0.0 mm 0.00 in0.0 mm
08:02 AM -1.8°F-18.8°C -4.0°F-20.0°C 90% Calm Calm -- 30.71 in1040.0 mb 0.00 in0.0 mm 0.00 in0.0 mm 0.00 in0.0 mm
08:03 AM -1.8°F-18.8°C -4.0°F-20.0°C 90% Calm Calm -- 30.71 in1040.0 mb 0.00 in0.0 mm 0.00 in0.0 mm 0.00 in0.0 mm
08:04 AM -1.7°F-18.7°C -3.9°F-19.9°C 90% Calm Calm -- 30.71 in1040.0 mb 0.00 in0.0 mm 0.00 in0.0 mm 0.00 in0.0 mm
08:05 AM -1.7°F-18.7°C -3.9°F-19.9°C 90% Calm Calm -- 30.71 in1040.0 mb 0.00 in0.0 mm 0.00 in0.0 mm 0.00 in0.0 mm
08:06 AM -1.7°F-18.7°C -3.9°F-19.9°C 90% Calm Calm -- 30.71 in1040.0 mb 0.00 in0.0 mm 0.00 in0.0 mm 0.00 in0.0 mm
08:07 AM -1.3°F-18.5°C -3.5°F-19.7°C 90% Calm Calm -- 30.71 in1040.0 mb 0.00 in0.0 mm 0.00 in0.0 mm 0.00 in0.0 mm
08:08 AM -1.3°F-18.5°C -3.5°F-19.7°C 90% Calm Calm -- 30.71 in1040.0 mb 0.00 in0.0 mm 0.00 in0.0 mm 0.00 in0.0 mm
08:09 AM -1.3°F-18.5°C -3.5°F-19.7°C 90% Calm Calm -- 30.71 in1040.0 mb 0.00 in0.0 mm 0.00 in0.0 mm 0.00 in0.0 mm
08:10 AM -1.1°F-18.4°C -3.3°F-19.6°C 90% Calm Calm -- 30.71 in1040.0 mb 0.00 in0.0 mm 0.00 in0.0 mm 0.00 in0.0 mm
08:11 AM -1.1°F-18.4°C -3.3°F-19.6°C 90% Calm Calm -- 30.71 in1040.0 mb 0.00 in0.0 mm 0.00 in0.0 mm 0.00 in0.0 mm
08:12 AM -1.1°F-18.4°C -3.3°F-19.6°C 90% Calm Calm -- 30.71 in1040.0 mb 0.00 in0.0 mm 0.00 in0.0 mm 0.00 in0.0 mm
08:13 AM -1.1°F-18.4°C -3.3°F-19.6°C 90% Calm Calm -- 30.71 in1040.0 mb 0.00 in0.0 mm 0.00 in0.0 mm 0.00 in0.0 mm
08:14 AM -1.1°F-18.4°C -3.3°F-19.6°C 90% Calm Calm -- 30.71 in1040.0 mb 0.00 in0.0 mm 0.00 in0.0 mm 0.00 in0.0 mm
08:15 AM -1.1°F-18.4°C -3.3°F-19.6°C 90% Calm Calm -- 30.71 in1040.0 mb 0.00 in0.0 mm 0.00 in0.0 mm 0.00 in0.0 mm
08:16 AM -0.9°F-18.3°C -3.1°F-19.5°C 90% Calm Calm -- 30.71 in1040.0 mb 0.00 in0.0 mm 0.00 in0.0 mm 0.00 in0.0 mm
08:17 AM -0.8°F-18.2°C -3.0°F-19.4°C 90% Calm Calm -- 30.71 in1040.0 mb 0.00 in0.0 mm 0.00 in0.0 mm 0.00 in0.0 mm
08:18 AM -0.8°F-18.2°C -3.0°F-19.4°C 90% Calm Calm -- 30.71 in1040.0 mb 0.00 in0.0 mm 0.00 in0.0 mm 0.00 in0.0 mm
08:19 AM -0.8°F-18.2°C -3.0°F-19.4°C 90% Calm Calm -- 30.71 in1040.0 mb 0.00 in0.0 mm 0.00 in0.0 mm 0.00 in0.0 mm
08:20 AM -0.4°F-18.0°C -2.6°F-19.2°C 90% Calm Calm -- 30.71 in1040.0 mb 0.00 in0.0 mm 0.00 in0.0 mm 0.00 in0.0 mm
08:21 AM -0.4°F-18.0°C -2.6°F-19.2°C 90% 1.7 mph W2.7 kmh W 1.7 mph2.7 kmh 30.71 in1040.0 mb 0.00 in0.0 mm 0.00 in0.0 mm 0.00 in0.0 mm
08:22 AM 0.0°F-17.8°C -2.2°F-19.0°C 90% 1.7 mph W2.7 kmh W 1.7 mph2.7 kmh 30.71 in1040.0 mb 0.00 in0.0 mm 0.00 in0.0 mm 0.00 in0.0 mm
08:23 AM 0.1°F-17.7°C -2.1°F-18.9°C 90% 1.7 mph W2.7 kmh W 1.7 mph2.7 kmh 30.71 in1040.0 mb 0.00 in0.0 mm 0.00 in0.0 mm 0.00 in0.0 mm
08:24 AM 0.3°F-17.6°C -1.9°F-18.8°C 90% 1.1 mph W1.8 kmh W 1.7 mph2.7 kmh 30.71 in1040.0 mb 0.00 in0.0 mm 0.00 in0.0 mm 0.00 in0.0 mm
08:25 AM 0.5°F-17.5°C -1.7°F-18.7°C 90% Calm Calm 1.7 mph2.7 kmh 30.71 in1040.0 mb 0.00 in0.0 mm 0.00 in0.0 mm 0.00 in0.0 mm
08:26 AM 0.5°F-17.5°C -1.7°F-18.7°C 90% Calm Calm 1.7 mph2.7 kmh 30.71 in1040.0 mb 0.00 in0.0 mm 0.00 in0.0 mm 0.00 in0.0 mm
08:27 AM 0.5°F-17.5°C -1.7°F-18.7°C 90% Calm Calm 1.7 mph2.7 kmh 30.71 in1040.0 mb 0.00 in0.0 mm 0.00 in0.0 mm 0.00 in0.0 mm
08:28 AM 0.5°F-17.5°C -2.0°F-18.9°C 89% Calm Calm 1.7 mph2.7 kmh 30.71 in1040.0 mb 0.00 in0.0 mm 0.00 in0.0 mm 0.00 in0.0 mm
08:29 AM 0.7°F-17.4°C -1.8°F-18.8°C 89% Calm Calm 1.7 mph2.7 kmh 30.71 in1040.0 mb 0.00 in0.0 mm 0.00 in0.0 mm 0.00 in0.0 mm
08:30 AM 0.9°F-17.3°C -1.6°F-18.7°C 89% Calm Calm 1.7 mph2.7 kmh 30.71 in1040.0 mb 0.00 in0.0 mm 0.00 in0.0 mm 0.00 in0.0 mm
08:31 AM 0.9°F-17.3°C -1.6°F-18.7°C 89% Calm Calm 1.7 mph2.7 kmh 30.71 in1040.0 mb 0.00 in0.0 mm 0.00 in0.0 mm 0.00 in0.0 mm
08:32 AM 1.2°F-17.1°C -1.3°F-18.5°C 89% Calm Calm 1.7 mph2.7 kmh 30.71 in1040.0 mb 0.00 in0.0 mm 0.00 in0.0 mm 0.00 in0.0 mm
08:33 AM 1.4°F-17.0°C -1.1°F-18.4°C 89% Calm Calm 1.7 mph2.7 kmh 30.71 in1040.0 mb 0.00 in0.0 mm 0.00 in0.0 mm 0.00 in0.0 mm
08:34 AM 1.6°F-16.9°C -0.9°F-18.3°C 89% 1.7 mph W2.7 kmh W 1.7 mph2.7 kmh 30.71 in1040.0 mb 0.00 in0.0 mm 0.00 in0.0 mm 0.00 in0.0 mm
08:35 AM 1.8°F-16.8°C -0.7°F-18.2°C 89% 2.2 mph W3.5 kmh W 2.2 mph3.5 kmh 30.71 in1040.0 mb 0.00 in0.0 mm 0.00 in0.0 mm 0.00 in0.0 mm
08:36 AM 1.9°F-16.7°C -0.6°F-18.1°C 89% 2.2 mph W3.5 kmh W 2.2 mph3.5 kmh 30.71 in1040.0 mb 0.00 in0.0 mm 0.00 in0.0 mm 0.00 in0.0 mm
08:37 AM 2.1°F-16.6°C -0.4°F-18.0°C 89% 1.7 mph W2.7 kmh W 2.2 mph3.5 kmh 30.71 in1040.0 mb 0.00 in0.0 mm 0.00 in0.0 mm 0.00 in0.0 mm
08:38 AM 2.5°F-16.4°C -0.2°F-17.9°C 88% 1.7 mph W2.7 kmh W 2.2 mph3.5 kmh 30.71 in1040.0 mb 0.00 in0.0 mm 0.00 in0.0 mm 0.00 in0.0 mm
08:39 AM 2.7°F-16.3°C 0.0°F-17.8°C 88% 1.1 mph W1.8 kmh W 2.2 mph3.5 kmh 30.71 in1040.0 mb 0.00 in0.0 mm 0.00 in0.0 mm 0.00 in0.0 mm
08:40 AM 2.8°F-16.2°C -0.2°F-17.9°C 87% Calm Calm 2.2 mph3.5 kmh 30.71 in1040.0 mb 0.00 in0.0 mm 0.00 in0.0 mm 0.00 in0.0 mm
08:41 AM 4.1°F-15.5°C 0.4°F-17.6°C 84% Calm Calm 2.2 mph3.5 kmh 30.72 in1040.3 mb 0.00 in0.0 mm 0.00 in0.0 mm 0.00 in0.0 mm
08:42 AM 4.5°F-15.3°C 0.5°F-17.5°C 83% Calm Calm 2.2 mph3.5 kmh 30.72 in1040.3 mb 0.00 in0.0 mm 0.00 in0.0 mm 0.00 in0.0 mm
08:43 AM 5.0°F-15.0°C 0.2°F-17.7°C 80% Calm Calm 2.2 mph3.5 kmh 30.72 in1040.3 mb 0.00 in0.0 mm 0.00 in0.0 mm 0.00 in0.0 mm
08:44 AM 4.8°F-15.1°C 0.0°F-17.8°C 80% Calm Calm 2.2 mph3.5 kmh 30.72 in1040.3 mb 0.00 in0.0 mm 0.00 in0.0 mm 0.00 in0.0 mm
08:45 AM 4.6°F-15.2°C 0.1°F-17.7°C 81% Calm Calm 2.2 mph3.5 kmh 30.72 in1040.3 mb 0.00 in0.0 mm 0.00 in0.0 mm 0.00 in0.0 mm
08:46 AM 4.5°F-15.3°C 0.5°F-17.5°C 83% Calm Calm 2.2 mph3.5 kmh 30.72 in1040.3 mb 0.00 in0.0 mm 0.00 in0.0 mm 0.00 in0.0 mm
08:47 AM 4.5°F-15.3°C 0.8°F-17.3°C 84% Calm Calm 1.7 mph2.7 kmh 30.72 in1040.3 mb 0.00 in0.0 mm 0.00 in0.0 mm 0.00 in0.0 mm
08:48 AM 4.5°F-15.3°C 0.8°F-17.3°C 84% Calm Calm 1.7 mph2.7 kmh 30.72 in1040.3 mb 0.00 in0.0 mm 0.00 in0.0 mm 0.00 in0.0 mm
08:49 AM 4.6°F-15.2°C 0.9°F-17.3°C 84% Calm Calm 1.1 mph1.8 kmh 30.72 in1040.3 mb 0.00 in0.0 mm 0.00 in0.0 mm 0.00 in0.0 mm
08:50 AM 4.8°F-15.1°C 1.0°F-17.2°C 84% Calm Calm -- 30.72 in1040.3 mb 0.00 in0.0 mm 0.00 in0.0 mm 0.00 in0.0 mm
08:51 AM 5.0°F-15.0°C 1.2°F-17.1°C 84% Calm Calm -- 30.72 in1040.3 mb 0.00 in0.0 mm 0.00 in0.0 mm 0.00 in0.0 mm
08:52 AM 5.0°F-15.0°C 1.2°F-17.1°C 84% Calm Calm -- 30.72 in1040.3 mb 0.00 in0.0 mm 0.00 in0.0 mm 0.00 in0.0 mm
08:53 AM 5.4°F-14.8°C 1.6°F-16.9°C 84% Calm Calm -- 30.71 in1040.0 mb 0.00 in0.0 mm 0.00 in0.0 mm 0.00 in0.0 mm
08:54 AM 5.5°F-14.7°C 1.7°F-16.8°C 84% Calm Calm -- 30.71 in1040.0 mb 0.00 in0.0 mm 0.00 in0.0 mm 0.00 in0.0 mm
08:55 AM 5.7°F-14.6°C 2.2°F-16.6°C 85% Calm Calm -- 30.71 in1040.0 mb 0.00 in0.0 mm 0.00 in0.0 mm 0.00 in0.0 mm
08:56 AM 5.9°F-14.5°C 2.4°F-16.4°C 85% 1.7 mph W2.7 kmh W 1.7 mph2.7 kmh 30.71 in1040.0 mb 0.00 in0.0 mm 0.00 in0.0 mm 0.00 in0.0 mm
08:57 AM 6.1°F-14.4°C 2.6°F-16.3°C 85% 1.7 mph W2.7 kmh W 1.7 mph2.7 kmh 30.71 in1040.0 mb 0.00 in0.0 mm 0.00 in0.0 mm 0.00 in0.0 mm
08:58 AM 6.4°F-14.2°C 2.9°F-16.2°C 85% 1.1 mph W1.8 kmh W 1.7 mph2.7 kmh 30.71 in1040.0 mb 0.00 in0.0 mm 0.00 in0.0 mm 0.00 in0.0 mm
08:59 AM 6.6°F-14.1°C 3.1°F-16.1°C 85% 1.1 mph W1.8 kmh W 1.7 mph2.7 kmh 30.71 in1040.0 mb 0.00 in0.0 mm 0.00 in0.0 mm 0.00 in0.0 mm
09:00 AM 6.8°F-14.0°C 3.3°F-15.9°C 85% 2.2 mph W3.5 kmh W 2.2 mph3.5 kmh 30.71 in1040.0 mb 0.00 in0.0 mm 0.00 in0.0 mm 0.00 in0.0 mm
09:01 AM 7.2°F-13.8°C 3.1°F-16.1°C 83% 2.2 mph W3.5 kmh W 2.2 mph3.5 kmh 30.71 in1040.0 mb 0.00 in0.0 mm 0.00 in0.0 mm 0.00 in0.0 mm
09:02 AM 8.1°F-13.3°C 3.2°F-16.0°C 80% 2.2 mph W3.5 kmh W 2.2 mph3.5 kmh 30.71 in1040.0 mb 0.00 in0.0 mm 0.00 in0.0 mm 0.00 in0.0 mm
09:03 AM 8.4°F-13.1°C 3.3°F-15.9°C 79% 1.7 mph W2.7 kmh W 2.7 mph4.3 kmh 30.71 in1040.0 mb 0.00 in0.0 mm 0.00 in0.0 mm 0.00 in0.0 mm
09:04 AM 8.6°F-13.0°C 2.9°F-16.2°C 77% 1.7 mph WSW2.7 kmh WSW 2.7 mph4.3 kmh 30.72 in1040.3 mb 0.00 in0.0 mm 0.00 in0.0 mm 0.00 in0.0 mm
09:05 AM 9.0°F-12.8°C 3.0°F-16.1°C 76% 1.7 mph WSW2.7 kmh WSW 2.7 mph4.3 kmh 30.72 in1040.3 mb 0.00 in0.0 mm 0.00 in0.0 mm 0.00 in0.0 mm
09:06 AM 9.0°F-12.8°C 2.7°F-16.3°C 75% 1.1 mph W1.8 kmh W 2.7 mph4.3 kmh 30.72 in1040.3 mb 0.00 in0.0 mm 0.00 in0.0 mm 0.00 in0.0 mm
09:07 AM 9.1°F-12.7°C 2.5°F-16.4°C 74% 1.7 mph W2.7 kmh W 2.7 mph4.3 kmh 30.72 in1040.3 mb 0.00 in0.0 mm 0.00 in0.0 mm 0.00 in0.0 mm
09:08 AM 9.3°F-12.6°C 2.7°F-16.3°C 74% 1.1 mph W1.8 kmh W 2.7 mph4.3 kmh 30.72 in1040.3 mb 0.00 in0.0 mm 0.00 in0.0 mm 0.00 in0.0 mm
09:09 AM 9.5°F-12.5°C 2.6°F-16.3°C 73% 2.2 mph W3.5 kmh W 2.7 mph4.3 kmh 30.72 in1040.3 mb 0.00 in0.0 mm 0.00 in0.0 mm 0.00 in0.0 mm
09:10 AM 9.5°F-12.5°C 2.3°F-16.5°C 72% 1.7 mph W2.7 kmh W 2.7 mph4.3 kmh 30.72 in1040.3 mb 0.00 in0.0 mm 0.00 in0.0 mm 0.00 in0.0 mm
09:11 AM 9.7°F-12.4°C 2.5°F-16.4°C 72% 1.1 mph W1.8 kmh W 2.7 mph4.3 kmh 30.72 in1040.3 mb 0.00 in0.0 mm 0.00 in0.0 mm 0.00 in0.0 mm
09:12 AM 9.9°F-12.3°C 2.4°F-16.4°C 71% 1.7 mph W2.7 kmh W 2.7 mph4.3 kmh 30.72 in1040.3 mb 0.00 in0.0 mm 0.00 in0.0 mm 0.00 in0.0 mm
09:13 AM 10.0°F-12.2°C 2.5°F-16.4°C 71% 1.7 mph W2.7 kmh W 2.7 mph4.3 kmh 30.72 in1040.3 mb 0.00 in0.0 mm 0.00 in0.0 mm 0.00 in0.0 mm
09:14 AM 10.2°F-12.1°C 2.7°F-16.3°C 71% 2.2 mph NNE3.5 kmh NNE 2.7 mph4.3 kmh 30.72 in1040.3 mb 0.00 in0.0 mm 0.00 in0.0 mm 0.00 in0.0 mm
09:15 AM 10.4°F-12.0°C 2.6°F-16.3°C 70% 1.7 mph NE2.7 kmh NE 2.7 mph4.3 kmh 30.72 in1040.3 mb 0.00 in0.0 mm 0.00 in0.0 mm 0.00 in0.0 mm
09:16 AM 10.6°F-11.9°C 2.5°F-16.4°C 69% 1.7 mph WNW2.7 kmh WNW 2.7 mph4.3 kmh 30.72 in1040.3 mb 0.00 in0.0 mm 0.00 in0.0 mm 0.00 in0.0 mm
09:17 AM 10.8°F-11.8°C 2.7°F-16.3°C 69% 1.7 mph NNE2.7 kmh NNE 2.7 mph4.3 kmh 30.73 in1040.6 mb 0.00 in0.0 mm 0.00 in0.0 mm 0.00 in0.0 mm
09:18 AM 10.8°F-11.8°C 2.7°F-16.3°C 69% 1.7 mph NW2.7 kmh NW 2.7 mph4.3 kmh 30.73 in1040.6 mb 0.00 in0.0 mm 0.00 in0.0 mm 0.00 in0.0 mm
09:19 AM 10.9°F-11.7°C 2.4°F-16.4°C 68% 1.7 mph N2.7 kmh N 2.7 mph4.3 kmh 30.73 in1040.6 mb 0.00 in0.0 mm 0.00 in0.0 mm 0.00 in0.0 mm
09:20 AM 11.1°F-11.6°C 2.3°F-16.5°C 67% 2.7 mph NNE4.3 kmh NNE 2.7 mph4.3 kmh 30.73 in1040.6 mb 0.00 in0.0 mm 0.00 in0.0 mm 0.00 in0.0 mm
09:21 AM 11.1°F-11.6°C 2.0°F-16.7°C 66% 3.7 mph ESE6.0 kmh ESE 3.7 mph6.0 kmh 30.73 in1040.6 mb 0.00 in0.0 mm 0.00 in0.0 mm 0.00 in0.0 mm
09:22 AM 11.3°F-11.5°C 1.5°F-16.9°C 64% 2.2 mph ESE3.5 kmh ESE 3.7 mph6.0 kmh 30.73 in1040.6 mb 0.00 in0.0 mm 0.00 in0.0 mm 0.00 in0.0 mm
09:23 AM 11.5°F-11.4°C 1.7°F-16.8°C 64% 2.2 mph N3.5 kmh N 3.7 mph6.0 kmh 30.73 in1040.6 mb 0.00 in0.0 mm 0.00 in0.0 mm 0.00 in0.0 mm
09:24 AM 11.5°F-11.4°C 2.1°F-16.6°C 65% 2.2 mph NNE3.5 kmh NNE 3.7 mph6.0 kmh 30.73 in1040.6 mb 0.00 in0.0 mm 0.00 in0.0 mm 0.00 in0.0 mm
09:25 AM 11.5°F-11.4°C 2.1°F-16.6°C 65% 2.7 mph NE4.3 kmh NE 3.7 mph6.0 kmh 30.73 in1040.6 mb 0.00 in0.0 mm 0.00 in0.0 mm 0.00 in0.0 mm
09:26 AM 11.7°F-11.3°C 1.9°F-16.7°C 64% 3.7 mph NNW6.0 kmh NNW 3.7 mph6.0 kmh 30.73 in1040.6 mb 0.00 in0.0 mm 0.00 in0.0 mm 0.00 in0.0 mm
09:27 AM 11.7°F-11.3°C 1.9°F-16.7°C 64% 2.7 mph E4.3 kmh E 3.7 mph6.0 kmh 30.73 in1040.6 mb 0.00 in0.0 mm 0.00 in0.0 mm 0.00 in0.0 mm
09:28 AM 11.8°F-11.2°C 1.7°F-16.8°C 63% 2.7 mph N4.3 kmh N 4.2 mph6.8 kmh 30.73 in1040.6 mb 0.00 in0.0 mm 0.00 in0.0 mm 0.00 in0.0 mm
09:29 AM 12.0°F-11.1°C 1.9°F-16.7°C 63% 4.7 mph NNE7.6 kmh NNE 4.7 mph7.6 kmh 30.73 in1040.6 mb 0.00 in0.0 mm 0.00 in0.0 mm 0.00 in0.0 mm
09:30 AM 12.0°F-11.1°C 1.9°F-16.7°C 63% 4.7 mph NNE7.6 kmh NNE 4.7 mph7.6 kmh 30.73 in1040.6 mb 0.00 in0.0 mm 0.00 in0.0 mm 0.00 in0.0 mm
09:31 AM 12.0°F-11.1°C 1.5°F-16.9°C 62% 4.2 mph N6.8 kmh N 6.3 mph10.1 kmh 30.73 in1040.6 mb 0.00 in0.0 mm 0.00 in0.0 mm 0.00 in0.0 mm
09:32 AM 12.0°F-11.1°C 1.5°F-16.9°C 62% 4.2 mph E6.8 kmh E 6.3 mph10.1 kmh 30.73 in1040.6 mb 0.00 in0.0 mm 0.00 in0.0 mm 0.00 in0.0 mm
09:33 AM 12.0°F-11.1°C 1.5°F-16.9°C 62% 2.7 mph NE4.3 kmh NE 6.3 mph10.1 kmh 30.73 in1040.6 mb 0.00 in0.0 mm 0.00 in0.0 mm 0.00 in0.0 mm
09:34 AM 12.2°F-11.0°C 1.7°F-16.8°C 62% 3.7 mph NNE6.0 kmh NNE 6.3 mph10.1 kmh 30.73 in1040.6 mb 0.00 in0.0 mm 0.00 in0.0 mm 0.00 in0.0 mm
09:35 AM 12.2°F-11.0°C 1.7°F-16.8°C 62% 4.2 mph W6.8 kmh W 6.3 mph10.1 kmh 30.73 in1040.6 mb 0.00 in0.0 mm 0.00 in0.0 mm 0.00 in0.0 mm
09:36 AM 12.2°F-11.0°C 1.7°F-16.8°C 62% 4.2 mph NE6.8 kmh NE 6.3 mph10.1 kmh 30.73 in1040.6 mb 0.00 in0.0 mm 0.00 in0.0 mm 0.00 in0.0 mm
09:37 AM 12.6°F-10.8°C 2.1°F-16.6°C 62% 3.7 mph N6.0 kmh N 6.3 mph10.1 kmh 30.73 in1040.6 mb 0.00 in0.0 mm 0.00 in0.0 mm 0.00 in0.0 mm
09:38 AM 12.6°F-10.8°C 1.4°F-17.0°C 60% 3.2 mph ESE5.1 kmh ESE 6.3 mph10.1 kmh 30.73 in1040.6 mb 0.00 in0.0 mm 0.00 in0.0 mm 0.00 in0.0 mm
09:39 AM 12.6°F-10.8°C 1.0°F-17.2°C 59% 4.2 mph NNE6.8 kmh NNE 6.3 mph10.1 kmh 30.73 in1040.6 mb 0.00 in0.0 mm 0.00 in0.0 mm 0.00 in0.0 mm
09:40 AM 12.6°F-10.8°C 1.0°F-17.2°C 59% 5.3 mph NNW8.5 kmh NNW 6.3 mph10.1 kmh 30.73 in1040.6 mb 0.00 in0.0 mm 0.00 in0.0 mm 0.00 in0.0 mm
09:41 AM 12.4°F-10.9°C 0.5°F-17.5°C 58% 2.7 mph N4.3 kmh N 6.3 mph10.1 kmh 30.74 in1041.0 mb 0.00 in0.0 mm 0.00 in0.0 mm 0.00 in0.0 mm
09:42 AM 12.4°F-10.9°C 0.5°F-17.5°C 58% 3.7 mph NNW6.0 kmh NNW 6.3 mph10.1 kmh 30.74 in1041.0 mb 0.00 in0.0 mm 0.00 in0.0 mm 0.00 in0.0 mm
09:43 AM 12.4°F-10.9°C 0.8°F-17.3°C 59% 1.7 mph SE2.7 kmh SE 6.3 mph10.1 kmh 30.74 in1041.0 mb 0.00 in0.0 mm 0.00 in0.0 mm 0.00 in0.0 mm
09:44 AM 12.7°F-10.7°C 1.5°F-16.9°C 60% 2.7 mph NW4.3 kmh NW 6.3 mph10.1 kmh 30.74 in1041.0 mb 0.00 in0.0 mm 0.00 in0.0 mm 0.00 in0.0 mm
09:45 AM 12.9°F-10.6°C 1.7°F-16.8°C 60% 2.2 mph ESE3.5 kmh ESE 6.3 mph10.1 kmh 30.74 in1041.0 mb 0.00 in0.0 mm 0.00 in0.0 mm 0.00 in0.0 mm
09:46 AM 12.7°F-10.7°C 0.8°F-17.3°C 58% 1.7 mph SE2.7 kmh SE 6.3 mph10.1 kmh 30.74 in1041.0 mb 0.00 in0.0 mm 0.00 in0.0 mm 0.00 in0.0 mm
09:47 AM 12.7°F-10.7°C 0.8°F-17.3°C 58% 2.7 mph E4.3 kmh E 6.3 mph10.1 kmh 30.74 in1041.0 mb 0.00 in0.0 mm 0.00 in0.0 mm 0.00 in0.0 mm
09:48 AM 12.9°F-10.6°C 1.3°F-17.1°C 59% 3.2 mph NNE5.1 kmh NNE 6.3 mph10.1 kmh 30.74 in1041.0 mb 0.00 in0.0 mm 0.00 in0.0 mm 0.00 in0.0 mm
09:49 AM 13.1°F-10.5°C 1.5°F-16.9°C 59% 2.7 mph SSE4.3 kmh SSE 6.3 mph10.1 kmh 30.74 in1041.0 mb 0.00 in0.0 mm 0.00 in0.0 mm 0.00 in0.0 mm
09:50 AM 13.1°F-10.5°C 1.5°F-16.9°C 59% 1.7 mph ENE2.7 kmh ENE 5.3 mph8.5 kmh 30.74 in1041.0 mb 0.00 in0.0 mm 0.00 in0.0 mm 0.00 in0.0 mm
09:51 AM 13.3°F-10.4°C 1.7°F-16.8°C 59% 4.2 mph E6.8 kmh E 5.8 mph9.3 kmh 30.74 in1041.0 mb 0.00 in0.0 mm 0.00 in0.0 mm 0.00 in0.0 mm
09:52 AM 13.5°F-10.3°C 1.1°F-17.2°C 57% 3.7 mph ENE6.0 kmh ENE 5.8 mph9.3 kmh 30.74 in1041.0 mb 0.00 in0.0 mm 0.00 in0.0 mm 0.00 in0.0 mm
09:53 AM 13.5°F-10.3°C 0.8°F-17.3°C 56% 2.7 mph ESE4.3 kmh ESE 5.8 mph9.3 kmh 30.73 in1040.6 mb 0.00 in0.0 mm 0.00 in0.0 mm 0.00 in0.0 mm
09:54 AM 13.5°F-10.3°C 0.8°F-17.3°C 56% 3.7 mph N6.0 kmh N 5.8 mph9.3 kmh 30.73 in1040.6 mb 0.00 in0.0 mm 0.00 in0.0 mm 0.00 in0.0 mm
09:55 AM 13.5°F-10.3°C 0.8°F-17.3°C 56% 5.3 mph NNE8.5 kmh NNE 5.8 mph9.3 kmh 30.73 in1040.6 mb 0.00 in0.0 mm 0.00 in0.0 mm 0.00 in0.0 mm
09:56 AM 13.5°F-10.3°C 0.4°F-17.6°C 55% 2.7 mph NNE4.3 kmh NNE 5.8 mph9.3 kmh 30.73 in1040.6 mb 0.00 in0.0 mm 0.00 in0.0 mm 0.00 in0.0 mm
09:57 AM 13.6°F-10.2°C 0.9°F-17.3°C 56% 6.8 mph NNE10.9 kmh NNE 6.8 mph10.9 kmh 30.73 in1040.6 mb 0.00 in0.0 mm 0.00 in0.0 mm 0.00 in0.0 mm
09:58 AM 13.6°F-10.2°C 0.9°F-17.3°C 56% 3.7 mph N6.0 kmh N 6.8 mph10.9 kmh 30.73 in1040.6 mb 0.00 in0.0 mm 0.00 in0.0 mm 0.00 in0.0 mm
09:59 AM 13.6°F-10.2°C 0.9°F-17.3°C 56% 5.8 mph E9.3 kmh E 6.8 mph10.9 kmh 30.73 in1040.6 mb 0.00 in0.0 mm 0.00 in0.0 mm 0.00 in0.0 mm
10:00 AM 13.8°F-10.1°C 0.3°F-17.6°C 54% 3.7 mph NNW6.0 kmh NNW 6.8 mph10.9 kmh 30.73 in1040.6 mb 0.00 in0.0 mm 0.00 in0.0 mm 0.00 in0.0 mm
10:01 AM 13.8°F-10.1°C 0.3°F-17.6°C 54% 5.8 mph NNE9.3 kmh NNE 6.8 mph10.9 kmh 30.73 in1040.6 mb 0.00 in0.0 mm 0.00 in0.0 mm 0.00 in0.0 mm
10:02 AM 13.8°F-10.1°C 0.3°F-17.6°C 54% 2.7 mph ESE4.3 kmh ESE 6.8 mph10.9 kmh 30.73 in1040.6 mb 0.00 in0.0 mm 0.00 in0.0 mm 0.00 in0.0 mm
10:03 AM 14.0°F-10.0°C 0.5°F-17.5°C 54% 3.2 mph ESE5.1 kmh ESE 6.8 mph10.9 kmh 30.73 in1040.6 mb 0.00 in0.0 mm 0.00 in0.0 mm 0.00 in0.0 mm
10:04 AM 14.2°F-9.9°C 0.6°F-17.4°C 54% 5.3 mph NE8.5 kmh NE 6.8 mph10.9 kmh 30.73 in1040.6 mb 0.00 in0.0 mm 0.00 in0.0 mm 0.00 in0.0 mm
10:05 AM 14.2°F-9.9°C 0.2°F-17.7°C 53% 3.7 mph NE6.0 kmh NE 6.8 mph10.9 kmh 30.73 in1040.6 mb 0.00 in0.0 mm 0.00 in0.0 mm 0.00 in0.0 mm
10:06 AM 14.4°F-9.8°C 0.4°F-17.6°C 53% 4.2 mph NNE6.8 kmh NNE 6.8 mph10.9 kmh 30.73 in1040.6 mb 0.00 in0.0 mm 0.00 in0.0 mm 0.00 in0.0 mm
10:07 AM 14.4°F-9.8°C 0.4°F-17.6°C 53% 3.2 mph N5.1 kmh N 6.8 mph10.9 kmh 30.73 in1040.6 mb 0.00 in0.0 mm 0.00 in0.0 mm 0.00 in0.0 mm
10:08 AM 14.4°F-9.8°C 0.8°F-17.3°C 54% 3.7 mph NE6.0 kmh NE 5.8 mph9.3 kmh 30.73 in1040.6 mb 0.00 in0.0 mm 0.00 in0.0 mm 0.00 in0.0 mm
10:09 AM 14.5°F-9.7°C 0.9°F-17.3°C 54% 2.7 mph NNE4.3 kmh NNE 5.8 mph9.3 kmh 30.73 in1040.6 mb 0.00 in0.0 mm 0.00 in0.0 mm 0.00 in0.0 mm
10:10 AM 14.7°F-9.6°C 0.7°F-17.4°C 53% 2.2 mph ESE3.5 kmh ESE 5.8 mph9.3 kmh 30.73 in1040.6 mb 0.00 in0.0 mm 0.00 in0.0 mm 0.00 in0.0 mm
10:11 AM 14.7°F-9.6°C 0.7°F-17.4°C 53% 4.2 mph NNW6.8 kmh NNW 5.8 mph9.3 kmh 30.73 in1040.6 mb 0.00 in0.0 mm 0.00 in0.0 mm 0.00 in0.0 mm
10:12 AM 14.9°F-9.5°C 0.9°F-17.3°C 53% 2.2 mph NNW3.5 kmh NNW 5.3 mph8.5 kmh 30.73 in1040.6 mb 0.00 in0.0 mm 0.00 in0.0 mm 0.00 in0.0 mm
10:13 AM 15.1°F-9.4°C 0.7°F-17.4°C 52% 2.2 mph NNW3.5 kmh NNW 5.3 mph8.5 kmh 30.73 in1040.6 mb 0.00 in0.0 mm 0.00 in0.0 mm 0.00 in0.0 mm
10:14 AM 15.1°F-9.4°C 0.3°F-17.6°C 51% Calm Calm 5.3 mph8.5 kmh 30.73 in1040.6 mb 0.00 in0.0 mm 0.00 in0.0 mm 0.00 in0.0 mm
10:15 AM 15.3°F-9.3°C 0.9°F-17.3°C 52% 2.7 mph NNW4.3 kmh NNW 4.2 mph6.8 kmh 30.73 in1040.6 mb 0.00 in0.0 mm 0.00 in0.0 mm 0.00 in0.0 mm
10:16 AM 15.3°F-9.3°C 1.3°F-17.1°C 53% 2.2 mph WNW3.5 kmh WNW 4.2 mph6.8 kmh 30.73 in1040.6 mb 0.00 in0.0 mm 0.00 in0.0 mm 0.00 in0.0 mm
10:17 AM 15.4°F-9.2°C 1.4°F-17.0°C 53% 1.7 mph NE2.7 kmh NE 4.2 mph6.8 kmh 30.73 in1040.6 mb 0.00 in0.0 mm 0.00 in0.0 mm 0.00 in0.0 mm
10:18 AM 15.4°F-9.2°C 1.4°F-17.0°C 53% 2.7 mph WSW4.3 kmh WSW 4.2 mph6.8 kmh 30.73 in1040.6 mb 0.00 in0.0 mm 0.00 in0.0 mm 0.00 in0.0 mm
10:19 AM 15.6°F-9.1°C 2.0°F-16.7°C 54% 1.7 mph S2.7 kmh S 4.2 mph6.8 kmh 30.73 in1040.6 mb 0.00 in0.0 mm 0.00 in0.0 mm 0.00 in0.0 mm
10:20 AM 15.4°F-9.2°C 1.4°F-17.0°C 53% 4.7 mph ESE7.6 kmh ESE 4.7 mph7.6 kmh 30.73 in1040.6 mb 0.00 in0.0 mm 0.00 in0.0 mm 0.00 in0.0 mm
10:21 AM 15.3°F-9.3°C 0.5°F-17.5°C 51% 4.2 mph ESE6.8 kmh ESE 4.7 mph7.6 kmh 30.73 in1040.6 mb 0.00 in0.0 mm 0.00 in0.0 mm 0.00 in0.0 mm
10:22 AM 15.4°F-9.2°C 0.5°F-17.5°C 51% 2.2 mph E3.5 kmh E 4.7 mph7.6 kmh 30.73 in1040.6 mb 0.00 in0.0 mm 0.00 in0.0 mm 0.00 in0.0 mm
10:23 AM 15.4°F-9.2°C 0.5°F-17.5°C 51% 3.2 mph ESE5.1 kmh ESE 4.7 mph7.6 kmh 30.73 in1040.6 mb 0.00 in0.0 mm 0.00 in0.0 mm 0.00 in0.0 mm
10:24 AM 15.4°F-9.2°C 0.5°F-17.5°C 51% 4.7 mph ESE7.6 kmh ESE 4.7 mph7.6 kmh 30.73 in1040.6 mb 0.00 in0.0 mm 0.00 in0.0 mm 0.00 in0.0 mm
10:25 AM 15.4°F-9.2°C 0.5°F-17.5°C 51% 4.2 mph ESE6.8 kmh ESE 4.7 mph7.6 kmh 30.73 in1040.6 mb 0.00 in0.0 mm 0.00 in0.0 mm 0.00 in0.0 mm
10:26 AM 15.3°F-9.3°C 0.5°F-17.5°C 51% 3.2 mph ESE5.1 kmh ESE 4.7 mph7.6 kmh 30.73 in1040.6 mb 0.00 in0.0 mm 0.00 in0.0 mm 0.00 in0.0 mm
10:27 AM 15.4°F-9.2°C 0.5°F-17.5°C 51% 1.7 mph ENE2.7 kmh ENE 4.7 mph7.6 kmh 30.73 in1040.6 mb 0.00 in0.0 mm 0.00 in0.0 mm 0.00 in0.0 mm
10:28 AM 15.8°F-9.0°C 0.9°F-17.3°C 51% 4.2 mph SE6.8 kmh SE 4.7 mph7.6 kmh 30.73 in1040.6 mb 0.00 in0.0 mm 0.00 in0.0 mm 0.00 in0.0 mm
10:29 AM 15.6°F-9.1°C 0.3°F-17.6°C 50% 3.7 mph ESE6.0 kmh ESE 4.7 mph7.6 kmh 30.73 in1040.6 mb 0.00 in0.0 mm 0.00 in0.0 mm 0.00 in0.0 mm
10:30 AM 15.4°F-9.2°C 0.1°F-17.7°C 50% 2.7 mph SSE4.3 kmh SSE 4.7 mph7.6 kmh 30.73 in1040.6 mb 0.00 in0.0 mm 0.00 in0.0 mm 0.00 in0.0 mm
10:31 AM 15.6°F-9.1°C 0.3°F-17.6°C 50% 3.7 mph ESE6.0 kmh ESE 4.7 mph7.6 kmh 30.73 in1040.6 mb 0.00 in0.0 mm 0.00 in0.0 mm 0.00 in0.0 mm
10:32 AM 15.6°F-9.1°C 0.3°F-17.6°C 50% 5.3 mph SE8.5 kmh SE 5.3 mph8.5 kmh 30.73 in1040.6 mb 0.00 in0.0 mm 0.00 in0.0 mm 0.00 in0.0 mm
10:33 AM 15.6°F-9.1°C -0.1°F-17.8°C 49% 4.2 mph ESE6.8 kmh ESE 5.8 mph9.3 kmh 30.73 in1040.6 mb 0.00 in0.0 mm 0.00 in0.0 mm 0.00 in0.0 mm
10:34 AM 15.4°F-9.2°C -0.3°F-17.9°C 49% 2.7 mph ESE4.3 kmh ESE 5.8 mph9.3 kmh 30.73 in1040.6 mb 0.00 in0.0 mm 0.00 in0.0 mm 0.00 in0.0 mm
10:35 AM 15.8°F-9.0°C 0.5°F-17.5°C 50% 3.2 mph SSE5.1 kmh SSE 5.8 mph9.3 kmh 30.73 in1040.6 mb 0.00 in0.0 mm 0.00 in0.0 mm 0.00 in0.0 mm
10:36 AM 16.0°F-8.9°C 0.7°F-17.4°C 50% 2.7 mph ESE4.3 kmh ESE 5.8 mph9.3 kmh 30.73 in1040.6 mb 0.00 in0.0 mm 0.00 in0.0 mm 0.00 in0.0 mm
10:37 AM 16.2°F-8.8°C 0.9°F-17.3°C 50% 2.2 mph ESE3.5 kmh ESE 5.8 mph9.3 kmh 30.73 in1040.6 mb 0.00 in0.0 mm 0.00 in0.0 mm 0.00 in0.0 mm
10:38 AM 16.3°F-8.7°C 0.5°F-17.5°C 49% 2.2 mph ESE3.5 kmh ESE 5.8 mph9.3 kmh 30.73 in1040.6 mb 0.00 in0.0 mm 0.00 in0.0 mm 0.00 in0.0 mm
10:39 AM 16.3°F-8.7°C 0.5°F-17.5°C 49% 1.1 mph E1.8 kmh E 5.8 mph9.3 kmh 30.73 in1040.6 mb 0.00 in0.0 mm 0.00 in0.0 mm 0.00 in0.0 mm
10:40 AM 16.5°F-8.6°C 0.7°F-17.4°C 49% 1.1 mph ESE1.8 kmh ESE 5.8 mph9.3 kmh 30.73 in1040.6 mb 0.00 in0.0 mm 0.00 in0.0 mm 0.00 in0.0 mm
10:41 AM 16.9°F-8.4°C 1.5°F-16.9°C 50% 2.7 mph SSE4.3 kmh SSE 5.8 mph9.3 kmh 30.73 in1040.6 mb 0.00 in0.0 mm 0.00 in0.0 mm 0.00 in0.0 mm
10:42 AM 16.5°F-8.6°C 0.7°F-17.4°C 49% 2.7 mph SSE4.3 kmh SSE 5.8 mph9.3 kmh 30.73 in1040.6 mb 0.00 in0.0 mm 0.00 in0.0 mm 0.00 in0.0 mm
10:43 AM 16.3°F-8.7°C 0.1°F-17.7°C 48% 3.2 mph SE5.1 kmh SE 4.2 mph6.8 kmh 30.73 in1040.6 mb 0.00 in0.0 mm 0.00 in0.0 mm 0.00 in0.0 mm
10:44 AM 16.3°F-8.7°C 0.1°F-17.7°C 48% 4.2 mph ESE6.8 kmh ESE 4.2 mph6.8 kmh 30.73 in1040.6 mb 0.00 in0.0 mm 0.00 in0.0 mm 0.00 in0.0 mm
10:45 AM 16.2°F-8.8°C 0.0°F-17.8°C 48% 3.7 mph ESE6.0 kmh ESE 4.2 mph6.8 kmh 30.73 in1040.6 mb 0.00 in0.0 mm 0.00 in0.0 mm 0.00 in0.0 mm
10:46 AM 16.2°F-8.8°C 0.0°F-17.8°C 48% 3.7 mph SSE6.0 kmh SSE 4.2 mph6.8 kmh 30.73 in1040.6 mb 0.00 in0.0 mm 0.00 in0.0 mm 0.00 in0.0 mm
10:47 AM 16.5°F-8.6°C 0.7°F-17.4°C 49% 3.2 mph SSE5.1 kmh SSE 4.2 mph6.8 kmh 30.73 in1040.6 mb 0.00 in0.0 mm 0.00 in0.0 mm 0.00 in0.0 mm
10:48 AM 16.7°F-8.5°C 0.9°F-17.3°C 49% 5.3 mph S8.5 kmh S 5.3 mph8.5 kmh 30.73 in1040.6 mb 0.00 in0.0 mm 0.00 in0.0 mm 0.00 in0.0 mm
10:49 AM 16.5°F-8.6°C 0.7°F-17.4°C 49% 2.2 mph ESE3.5 kmh ESE 5.3 mph8.5 kmh 30.73 in1040.6 mb 0.00 in0.0 mm 0.00 in0.0 mm 0.00 in0.0 mm
10:50 AM 16.5°F-8.6°C 0.7°F-17.4°C 49% 3.2 mph SE5.1 kmh SE 5.3 mph8.5 kmh 30.73 in1040.6 mb 0.00 in0.0 mm 0.00 in0.0 mm 0.00 in0.0 mm
10:51 AM 16.3°F-8.7°C 0.5°F-17.5°C 49% 3.2 mph SSE5.1 kmh SSE 5.3 mph8.5 kmh 30.73 in1040.6 mb 0.00 in0.0 mm 0.00 in0.0 mm 0.00 in0.0 mm
10:52 AM 16.5°F-8.6°C 0.7°F-17.4°C 49% 3.2 mph ESE5.1 kmh ESE 5.3 mph8.5 kmh 30.73 in1040.6 mb 0.00 in0.0 mm 0.00 in0.0 mm 0.00 in0.0 mm
10:53 AM 16.9°F-8.4°C 0.6°F-17.4°C 48% 2.7 mph ESE4.3 kmh ESE 5.3 mph8.5 kmh 30.72 in1040.3 mb 0.00 in0.0 mm 0.00 in0.0 mm 0.00 in0.0 mm
10:54 AM 17.1°F-8.3°C 0.4°F-17.6°C 47% 3.2 mph NNE5.1 kmh NNE 5.3 mph8.5 kmh 30.72 in1040.3 mb 0.00 in0.0 mm 0.00 in0.0 mm 0.00 in0.0 mm
10:55 AM 17.2°F-8.2°C 0.5°F-17.5°C 47% 3.7 mph NE6.0 kmh NE 5.3 mph8.5 kmh 30.72 in1040.3 mb 0.00 in0.0 mm 0.00 in0.0 mm 0.00 in0.0 mm
10:56 AM 17.1°F-8.3°C 0.4°F-17.6°C 47% 1.7 mph WNW2.7 kmh WNW 5.3 mph8.5 kmh 30.72 in1040.3 mb 0.00 in0.0 mm 0.00 in0.0 mm 0.00 in0.0 mm
10:57 AM 17.4°F-8.1°C -0.3°F-17.9°C 45% 1.7 mph ESE2.7 kmh ESE 5.3 mph8.5 kmh 30.72 in1040.3 mb 0.00 in0.0 mm 0.00 in0.0 mm 0.00 in0.0 mm
10:58 AM 17.8°F-7.9°C 0.6°F-17.4°C 46% 1.7 mph ESE2.7 kmh ESE 5.3 mph8.5 kmh 30.72 in1040.3 mb 0.00 in0.0 mm 0.00 in0.0 mm 0.00 in0.0 mm
10:59 AM 17.6°F-8.0°C 0.4°F-17.6°C 46% 2.2 mph NNE3.5 kmh NNE 4.2 mph6.8 kmh 30.72 in1040.3 mb 0.00 in0.0 mm 0.00 in0.0 mm 0.00 in0.0 mm
11:00 AM 18.1°F-7.7°C 1.3°F-17.1°C 47% 2.7 mph ENE4.3 kmh ENE 4.2 mph6.8 kmh 30.72 in1040.3 mb 0.00 in0.0 mm 0.00 in0.0 mm 0.00 in0.0 mm
11:01 AM 17.2°F-8.2°C 0.0°F-17.8°C 46% 2.2 mph SW3.5 kmh SW 4.2 mph6.8 kmh 30.72 in1040.3 mb 0.00 in0.0 mm 0.00 in0.0 mm 0.00 in0.0 mm
11:02 AM 16.5°F-8.6°C -0.2°F-17.9°C 47% 1.7 mph W2.7 kmh W 4.2 mph6.8 kmh 30.72 in1040.3 mb 0.00 in0.0 mm 0.00 in0.0 mm 0.00 in0.0 mm
11:03 AM 17.1°F-8.3°C 0.8°F-17.3°C 48% 2.7 mph E4.3 kmh E 3.7 mph6.0 kmh 30.72 in1040.3 mb 0.00 in0.0 mm 0.00 in0.0 mm 0.00 in0.0 mm
11:04 AM 17.6°F-8.0°C 1.7°F-16.8°C 49% 4.2 mph SE6.8 kmh SE 4.2 mph6.8 kmh 30.72 in1040.3 mb 0.00 in0.0 mm 0.00 in0.0 mm 0.00 in0.0 mm
11:05 AM 17.4°F-8.1°C 1.1°F-17.2°C 48% 3.2 mph SE5.1 kmh SE 4.2 mph6.8 kmh 30.71 in1040.0 mb 0.00 in0.0 mm 0.00 in0.0 mm 0.00 in0.0 mm
11:06 AM 17.6°F-8.0°C 1.3°F-17.1°C 48% 4.2 mph SSE6.8 kmh SSE 5.8 mph9.3 kmh 30.71 in1040.0 mb 0.00 in0.0 mm 0.00 in0.0 mm 0.00 in0.0 mm
11:07 AM 17.4°F-8.1°C 1.5°F-16.9°C 49% 3.2 mph SSE5.1 kmh SSE 5.8 mph9.3 kmh 30.71 in1040.0 mb 0.00 in0.0 mm 0.00 in0.0 mm 0.00 in0.0 mm
11:08 AM 17.8°F-7.9°C 1.9°F-16.7°C 49% 1.7 mph ESE2.7 kmh ESE 5.8 mph9.3 kmh 30.71 in1040.0 mb 0.00 in0.0 mm 0.00 in0.0 mm 0.00 in0.0 mm
11:09 AM 18.0°F-7.8°C 2.1°F-16.6°C 49% 2.2 mph ESE3.5 kmh ESE 5.8 mph9.3 kmh 30.71 in1040.0 mb 0.00 in0.0 mm 0.00 in0.0 mm 0.00 in0.0 mm
11:10 AM 18.0°F-7.8°C 1.7°F-16.8°C 48% 5.3 mph SSE8.5 kmh SSE 5.8 mph9.3 kmh 30.71 in1040.0 mb 0.00 in0.0 mm 0.00 in0.0 mm 0.00 in0.0 mm
11:11 AM 17.8°F-7.9°C 0.6°F-17.4°C 46% 4.2 mph SE6.8 kmh SE 5.8 mph9.3 kmh 30.71 in1040.0 mb 0.00 in0.0 mm 0.00 in0.0 mm 0.00 in0.0 mm
11:12 AM 17.8°F-7.9°C 0.6°F-17.4°C 46% 2.7 mph ESE4.3 kmh ESE 5.8 mph9.3 kmh 30.71 in1040.0 mb 0.00 in0.0 mm 0.00 in0.0 mm 0.00 in0.0 mm
11:13 AM 17.8°F-7.9°C 1.0°F-17.2°C 47% 1.7 mph ESE2.7 kmh ESE 5.8 mph9.3 kmh 30.71 in1040.0 mb 0.00 in0.0 mm 0.00 in0.0 mm 0.00 in0.0 mm
11:14 AM 17.8°F-7.9°C 1.0°F-17.2°C 47% 1.7 mph ESE2.7 kmh ESE 5.8 mph9.3 kmh 30.71 in1040.0 mb 0.00 in0.0 mm 0.00 in0.0 mm 0.00 in0.0 mm
11:15 AM 17.8°F-7.9°C 1.0°F-17.2°C 47% 3.2 mph ESE5.1 kmh ESE 5.8 mph9.3 kmh 30.71 in1040.0 mb 0.00 in0.0 mm 0.00 in0.0 mm 0.00 in0.0 mm
11:16 AM 18.0°F-7.8°C 1.2°F-17.1°C 47% 3.2 mph S5.1 kmh S 5.3 mph8.5 kmh 30.71 in1040.0 mb 0.00 in0.0 mm 0.00 in0.0 mm 0.00 in0.0 mm
11:17 AM 18.3°F-7.6°C 1.0°F-17.2°C 46% 3.7 mph SE6.0 kmh SE 5.3 mph8.5 kmh 30.70 in1039.6 mb 0.00 in0.0 mm 0.00 in0.0 mm 0.00 in0.0 mm
11:18 AM 18.5°F-7.5°C 1.2°F-17.1°C 46% 1.7 mph E2.7 kmh E 5.3 mph8.5 kmh 30.70 in1039.6 mb 0.00 in0.0 mm 0.00 in0.0 mm 0.00 in0.0 mm
11:19 AM 18.5°F-7.5°C 1.2°F-17.1°C 46% 2.7 mph SSE4.3 kmh SSE 5.3 mph8.5 kmh 30.70 in1039.6 mb 0.00 in0.0 mm 0.00 in0.0 mm 0.00 in0.0 mm
11:20 AM 18.5°F-7.5°C 1.2°F-17.1°C 46% 3.2 mph ESE5.1 kmh ESE 5.3 mph8.5 kmh 30.70 in1039.6 mb 0.00 in0.0 mm 0.00 in0.0 mm 0.00 in0.0 mm
11:21 AM 18.3°F-7.6°C 1.0°F-17.2°C 46% 2.2 mph ESE3.5 kmh ESE 4.2 mph6.8 kmh 30.70 in1039.6 mb 0.00 in0.0 mm 0.00 in0.0 mm 0.00 in0.0 mm
11:22 AM 18.7°F-7.4°C 1.4°F-17.0°C 46% 2.7 mph SE4.3 kmh SE 3.7 mph6.0 kmh 30.70 in1039.6 mb 0.00 in0.0 mm 0.00 in0.0 mm 0.00 in0.0 mm
11:23 AM 18.9°F-7.3°C 1.6°F-16.9°C 46% 2.7 mph ESE4.3 kmh ESE 3.7 mph6.0 kmh 30.70 in1039.6 mb 0.00 in0.0 mm 0.00 in0.0 mm 0.00 in0.0 mm
11:24 AM 18.9°F-7.3°C 1.6°F-16.9°C 46% 2.7 mph S4.3 kmh S 3.7 mph6.0 kmh 30.70 in1039.6 mb 0.00 in0.0 mm 0.00 in0.0 mm 0.00 in0.0 mm
11:25 AM 18.9°F-7.3°C 1.1°F-17.2°C 45% 4.2 mph ESE6.8 kmh ESE 4.2 mph6.8 kmh 30.70 in1039.6 mb 0.00 in0.0 mm 0.00 in0.0 mm 0.00 in0.0 mm
11:26 AM 18.5°F-7.5°C 0.3°F-17.6°C 44% 3.2 mph SSE5.1 kmh SSE 4.7 mph7.6 kmh 30.70 in1039.6 mb 0.00 in0.0 mm 0.00 in0.0 mm 0.00 in0.0 mm
11:27 AM 18.3°F-7.6°C 0.6°F-17.4°C 45% 3.7 mph SE6.0 kmh SE 4.7 mph7.6 kmh 30.70 in1039.6 mb 0.00 in0.0 mm 0.00 in0.0 mm 0.00 in0.0 mm
11:28 AM 18.3°F-7.6°C 0.6°F-17.4°C 45% 2.2 mph ESE3.5 kmh ESE 4.7 mph7.6 kmh 30.70 in1039.6 mb 0.00 in0.0 mm 0.00 in0.0 mm 0.00 in0.0 mm
11:29 AM 18.3°F-7.6°C 1.0°F-17.2°C 46% 1.1 mph S1.8 kmh S 4.7 mph7.6 kmh 30.69 in1039.3 mb 0.00 in0.0 mm 0.00 in0.0 mm 0.00 in0.0 mm
11:30 AM 18.9°F-7.3°C 1.1°F-17.2°C 45% 2.2 mph NW3.5 kmh NW 4.7 mph7.6 kmh 30.69 in1039.3 mb 0.00 in0.0 mm 0.00 in0.0 mm 0.00 in0.0 mm
11:31 AM 19.6°F-6.9°C 2.2°F-16.6°C 46% 1.7 mph NE2.7 kmh NE 4.7 mph7.6 kmh 30.69 in1039.3 mb 0.00 in0.0 mm 0.00 in0.0 mm 0.00 in0.0 mm
11:32 AM 19.8°F-6.8°C 1.5°F-16.9°C 44% 2.2 mph ESE3.5 kmh ESE 4.7 mph7.6 kmh 30.69 in1039.3 mb 0.00 in0.0 mm 0.00 in0.0 mm 0.00 in0.0 mm
11:33 AM 19.8°F-6.8°C 1.5°F-16.9°C 44% 2.7 mph SE4.3 kmh SE 4.7 mph7.6 kmh 30.69 in1039.3 mb 0.00 in0.0 mm 0.00 in0.0 mm 0.00 in0.0 mm
11:34 AM 19.2°F-7.1°C 2.3°F-16.5°C 47% 1.1 mph SE1.8 kmh SE 4.7 mph7.6 kmh 30.69 in1039.3 mb 0.00 in0.0 mm 0.00 in0.0 mm 0.00 in0.0 mm
11:35 AM 19.9°F-6.7°C 2.5°F-16.4°C 46% 2.7 mph NNW4.3 kmh NNW 4.7 mph7.6 kmh 30.69 in1039.3 mb 0.00 in0.0 mm 0.00 in0.0 mm 0.00 in0.0 mm
11:36 AM 19.9°F-6.7°C 2.0°F-16.7°C 45% 1.7 mph N2.7 kmh N 3.7 mph6.0 kmh 30.69 in1039.3 mb 0.00 in0.0 mm 0.00 in0.0 mm 0.00 in0.0 mm
11:37 AM 19.9°F-6.7°C 2.5°F-16.4°C 46% 2.2 mph N3.5 kmh N 3.7 mph6.0 kmh 30.69 in1039.3 mb 0.00 in0.0 mm 0.00 in0.0 mm 0.00 in0.0 mm
11:38 AM 20.3°F-6.5°C 2.4°F-16.4°C 45% 1.7 mph NE2.7 kmh NE 3.2 mph5.1 kmh 30.69 in1039.3 mb 0.00 in0.0 mm 0.00 in0.0 mm 0.00 in0.0 mm
11:39 AM 20.7°F-6.3°C 2.3°F-16.5°C 44% 2.7 mph W4.3 kmh W 3.2 mph5.1 kmh 30.69 in1039.3 mb 0.00 in0.0 mm 0.00 in0.0 mm 0.00 in0.0 mm
11:40 AM 19.9°F-6.7°C 1.1°F-17.2°C 43% 3.2 mph WNW5.1 kmh WNW 3.2 mph5.1 kmh 30.69 in1039.3 mb 0.00 in0.0 mm 0.00 in0.0 mm 0.00 in0.0 mm
11:41 AM 19.8°F-6.8°C 1.0°F-17.2°C 43% 4.2 mph NW6.8 kmh NW 4.2 mph6.8 kmh 30.69 in1039.3 mb 0.00 in0.0 mm 0.00 in0.0 mm 0.00 in0.0 mm
11:42 AM 19.6°F-6.9°C 0.8°F-17.3°C 43% 3.2 mph W5.1 kmh W 4.2 mph6.8 kmh 30.69 in1039.3 mb 0.00 in0.0 mm 0.00 in0.0 mm 0.00 in0.0 mm
11:43 AM 19.8°F-6.8°C 1.0°F-17.2°C 43% 1.1 mph NNW1.8 kmh NNW 4.2 mph6.8 kmh 30.69 in1039.3 mb 0.00 in0.0 mm 0.00 in0.0 mm 0.00 in0.0 mm
11:44 AM 19.8°F-6.8°C 1.0°F-17.2°C 43% Calm Calm 4.2 mph6.8 kmh 30.69 in1039.3 mb 0.00 in0.0 mm 0.00 in0.0 mm 0.00 in0.0 mm
11:45 AM 19.8°F-6.8°C 1.0°F-17.2°C 43% Calm Calm 4.2 mph6.8 kmh 30.69 in1039.3 mb 0.00 in0.0 mm 0.00 in0.0 mm 0.00 in0.0 mm
11:46 AM 20.5°F-6.4°C 2.1°F-16.6°C 44% 3.7 mph NNW6.0 kmh NNW 4.2 mph6.8 kmh 30.69 in1039.3 mb 0.00 in0.0 mm 0.00 in0.0 mm 0.00 in0.0 mm
11:47 AM 20.5°F-6.4°C 1.1°F-17.2°C 42% 2.2 mph WNW3.5 kmh WNW 4.2 mph6.8 kmh 30.69 in1039.3 mb 0.00 in0.0 mm 0.00 in0.0 mm 0.00 in0.0 mm
11:48 AM 20.3°F-6.5°C 0.9°F-17.3°C 42% Calm Calm 4.2 mph6.8 kmh 30.69 in1039.3 mb 0.00 in0.0 mm 0.00 in0.0 mm 0.00 in0.0 mm
11:49 AM 19.9°F-6.7°C 1.5°F-16.9°C 44% 2.2 mph SSW3.5 kmh SSW 4.2 mph6.8 kmh 30.69 in1039.3 mb 0.00 in0.0 mm 0.00 in0.0 mm 0.00 in0.0 mm
11:50 AM 19.0°F-7.2°C 0.7°F-17.4°C 44% 2.7 mph W4.3 kmh W 4.2 mph6.8 kmh 30.69 in1039.3 mb 0.00 in0.0 mm 0.00 in0.0 mm 0.00 in0.0 mm
11:51 AM 19.6°F-6.9°C 0.8°F-17.3°C 43% 2.7 mph WNW4.3 kmh WNW 4.2 mph6.8 kmh 30.69 in1039.3 mb 0.00 in0.0 mm 0.00 in0.0 mm 0.00 in0.0 mm
11:52 AM 20.3°F-6.5°C 0.9°F-17.3°C 42% 1.7 mph S2.7 kmh S 3.7 mph6.0 kmh 30.69 in1039.3 mb 0.00 in0.0 mm 0.00 in0.0 mm 0.00 in0.0 mm
11:53 AM 20.5°F-6.4°C 0.6°F-17.4°C 41% 3.2 mph W5.1 kmh W 3.7 mph6.0 kmh 30.68 in1038.9 mb 0.00 in0.0 mm 0.00 in0.0 mm 0.00 in0.0 mm
11:54 AM 20.3°F-6.5°C 0.4°F-17.6°C 41% 2.7 mph SW4.3 kmh SW 4.2 mph6.8 kmh 30.68 in1038.9 mb 0.00 in0.0 mm 0.00 in0.0 mm 0.00 in0.0 mm
11:55 AM 20.3°F-6.5°C 1.9°F-16.7°C 44% 2.2 mph SSW3.5 kmh SSW 4.2 mph6.8 kmh 30.68 in1038.9 mb 0.00 in0.0 mm 0.00 in0.0 mm 0.00 in0.0 mm
11:56 AM 20.5°F-6.4°C 1.1°F-17.2°C 42% 1.7 mph ESE2.7 kmh ESE 4.2 mph6.8 kmh 30.68 in1038.9 mb 0.00 in0.0 mm 0.00 in0.0 mm 0.00 in0.0 mm
11:57 AM 20.3°F-6.5°C 0.9°F-17.3°C 42% 2.2 mph W3.5 kmh W 4.2 mph6.8 kmh 30.68 in1038.9 mb 0.00 in0.0 mm 0.00 in0.0 mm 0.00 in0.0 mm
11:58 AM 20.8°F-6.2°C 1.9°F-16.7°C 43% 3.2 mph NNE5.1 kmh NNE 4.2 mph6.8 kmh 30.68 in1038.9 mb 0.00 in0.0 mm 0.00 in0.0 mm 0.00 in0.0 mm
11:59 AM 21.4°F-5.9°C 1.4°F-17.0°C 41% 2.7 mph N4.3 kmh N 4.2 mph6.8 kmh 30.68 in1038.9 mb 0.00 in0.0 mm 0.00 in0.0 mm 0.00 in0.0 mm
12:00 PM 20.5°F-6.4°C 1.1°F-17.2°C 42% Calm Calm 4.2 mph6.8 kmh 30.68 in1038.9 mb 0.00 in0.0 mm 0.00 in0.0 mm 0.00 in0.0 mm
12:01 PM 20.8°F-6.2°C 1.9°F-16.7°C 43% 4.2 mph NE6.8 kmh NE 4.2 mph6.8 kmh 30.68 in1038.9 mb 0.00 in0.0 mm 0.00 in0.0 mm 0.00 in0.0 mm
12:02 PM 21.6°F-5.8°C 1.6°F-16.9°C 41% 2.2 mph NW3.5 kmh NW 4.2 mph6.8 kmh 30.68 in1038.9 mb 0.00 in0.0 mm 0.00 in0.0 mm 0.00 in0.0 mm
12:03 PM 21.7°F-5.7°C 1.1°F-17.2°C 40% 1.7 mph NE2.7 kmh NE 4.2 mph6.8 kmh 30.68 in1038.9 mb 0.00 in0.0 mm 0.00 in0.0 mm 0.00 in0.0 mm
12:04 PM 21.4°F-5.9°C 0.9°F-17.3°C 40% 1.7 mph NE2.7 kmh NE 4.2 mph6.8 kmh 30.67 in1038.6 mb 0.00 in0.0 mm 0.00 in0.0 mm 0.00 in0.0 mm
12:05 PM 21.0°F-6.1°C 0.5°F-17.5°C 40% 1.1 mph ESE1.8 kmh ESE 4.2 mph6.8 kmh 30.67 in1038.6 mb 0.00 in0.0 mm 0.00 in0.0 mm 0.00 in0.0 mm
12:06 PM 21.0°F-6.1°C 2.1°F-16.6°C 43% Calm Calm 4.2 mph6.8 kmh 30.67 in1038.6 mb 0.00 in0.0 mm 0.00 in0.0 mm 0.00 in0.0 mm
12:07 PM 21.7°F-5.7°C 2.2°F-16.6°C 42% 2.2 mph N3.5 kmh N 4.2 mph6.8 kmh 30.67 in1038.6 mb 0.00 in0.0 mm 0.00 in0.0 mm 0.00 in0.0 mm
12:08 PM 21.9°F-5.6°C 1.9°F-16.7°C 41% 1.1 mph SSE1.8 kmh SSE 4.2 mph6.8 kmh 30.67 in1038.6 mb 0.00 in0.0 mm 0.00 in0.0 mm 0.00 in0.0 mm
12:09 PM 21.7°F-5.7°C 2.2°F-16.6°C 42% 1.1 mph SW1.8 kmh SW 4.2 mph6.8 kmh 30.67 in1038.6 mb 0.00 in0.0 mm 0.00 in0.0 mm 0.00 in0.0 mm
12:10 PM 21.6°F-5.8°C 2.1°F-16.6°C 42% Calm Calm 4.2 mph6.8 kmh 30.67 in1038.6 mb 0.00 in0.0 mm 0.00 in0.0 mm 0.00 in0.0 mm
12:11 PM 21.2°F-6.0°C 1.7°F-16.8°C 42% 2.2 mph W3.5 kmh W 4.2 mph6.8 kmh 30.67 in1038.6 mb 0.00 in0.0 mm 0.00 in0.0 mm 0.00 in0.0 mm
12:12 PM 21.4°F-5.9°C 1.9°F-16.7°C 42% 2.2 mph W3.5 kmh W 2.2 mph3.5 kmh 30.67 in1038.6 mb 0.00 in0.0 mm 0.00 in0.0 mm 0.00 in0.0 mm
12:13 PM 21.2°F-6.0°C 1.2°F-17.1°C 41% 1.1 mph W1.8 kmh W 2.7 mph4.3 kmh 30.67 in1038.6 mb 0.00 in0.0 mm 0.00 in0.0 mm 0.00 in0.0 mm
12:14 PM 21.9°F-5.6°C 0.8°F-17.3°C 39% 2.7 mph NNE4.3 kmh NNE 3.2 mph5.1 kmh 30.67 in1038.6 mb 0.00 in0.0 mm 0.00 in0.0 mm 0.00 in0.0 mm
12:15 PM 21.6°F-5.8°C 0.5°F-17.5°C 39% 1.7 mph NNE2.7 kmh NNE 3.2 mph5.1 kmh 30.67 in1038.6 mb 0.00 in0.0 mm 0.00 in0.0 mm 0.00 in0.0 mm
12:16 PM 21.9°F-5.6°C 0.8°F-17.3°C 39% 2.2 mph NNE3.5 kmh NNE 3.2 mph5.1 kmh 30.66 in1038.3 mb 0.00 in0.0 mm 0.00 in0.0 mm 0.00 in0.0 mm
12:17 PM 22.5°F-5.3°C 0.8°F-17.3°C 38% 2.2 mph NNE3.5 kmh NNE 3.2 mph5.1 kmh 30.66 in1038.3 mb 0.00 in0.0 mm 0.00 in0.0 mm 0.00 in0.0 mm
12:18 PM 22.5°F-5.3°C 0.8°F-17.3°C 38% 3.7 mph NNE6.0 kmh NNE 3.7 mph6.0 kmh 30.66 in1038.3 mb 0.00 in0.0 mm 0.00 in0.0 mm 0.00 in0.0 mm
12:19 PM 22.6°F-5.2°C 1.4°F-17.0°C 39% 2.7 mph ESE4.3 kmh ESE 3.7 mph6.0 kmh 30.66 in1038.3 mb 0.00 in0.0 mm 0.00 in0.0 mm 0.00 in0.0 mm
12:20 PM 22.8°F-5.1°C 1.0°F-17.2°C 38% 1.7 mph NNE2.7 kmh NNE 3.7 mph6.0 kmh 30.66 in1038.3 mb 0.00 in0.0 mm 0.00 in0.0 mm 0.00 in0.0 mm
12:21 PM 22.8°F-5.1°C 1.6°F-16.9°C 39% 1.1 mph WNW1.8 kmh WNW 3.7 mph6.0 kmh 30.66 in1038.3 mb 0.00 in0.0 mm 0.00 in0.0 mm 0.00 in0.0 mm
12:22 PM 22.8°F-5.1°C 1.6°F-16.9°C 39% 1.1 mph W1.8 kmh W 3.7 mph6.0 kmh 30.66 in1038.3 mb 0.00 in0.0 mm 0.00 in0.0 mm 0.00 in0.0 mm
12:23 PM 21.9°F-5.6°C 0.8°F-17.3°C 39% 1.1 mph SW1.8 kmh SW 3.7 mph6.0 kmh 30.66 in1038.3 mb 0.00 in0.0 mm 0.00 in0.0 mm 0.00 in0.0 mm
12:24 PM 21.9°F-5.6°C 0.8°F-17.3°C 39% 1.1 mph NE1.8 kmh NE 3.7 mph6.0 kmh 30.66 in1038.3 mb 0.00 in0.0 mm 0.00 in0.0 mm 0.00 in0.0 mm
12:25 PM 23.0°F-5.0°C 2.3°F-16.5°C 40% 2.2 mph NNW3.5 kmh NNW 3.7 mph6.0 kmh 30.66 in1038.3 mb 0.00 in0.0 mm 0.00 in0.0 mm 0.00 in0.0 mm
12:26 PM 23.4°F-4.8°C 1.6°F-16.9°C 38% 2.2 mph NNE3.5 kmh NNE 3.7 mph6.0 kmh 30.66 in1038.3 mb 0.00 in0.0 mm 0.00 in0.0 mm 0.00 in0.0 mm
12:27 PM 23.2°F-4.9°C 1.4°F-17.0°C 38% 2.7 mph NW4.3 kmh NW 3.7 mph6.0 kmh 30.66 in1038.3 mb 0.00 in0.0 mm 0.00 in0.0 mm 0.00 in0.0 mm
12:28 PM 22.8°F-5.1°C 1.0°F-17.2°C 38% Calm Calm 3.7 mph6.0 kmh 30.66 in1038.3 mb 0.00 in0.0 mm 0.00 in0.0 mm 0.00 in0.0 mm
12:29 PM 23.4°F-4.8°C 2.1°F-16.6°C 39% 1.7 mph NNE2.7 kmh NNE 2.7 mph4.3 kmh 30.66 in1038.3 mb 0.00 in0.0 mm 0.00 in0.0 mm 0.00 in0.0 mm
12:30 PM 23.5°F-4.7°C 2.2°F-16.6°C 39% 5.3 mph E8.5 kmh E 5.3 mph8.5 kmh 30.66 in1038.3 mb 0.00 in0.0 mm 0.00 in0.0 mm 0.00 in0.0 mm
12:31 PM 23.5°F-4.7°C 1.7°F-16.8°C 38% 2.2 mph SSE3.5 kmh SSE 5.3 mph8.5 kmh 30.66 in1038.3 mb 0.00 in0.0 mm 0.00 in0.0 mm 0.00 in0.0 mm
12:32 PM 23.0°F-5.0°C 1.2°F-17.1°C 38% 2.7 mph NNE4.3 kmh NNE 5.3 mph8.5 kmh 30.66 in1038.3 mb 0.00 in0.0 mm 0.00 in0.0 mm 0.00 in0.0 mm
12:33 PM 23.2°F-4.9°C 1.4°F-17.0°C 38% 2.7 mph NNW4.3 kmh NNW 5.3 mph8.5 kmh 30.66 in1038.3 mb 0.00 in0.0 mm 0.00 in0.0 mm 0.00 in0.0 mm
12:34 PM 23.4°F-4.8°C 1.6°F-16.9°C 38% 2.2 mph NNW3.5 kmh NNW 5.3 mph8.5 kmh 30.66 in1038.3 mb 0.00 in0.0 mm 0.00 in0.0 mm 0.00 in0.0 mm
12:35 PM 23.5°F-4.7°C 2.2°F-16.6°C 39% 3.2 mph NNE5.1 kmh NNE 5.3 mph8.5 kmh 30.66 in1038.3 mb 0.00 in0.0 mm 0.00 in0.0 mm 0.00 in0.0 mm
12:36 PM 22.6°F-5.2°C 0.3°F-17.6°C 37% 2.7 mph W4.3 kmh W 5.3 mph8.5 kmh 30.66 in1038.3 mb 0.00 in0.0 mm 0.00 in0.0 mm 0.00 in0.0 mm
12:37 PM 22.5°F-5.3°C 0.2°F-17.7°C 37% 3.2 mph NNW5.1 kmh NNW 5.3 mph8.5 kmh 30.66 in1038.3 mb 0.00 in0.0 mm 0.00 in0.0 mm 0.00 in0.0 mm
12:38 PM 22.5°F-5.3°C 0.2°F-17.7°C 37% 2.2 mph NNE3.5 kmh NNE 5.3 mph8.5 kmh 30.66 in1038.3 mb 0.00 in0.0 mm 0.00 in0.0 mm 0.00 in0.0 mm
12:39 PM 23.2°F-4.9°C 0.8°F-17.3°C 37% 4.2 mph NE6.8 kmh NE 5.3 mph8.5 kmh 30.66 in1038.3 mb 0.00 in0.0 mm 0.00 in0.0 mm 0.00 in0.0 mm
12:40 PM 23.0°F-5.0°C 0.1°F-17.7°C 36% 1.7 mph NE2.7 kmh NE 5.3 mph8.5 kmh 30.64 in1037.6 mb 0.00 in0.0 mm 0.00 in0.0 mm 0.00 in0.0 mm
12:41 PM 23.0°F-5.0°C 0.1°F-17.7°C 36% 2.2 mph W3.5 kmh W 4.2 mph6.8 kmh 30.64 in1037.6 mb 0.00 in0.0 mm 0.00 in0.0 mm 0.00 in0.0 mm
12:42 PM 22.5°F-5.3°C 0.8°F-17.3°C 38% 2.2 mph ESE3.5 kmh ESE 4.2 mph6.8 kmh 30.64 in1037.6 mb 0.00 in0.0 mm 0.00 in0.0 mm 0.00 in0.0 mm
12:43 PM 22.5°F-5.3°C 0.8°F-17.3°C 38% 1.1 mph ENE1.8 kmh ENE 4.2 mph6.8 kmh 30.64 in1037.6 mb 0.00 in0.0 mm 0.00 in0.0 mm 0.00 in0.0 mm
12:44 PM 22.6°F-5.2°C 0.9°F-17.3°C 38% 1.7 mph E2.7 kmh E 4.2 mph6.8 kmh 30.64 in1037.6 mb 0.00 in0.0 mm 0.00 in0.0 mm 0.00 in0.0 mm
12:45 PM 21.9°F-5.6°C 0.8°F-17.3°C 39% 1.1 mph ESE1.8 kmh ESE 4.2 mph6.8 kmh 30.64 in1037.6 mb 0.00 in0.0 mm 0.00 in0.0 mm 0.00 in0.0 mm
12:46 PM 22.3°F-5.4°C 1.7°F-16.8°C 40% 1.7 mph NNE2.7 kmh NNE 4.2 mph6.8 kmh 30.64 in1037.6 mb 0.00 in0.0 mm 0.00 in0.0 mm 0.00 in0.0 mm
12:47 PM 23.0°F-5.0°C 1.8°F-16.8°C 39% 1.7 mph NNW2.7 kmh NNW 4.2 mph6.8 kmh 30.64 in1037.6 mb 0.00 in0.0 mm 0.00 in0.0 mm 0.00 in0.0 mm
12:48 PM 23.7°F-4.6°C 1.3°F-17.1°C 37% Calm Calm 4.2 mph6.8 kmh 30.64 in1037.6 mb 0.00 in0.0 mm 0.00 in0.0 mm 0.00 in0.0 mm
12:49 PM 23.4°F-4.8°C 1.0°F-17.2°C 37% 1.7 mph SSW2.7 kmh SSW 4.2 mph6.8 kmh 30.64 in1037.6 mb 0.00 in0.0 mm 0.00 in0.0 mm 0.00 in0.0 mm
12:50 PM 23.2°F-4.9°C 1.4°F-17.0°C 38% 1.7 mph ESE2.7 kmh ESE 2.7 mph4.3 kmh 30.64 in1037.6 mb 0.00 in0.0 mm 0.00 in0.0 mm 0.00 in0.0 mm
12:51 PM 23.2°F-4.9°C 2.0°F-16.7°C 39% 3.2 mph S5.1 kmh S 4.2 mph6.8 kmh 30.64 in1037.6 mb 0.00 in0.0 mm 0.00 in0.0 mm 0.00 in0.0 mm
12:52 PM 23.2°F-4.9°C 2.0°F-16.7°C 39% 3.7 mph ESE6.0 kmh ESE 4.2 mph6.8 kmh 30.63 in1037.3 mb 0.00 in0.0 mm 0.00 in0.0 mm 0.00 in0.0 mm
12:53 PM 22.8°F-5.1°C 1.0°F-17.2°C 38% 3.2 mph SSE5.1 kmh SSE 4.2 mph6.8 kmh 30.63 in1037.3 mb 0.00 in0.0 mm 0.00 in0.0 mm 0.00 in0.0 mm
12:54 PM 22.8°F-5.1°C 1.6°F-16.9°C 39% 2.7 mph ESE4.3 kmh ESE 4.2 mph6.8 kmh 30.63 in1037.3 mb 0.00 in0.0 mm 0.00 in0.0 mm 0.00 in0.0 mm
12:55 PM 23.2°F-4.9°C 2.0°F-16.7°C 39% 3.2 mph SSE5.1 kmh SSE 4.2 mph6.8 kmh 30.63 in1037.3 mb 0.00 in0.0 mm 0.00 in0.0 mm 0.00 in0.0 mm
12:56 PM 23.0°F-5.0°C 1.2°F-17.1°C 38% 2.7 mph ESE4.3 kmh ESE 4.2 mph6.8 kmh 30.63 in1037.3 mb 0.00 in0.0 mm 0.00 in0.0 mm 0.00 in0.0 mm
12:57 PM 22.6°F-5.2°C 0.9°F-17.3°C 38% 1.7 mph SSW2.7 kmh SSW 4.2 mph6.8 kmh 30.63 in1037.3 mb 0.00 in0.0 mm 0.00 in0.0 mm 0.00 in0.0 mm
12:58 PM 22.8°F-5.1°C 1.0°F-17.2°C 38% 1.7 mph N2.7 kmh N 4.2 mph6.8 kmh 30.63 in1037.3 mb 0.00 in0.0 mm 0.00 in0.0 mm 0.00 in0.0 mm
12:59 PM 23.4°F-4.8°C 2.1°F-16.6°C 39% 2.2 mph SSE3.5 kmh SSE 4.2 mph6.8 kmh 30.63 in1037.3 mb 0.00 in0.0 mm 0.00 in0.0 mm 0.00 in0.0 mm
01:00 PM 23.2°F-4.9°C 1.4°F-17.0°C 38% 2.7 mph W4.3 kmh W 4.2 mph6.8 kmh 30.63 in1037.3 mb 0.00 in0.0 mm 0.00 in0.0 mm 0.00 in0.0 mm
01:01 PM 21.9°F-5.6°C 0.8°F-17.3°C 39% 1.7 mph W2.7 kmh W 3.7 mph6.0 kmh 30.63 in1037.3 mb 0.00 in0.0 mm 0.00 in0.0 mm 0.00 in0.0 mm
01:02 PM 22.3°F-5.4°C 1.1°F-17.2°C 39% 2.2 mph SE3.5 kmh SE 3.7 mph6.0 kmh 30.63 in1037.3 mb 0.00 in0.0 mm 0.00 in0.0 mm 0.00 in0.0 mm
01:03 PM 22.8°F-5.1°C 0.5°F-17.5°C 37% 2.2 mph ESE3.5 kmh ESE 3.7 mph6.0 kmh 30.63 in1037.3 mb 0.00 in0.0 mm 0.00 in0.0 mm 0.00 in0.0 mm
01:04 PM 23.0°F-5.0°C 0.7°F-17.4°C 37% 2.7 mph S4.3 kmh S 3.7 mph6.0 kmh 30.62 in1036.9 mb 0.00 in0.0 mm 0.00 in0.0 mm 0.00 in0.0 mm
01:05 PM 23.2°F-4.9°C 0.3°F-17.6°C 36% 1.7 mph WSW2.7 kmh WSW 3.2 mph5.1 kmh 30.62 in1036.9 mb 0.00 in0.0 mm 0.00 in0.0 mm 0.00 in0.0 mm
01:06 PM 22.6°F-5.2°C 0.3°F-17.6°C 37% 1.7 mph WSW2.7 kmh WSW 3.2 mph5.1 kmh 30.62 in1036.9 mb 0.00 in0.0 mm 0.00 in0.0 mm 0.00 in0.0 mm
01:07 PM 23.0°F-5.0°C 0.7°F-17.4°C 37% 1.7 mph S2.7 kmh S 3.2 mph5.1 kmh 30.62 in1036.9 mb 0.00 in0.0 mm 0.00 in0.0 mm 0.00 in0.0 mm
01:08 PM 23.0°F-5.0°C 0.7°F-17.4°C 37% 1.1 mph S1.8 kmh S 3.2 mph5.1 kmh 30.62 in1036.9 mb 0.00 in0.0 mm 0.00 in0.0 mm 0.00 in0.0 mm
01:09 PM 23.2°F-4.9°C 0.8°F-17.3°C 37% 2.2 mph S3.5 kmh S 2.7 mph4.3 kmh 30.62 in1036.9 mb 0.00 in0.0 mm 0.00 in0.0 mm 0.00 in0.0 mm
01:10 PM 23.4°F-4.8°C 1.0°F-17.2°C 37% 1.1 mph E1.8 kmh E 2.7 mph4.3 kmh 30.62 in1036.9 mb 0.00 in0.0 mm 0.00 in0.0 mm 0.00 in0.0 mm
01:11 PM 23.9°F-4.5°C 1.5°F-16.9°C 37% 2.7 mph NE4.3 kmh NE 2.7 mph4.3 kmh 30.62 in1036.9 mb 0.00 in0.0 mm 0.00 in0.0 mm 0.00 in0.0 mm
01:12 PM 23.7°F-4.6°C 1.3°F-17.1°C 37% 2.2 mph E3.5 kmh E 3.7 mph6.0 kmh 30.62 in1036.9 mb 0.00 in0.0 mm 0.00 in0.0 mm 0.00 in0.0 mm
01:13 PM 23.5°F-4.7°C 1.7°F-16.8°C 38% 1.7 mph N2.7 kmh N 3.7 mph6.0 kmh 30.62 in1036.9 mb 0.00 in0.0 mm 0.00 in0.0 mm 0.00 in0.0 mm
01:14 PM 23.4°F-4.8°C 1.6°F-16.9°C 38% Calm Calm 3.7 mph6.0 kmh 30.62 in1036.9 mb 0.00 in0.0 mm 0.00 in0.0 mm 0.00 in0.0 mm
01:15 PM 23.0°F-5.0°C 1.8°F-16.8°C 39% 1.1 mph S1.8 kmh S 3.7 mph6.0 kmh 30.62 in1036.9 mb 0.00 in0.0 mm 0.00 in0.0 mm 0.00 in0.0 mm
01:16 PM 23.0°F-5.0°C 1.8°F-16.8°C 39% 4.2 mph SSE6.8 kmh SSE 4.7 mph7.6 kmh 30.62 in1036.9 mb 0.00 in0.0 mm 0.00 in0.0 mm 0.00 in0.0 mm
01:17 PM 23.0°F-5.0°C 2.3°F-16.5°C 40% 3.2 mph SSW5.1 kmh SSW 4.7 mph7.6 kmh 30.62 in1036.9 mb 0.00 in0.0 mm 0.00 in0.0 mm 0.00 in0.0 mm
01:18 PM 23.0°F-5.0°C 2.3°F-16.5°C 40% 2.2 mph SSE3.5 kmh SSE 4.7 mph7.6 kmh 30.62 in1036.9 mb 0.00 in0.0 mm 0.00 in0.0 mm 0.00 in0.0 mm
01:19 PM 23.2°F-4.9°C 2.5°F-16.4°C 40% 1.7 mph E2.7 kmh E 4.7 mph7.6 kmh 30.62 in1036.9 mb 0.00 in0.0 mm 0.00 in0.0 mm 0.00 in0.0 mm
01:20 PM 23.5°F-4.7°C 3.3°F-15.9°C 41% 1.7 mph W2.7 kmh W 4.7 mph7.6 kmh 30.62 in1036.9 mb 0.00 in0.0 mm 0.00 in0.0 mm 0.00 in0.0 mm
01:21 PM 23.4°F-4.8°C 2.7°F-16.3°C 40% 2.2 mph W3.5 kmh W 4.7 mph7.6 kmh 30.62 in1036.9 mb 0.00 in0.0 mm 0.00 in0.0 mm 0.00 in0.0 mm
01:22 PM 23.4°F-4.8°C 1.6°F-16.9°C 38% 3.2 mph W5.1 kmh W 4.7 mph7.6 kmh 30.62 in1036.9 mb 0.00 in0.0 mm 0.00 in0.0 mm 0.00 in0.0 mm
01:23 PM 23.4°F-4.8°C 1.6°F-16.9°C 38% 2.7 mph W4.3 kmh W 4.7 mph7.6 kmh 30.62 in1036.9 mb 0.00 in0.0 mm 0.00 in0.0 mm 0.00 in0.0 mm
01:24 PM 23.4°F-4.8°C 2.1°F-16.6°C 39% 3.2 mph NW5.1 kmh NW 4.7 mph7.6 kmh 30.62 in1036.9 mb 0.00 in0.0 mm 0.00 in0.0 mm 0.00 in0.0 mm
01:25 PM 23.5°F-4.7°C 2.2°F-16.6°C 39% 1.1 mph NE1.8 kmh NE 4.7 mph7.6 kmh 30.62 in1036.9 mb 0.00 in0.0 mm 0.00 in0.0 mm 0.00 in0.0 mm
01:26 PM 23.0°F-5.0°C 1.8°F-16.8°C 39% 1.7 mph WSW2.7 kmh WSW 4.2 mph6.8 kmh 30.62 in1036.9 mb 0.00 in0.0 mm 0.00 in0.0 mm 0.00 in0.0 mm
01:27 PM 23.0°F-5.0°C 2.3°F-16.5°C 40% 1.7 mph SE2.7 kmh SE 3.2 mph5.1 kmh 30.62 in1036.9 mb 0.00 in0.0 mm 0.00 in0.0 mm 0.00 in0.0 mm
01:28 PM 23.2°F-4.9°C 2.5°F-16.4°C 40% 3.2 mph SSE5.1 kmh SSE 3.7 mph6.0 kmh 30.62 in1036.9 mb 0.00 in0.0 mm 0.00 in0.0 mm 0.00 in0.0 mm
01:29 PM 22.8°F-5.1°C 2.1°F-16.6°C 40% 3.2 mph S5.1 kmh S 3.7 mph6.0 kmh 30.62 in1036.9 mb 0.00 in0.0 mm 0.00 in0.0 mm 0.00 in0.0 mm
01:30 PM 22.6°F-5.2°C 2.0°F-16.7°C 40% 2.2 mph W3.5 kmh W 3.7 mph6.0 kmh 30.62 in1036.9 mb 0.00 in0.0 mm 0.00 in0.0 mm 0.00 in0.0 mm
01:31 PM 23.0°F-5.0°C 2.3°F-16.5°C 40% 5.3 mph ESE8.5 kmh ESE 5.3 mph8.5 kmh 30.62 in1036.9 mb 0.00 in0.0 mm 0.00 in0.0 mm 0.00 in0.0 mm
01:32 PM 23.4°F-4.8°C 2.7°F-16.3°C 40% 5.8 mph ESE9.3 kmh ESE 6.8 mph10.9 kmh 30.62 in1036.9 mb 0.00 in0.0 mm 0.00 in0.0 mm 0.00 in0.0 mm
01:33 PM 23.2°F-4.9°C 2.5°F-16.4°C 40% 3.7 mph E6.0 kmh E 6.8 mph10.9 kmh 30.62 in1036.9 mb 0.00 in0.0 mm 0.00 in0.0 mm 0.00 in0.0 mm
01:34 PM 22.6°F-5.2°C 3.0°F-16.1°C 42% 5.8 mph ESE9.3 kmh ESE 6.8 mph10.9 kmh 30.62 in1036.9 mb 0.00 in0.0 mm 0.00 in0.0 mm 0.00 in0.0 mm
01:35 PM 22.6°F-5.2°C 3.0°F-16.1°C 42% 4.7 mph ESE7.6 kmh ESE 6.8 mph10.9 kmh 30.62 in1036.9 mb 0.00 in0.0 mm 0.00 in0.0 mm 0.00 in0.0 mm
01:36 PM 22.3°F-5.4°C 3.2°F-16.0°C 43% 3.2 mph ESE5.1 kmh ESE 6.8 mph10.9 kmh 30.62 in1036.9 mb 0.00 in0.0 mm 0.00 in0.0 mm 0.00 in0.0 mm
01:37 PM 22.6°F-5.2°C 3.0°F-16.1°C 42% 2.7 mph ESE4.3 kmh ESE 6.8 mph10.9 kmh 30.62 in1036.9 mb 0.00 in0.0 mm 0.00 in0.0 mm 0.00 in0.0 mm
01:38 PM 22.5°F-5.3°C 2.9°F-16.2°C 42% 2.7 mph SSE4.3 kmh SSE 6.8 mph10.9 kmh 30.62 in1036.9 mb 0.00 in0.0 mm 0.00 in0.0 mm 0.00 in0.0 mm
01:39 PM 22.5°F-5.3°C 2.9°F-16.2°C 42% 4.2 mph SE6.8 kmh SE 6.8 mph10.9 kmh 30.62 in1036.9 mb 0.00 in0.0 mm 0.00 in0.0 mm 0.00 in0.0 mm
01:40 PM 22.5°F-5.3°C 2.4°F-16.4°C 41% 3.7 mph SSE6.0 kmh SSE 6.8 mph10.9 kmh 30.62 in1036.9 mb 0.00 in0.0 mm 0.00 in0.0 mm 0.00 in0.0 mm
01:41 PM 22.3°F-5.4°C 2.7°F-16.3°C 42% 3.2 mph ESE5.1 kmh ESE 6.8 mph10.9 kmh 30.62 in1036.9 mb 0.00 in0.0 mm 0.00 in0.0 mm 0.00 in0.0 mm
01:42 PM 22.3°F-5.4°C 2.7°F-16.3°C 42% 3.2 mph SSE5.1 kmh SSE 6.3 mph10.1 kmh 30.62 in1036.9 mb 0.00 in0.0 mm 0.00 in0.0 mm 0.00 in0.0 mm
01:43 PM 22.3°F-5.4°C 2.2°F-16.6°C 41% 1.7 mph S2.7 kmh S 6.3 mph10.1 kmh 30.62 in1036.9 mb 0.00 in0.0 mm 0.00 in0.0 mm 0.00 in0.0 mm
01:44 PM 22.3°F-5.4°C 2.2°F-16.6°C 41% 2.2 mph SW3.5 kmh SW 6.3 mph10.1 kmh 30.62 in1036.9 mb 0.00 in0.0 mm 0.00 in0.0 mm 0.00 in0.0 mm
01:45 PM 22.5°F-5.3°C 2.9°F-16.2°C 42% 3.7 mph ESE6.0 kmh ESE 4.7 mph7.6 kmh 30.62 in1036.9 mb 0.00 in0.0 mm 0.00 in0.0 mm 0.00 in0.0 mm
01:46 PM 22.5°F-5.3°C 2.4°F-16.4°C 41% 5.8 mph SE9.3 kmh SE 6.8 mph10.9 kmh 30.62 in1036.9 mb 0.00 in0.0 mm 0.00 in0.0 mm 0.00 in0.0 mm
01:47 PM 22.5°F-5.3°C 2.4°F-16.4°C 41% 3.7 mph E6.0 kmh E 6.8 mph10.9 kmh 30.62 in1036.9 mb 0.00 in0.0 mm 0.00 in0.0 mm 0.00 in0.0 mm
01:48 PM 22.6°F-5.2°C 2.5°F-16.4°C 41% 2.7 mph ESE4.3 kmh ESE 6.8 mph10.9 kmh 30.62 in1036.9 mb 0.00 in0.0 mm 0.00 in0.0 mm 0.00 in0.0 mm
01:49 PM 22.6°F-5.2°C 3.0°F-16.1°C 42% 4.2 mph ESE6.8 kmh ESE 6.8 mph10.9 kmh 30.62 in1036.9 mb 0.00 in0.0 mm 0.00 in0.0 mm 0.00 in0.0 mm
01:50 PM 23.2°F-4.9°C 3.0°F-16.1°C 41% 2.7 mph SSW4.3 kmh SSW 6.8 mph10.9 kmh 30.62 in1036.9 mb 0.00 in0.0 mm 0.00 in0.0 mm 0.00 in0.0 mm
01:51 PM 22.8°F-5.1°C 2.1°F-16.6°C 40% 2.7 mph SSW4.3 kmh SSW 6.8 mph10.9 kmh 30.62 in1036.9 mb 0.00 in0.0 mm 0.00 in0.0 mm 0.00 in0.0 mm
01:52 PM 22.8°F-5.1°C 2.1°F-16.6°C 40% 2.7 mph S4.3 kmh S 6.8 mph10.9 kmh 30.62 in1036.9 mb 0.00 in0.0 mm 0.00 in0.0 mm 0.00 in0.0 mm
01:53 PM 23.2°F-4.9°C 2.0°F-16.7°C 39% 5.3 mph ESE8.5 kmh ESE 8.3 mph13.4 kmh 30.61 in1036.6 mb 0.00 in0.0 mm 0.00 in0.0 mm 0.00 in0.0 mm
01:54 PM 23.0°F-5.0°C 1.2°F-17.1°C 38% 4.7 mph SE7.6 kmh SE 8.3 mph13.4 kmh 30.61 in1036.6 mb 0.00 in0.0 mm 0.00 in0.0 mm 0.00 in0.0 mm
01:55 PM 22.8°F-5.1°C 1.0°F-17.2°C 38% 4.2 mph E6.8 kmh E 8.3 mph13.4 kmh 30.61 in1036.6 mb 0.00 in0.0 mm 0.00 in0.0 mm 0.00 in0.0 mm
01:56 PM 23.0°F-5.0°C 1.8°F-16.8°C 39% 2.7 mph SW4.3 kmh SW 8.3 mph13.4 kmh 30.61 in1036.6 mb 0.00 in0.0 mm 0.00 in0.0 mm 0.00 in0.0 mm
01:57 PM 23.2°F-4.9°C 2.0°F-16.7°C 39% 2.7 mph S4.3 kmh S 8.3 mph13.4 kmh 30.61 in1036.6 mb 0.00 in0.0 mm 0.00 in0.0 mm 0.00 in0.0 mm
01:58 PM 23.2°F-4.9°C 2.0°F-16.7°C 39% 2.7 mph W4.3 kmh W 8.3 mph13.4 kmh 30.61 in1036.6 mb 0.00 in0.0 mm 0.00 in0.0 mm 0.00 in0.0 mm
01:59 PM 22.8°F-5.1°C 1.6°F-16.9°C 39% 2.2 mph SE3.5 kmh SE 8.3 mph13.4 kmh 30.61 in1036.6 mb 0.00 in0.0 mm 0.00 in0.0 mm 0.00 in0.0 mm
02:00 PM 22.6°F-5.2°C 1.4°F-17.0°C 39% 2.2 mph ESE3.5 kmh ESE 8.3 mph13.4 kmh 30.61 in1036.6 mb 0.00 in0.0 mm 0.00 in0.0 mm 0.00 in0.0 mm
02:01 PM 22.8°F-5.1°C 1.6°F-16.9°C 39% 3.7 mph SSE6.0 kmh SSE 8.3 mph13.4 kmh 30.61 in1036.6 mb 0.00 in0.0 mm 0.00 in0.0 mm 0.00 in0.0 mm
02:02 PM 22.6°F-5.2°C 1.4°F-17.0°C 39% 2.2 mph SSE3.5 kmh SSE 8.3 mph13.4 kmh 30.61 in1036.6 mb 0.00 in0.0 mm 0.00 in0.0 mm 0.00 in0.0 mm
02:03 PM 22.8°F-5.1°C 1.6°F-16.9°C 39% 4.7 mph WNW7.6 kmh WNW 6.3 mph10.1 kmh 30.61 in1036.6 mb 0.00 in0.0 mm 0.00 in0.0 mm 0.00 in0.0 mm
02:04 PM 23.0°F-5.0°C 1.2°F-17.1°C 38% 5.3 mph W8.5 kmh W 5.3 mph8.5 kmh 30.61 in1036.6 mb 0.00 in0.0 mm 0.00 in0.0 mm 0.00 in0.0 mm
02:05 PM 23.0°F-5.0°C 0.7°F-17.4°C 37% 3.7 mph W6.0 kmh W 5.3 mph8.5 kmh 30.61 in1036.6 mb 0.00 in0.0 mm 0.00 in0.0 mm 0.00 in0.0 mm
02:06 PM 22.8°F-5.1°C -0.1°F-17.8°C 36% 5.8 mph W9.3 kmh W 5.8 mph9.3 kmh 30.61 in1036.6 mb 0.00 in0.0 mm 0.00 in0.0 mm 0.00 in0.0 mm
02:07 PM 22.8°F-5.1°C -0.1°F-17.8°C 36% 4.7 mph WSW7.6 kmh WSW 5.8 mph9.3 kmh 30.61 in1036.6 mb 0.00 in0.0 mm 0.00 in0.0 mm 0.00 in0.0 mm
02:08 PM 22.5°F-5.3°C 0.2°F-17.7°C 37% 4.2 mph W6.8 kmh W 5.8 mph9.3 kmh 30.61 in1036.6 mb 0.00 in0.0 mm 0.00 in0.0 mm 0.00 in0.0 mm
02:09 PM 22.1°F-5.5°C -0.2°F-17.9°C 37% 1.7 mph W2.7 kmh W 5.8 mph9.3 kmh 30.61 in1036.6 mb 0.00 in0.0 mm 0.00 in0.0 mm 0.00 in0.0 mm
02:10 PM 22.3°F-5.4°C 0.0°F-17.8°C 37% 3.2 mph S5.1 kmh S 5.8 mph9.3 kmh 30.61 in1036.6 mb 0.00 in0.0 mm 0.00 in0.0 mm 0.00 in0.0 mm
02:11 PM 22.1°F-5.5°C -0.2°F-17.9°C 37% 1.7 mph W2.7 kmh W 5.8 mph9.3 kmh 30.61 in1036.6 mb 0.00 in0.0 mm 0.00 in0.0 mm 0.00 in0.0 mm
02:12 PM 22.5°F-5.3°C 1.3°F-17.1°C 39% 1.7 mph SE2.7 kmh SE 5.8 mph9.3 kmh 30.61 in1036.6 mb 0.00 in0.0 mm 0.00 in0.0 mm 0.00 in0.0 mm
02:13 PM 22.5°F-5.3°C 1.3°F-17.1°C 39% 2.2 mph SSW3.5 kmh SSW 5.8 mph9.3 kmh 30.61 in1036.6 mb 0.00 in0.0 mm 0.00 in0.0 mm 0.00 in0.0 mm
02:14 PM 22.5°F-5.3°C 1.3°F-17.1°C 39% 3.7 mph WNW6.0 kmh WNW 5.8 mph9.3 kmh 30.61 in1036.6 mb 0.00 in0.0 mm 0.00 in0.0 mm 0.00 in0.0 mm
02:15 PM 22.8°F-5.1°C 1.0°F-17.2°C 38% 1.7 mph W2.7 kmh W 5.8 mph9.3 kmh 30.61 in1036.6 mb 0.00 in0.0 mm 0.00 in0.0 mm 0.00 in0.0 mm
02:16 PM 22.8°F-5.1°C 0.5°F-17.5°C 37% 2.2 mph WSW3.5 kmh WSW 5.8 mph9.3 kmh 30.61 in1036.6 mb 0.00 in0.0 mm 0.00 in0.0 mm 0.00 in0.0 mm
02:17 PM 22.6°F-5.2°C 0.9°F-17.3°C 38% 2.2 mph WNW3.5 kmh WNW 5.8 mph9.3 kmh 30.61 in1036.6 mb 0.00 in0.0 mm 0.00 in0.0 mm 0.00 in0.0 mm
02:18 PM 23.0°F-5.0°C 1.2°F-17.1°C 38% 1.7 mph WNW2.7 kmh WNW 5.8 mph9.3 kmh 30.61 in1036.6 mb 0.00 in0.0 mm 0.00 in0.0 mm 0.00 in0.0 mm
02:19 PM 23.2°F-4.9°C 1.4°F-17.0°C 38% 1.7 mph W2.7 kmh W 5.8 mph9.3 kmh 30.61 in1036.6 mb 0.00 in0.0 mm 0.00 in0.0 mm 0.00 in0.0 mm
02:20 PM 23.0°F-5.0°C 1.2°F-17.1°C 38% 3.7 mph W6.0 kmh W 4.2 mph6.8 kmh 30.61 in1036.6 mb 0.00 in0.0 mm 0.00 in0.0 mm 0.00 in0.0 mm
02:21 PM 23.4°F-4.8°C 1.0°F-17.2°C 37% 3.7 mph S6.0 kmh S 4.7 mph7.6 kmh 30.61 in1036.6 mb 0.00 in0.0 mm 0.00 in0.0 mm 0.00 in0.0 mm
02:22 PM 23.5°F-4.7°C 1.1°F-17.2°C 37% 2.7 mph S4.3 kmh S 5.3 mph8.5 kmh 30.61 in1036.6 mb 0.00 in0.0 mm 0.00 in0.0 mm 0.00 in0.0 mm
02:23 PM 23.5°F-4.7°C 1.1°F-17.2°C 37% 5.3 mph WSW8.5 kmh WSW 5.3 mph8.5 kmh 30.61 in1036.6 mb 0.00 in0.0 mm 0.00 in0.0 mm 0.00 in0.0 mm
02:24 PM 23.4°F-4.8°C 0.4°F-17.6°C 36% 5.3 mph W8.5 kmh W 5.3 mph8.5 kmh 30.61 in1036.6 mb 0.00 in0.0 mm 0.00 in0.0 mm 0.00 in0.0 mm
02:25 PM 23.4°F-4.8°C 0.4°F-17.6°C 36% 5.8 mph W9.3 kmh W 5.8 mph9.3 kmh 30.61 in1036.6 mb 0.00 in0.0 mm 0.00 in0.0 mm 0.00 in0.0 mm
02:26 PM 23.5°F-4.7°C -0.1°F-17.8°C 35% 5.3 mph W8.5 kmh W 6.3 mph10.1 kmh 30.61 in1036.6 mb 0.00 in0.0 mm 0.00 in0.0 mm 0.00 in0.0 mm
02:27 PM 22.8°F-5.1°C -0.7°F-18.2°C 35% 1.7 mph W2.7 kmh W 6.3 mph10.1 kmh 30.61 in1036.6 mb 0.00 in0.0 mm 0.00 in0.0 mm 0.00 in0.0 mm
02:28 PM 22.6°F-5.2°C -0.9°F-18.3°C 35% 3.2 mph W5.1 kmh W 6.3 mph10.1 kmh 30.61 in1036.6 mb 0.00 in0.0 mm 0.00 in0.0 mm 0.00 in0.0 mm
02:29 PM 22.8°F-5.1°C -0.1°F-17.8°C 36% 4.2 mph W6.8 kmh W 6.3 mph10.1 kmh 30.60 in1036.2 mb 0.00 in0.0 mm 0.00 in0.0 mm 0.00 in0.0 mm
02:30 PM 23.0°F-5.0°C -0.5°F-18.1°C 35% 3.7 mph W6.0 kmh W 6.3 mph10.1 kmh 30.60 in1036.2 mb 0.00 in0.0 mm 0.00 in0.0 mm 0.00 in0.0 mm
02:31 PM 22.8°F-5.1°C -0.7°F-18.2°C 35% 3.7 mph W6.0 kmh W 6.3 mph10.1 kmh 30.60 in1036.2 mb 0.00 in0.0 mm 0.00 in0.0 mm 0.00 in0.0 mm
02:32 PM 22.8°F-5.1°C -0.1°F-17.8°C 36% 2.7 mph W4.3 kmh W 6.3 mph10.1 kmh 30.60 in1036.2 mb 0.00 in0.0 mm 0.00 in0.0 mm 0.00 in0.0 mm
02:33 PM 22.6°F-5.2°C -0.3°F-17.9°C 36% 1.1 mph NW1.8 kmh NW 6.3 mph10.1 kmh 30.60 in1036.2 mb 0.00 in0.0 mm 0.00 in0.0 mm 0.00 in0.0 mm
02:34 PM 22.8°F-5.1°C 0.5°F-17.5°C 37% 2.2 mph W3.5 kmh W 6.3 mph10.1 kmh 30.60 in1036.2 mb 0.00 in0.0 mm 0.00 in0.0 mm 0.00 in0.0 mm
02:35 PM 23.5°F-4.7°C 0.5°F-17.5°C 36% 5.3 mph NW8.5 kmh NW 6.3 mph10.1 kmh 30.60 in1036.2 mb 0.00 in0.0 mm 0.00 in0.0 mm 0.00 in0.0 mm
02:36 PM 23.2°F-4.9°C -0.3°F-17.9°C 35% 2.7 mph SSE4.3 kmh SSE 5.3 mph8.5 kmh 30.60 in1036.2 mb 0.00 in0.0 mm 0.00 in0.0 mm 0.00 in0.0 mm
02:37 PM 23.2°F-4.9°C 0.3°F-17.6°C 36% 2.7 mph W4.3 kmh W 5.3 mph8.5 kmh 30.60 in1036.2 mb 0.00 in0.0 mm 0.00 in0.0 mm 0.00 in0.0 mm
02:38 PM 23.2°F-4.9°C 0.3°F-17.6°C 36% 1.1 mph WSW1.8 kmh WSW 5.3 mph8.5 kmh 30.60 in1036.2 mb 0.00 in0.0 mm 0.00 in0.0 mm 0.00 in0.0 mm
02:39 PM 23.2°F-4.9°C 0.3°F-17.6°C 36% 2.7 mph WSW4.3 kmh WSW 5.3 mph8.5 kmh 30.60 in1036.2 mb 0.00 in0.0 mm 0.00 in0.0 mm 0.00 in0.0 mm
02:40 PM 23.2°F-4.9°C 0.3°F-17.6°C 36% 3.2 mph SSE5.1 kmh SSE 5.3 mph8.5 kmh 30.60 in1036.2 mb 0.00 in0.0 mm 0.00 in0.0 mm 0.00 in0.0 mm
02:41 PM 23.4°F-4.8°C 0.4°F-17.6°C 36% 3.7 mph SSE6.0 kmh SSE 5.3 mph8.5 kmh 30.59 in1035.9 mb 0.00 in0.0 mm 0.00 in0.0 mm 0.00 in0.0 mm
02:42 PM 23.5°F-4.7°C 1.1°F-17.2°C 37% 3.7 mph ESE6.0 kmh ESE 5.3 mph8.5 kmh 30.59 in1035.9 mb 0.00 in0.0 mm 0.00 in0.0 mm 0.00 in0.0 mm
02:43 PM 23.4°F-4.8°C 0.4°F-17.6°C 36% 3.2 mph SSE5.1 kmh SSE 5.3 mph8.5 kmh 30.59 in1035.9 mb 0.00 in0.0 mm 0.00 in0.0 mm 0.00 in0.0 mm
02:44 PM 23.4°F-4.8°C -0.8°F-18.2°C 34% 2.7 mph S4.3 kmh S 5.3 mph8.5 kmh 30.59 in1035.9 mb 0.00 in0.0 mm 0.00 in0.0 mm 0.00 in0.0 mm
02:45 PM 23.5°F-4.7°C -0.7°F-18.2°C 34% 2.7 mph ESE4.3 kmh ESE 5.3 mph8.5 kmh 30.59 in1035.9 mb 0.00 in0.0 mm 0.00 in0.0 mm 0.00 in0.0 mm
02:46 PM 23.5°F-4.7°C -0.7°F-18.2°C 34% 3.2 mph ESE5.1 kmh ESE 4.2 mph6.8 kmh 30.59 in1035.9 mb 0.00 in0.0 mm 0.00 in0.0 mm 0.00 in0.0 mm
02:47 PM 23.4°F-4.8°C 0.4°F-17.6°C 36% 1.7 mph SSW2.7 kmh SSW 4.2 mph6.8 kmh 30.59 in1035.9 mb 0.00 in0.0 mm 0.00 in0.0 mm 0.00 in0.0 mm
02:48 PM 24.3°F-4.3°C 0.6°F-17.4°C 35% 2.2 mph SSE3.5 kmh SSE 4.2 mph6.8 kmh 30.59 in1035.9 mb 0.00 in0.0 mm 0.00 in0.0 mm 0.00 in0.0 mm
02:49 PM 24.6°F-4.1°C 0.9°F-17.3°C 35% 4.7 mph S7.6 kmh S 4.7 mph7.6 kmh 30.59 in1035.9 mb 0.00 in0.0 mm 0.00 in0.0 mm 0.00 in0.0 mm
02:50 PM 24.6°F-4.1°C 0.3°F-17.6°C 34% 3.2 mph WNW5.1 kmh WNW 4.7 mph7.6 kmh 30.59 in1035.9 mb 0.00 in0.0 mm 0.00 in0.0 mm 0.00 in0.0 mm
02:51 PM 25.0°F-3.9°C 0.6°F-17.4°C 34% 5.3 mph W8.5 kmh W 5.3 mph8.5 kmh 30.59 in1035.9 mb 0.00 in0.0 mm 0.00 in0.0 mm 0.00 in0.0 mm
02:52 PM 25.2°F-3.8°C 0.8°F-17.3°C 34% 4.7 mph W7.6 kmh W 6.3 mph10.1 kmh 30.59 in1035.9 mb 0.00 in0.0 mm 0.00 in0.0 mm 0.00 in0.0 mm
02:53 PM 24.3°F-4.3°C 0.6°F-17.4°C 35% 4.7 mph WSW7.6 kmh WSW 6.3 mph10.1 kmh 30.59 in1035.9 mb 0.00 in0.0 mm 0.00 in0.0 mm 0.00 in0.0 mm
02:54 PM 24.3°F-4.3°C 0.6°F-17.4°C 35% 4.2 mph W6.8 kmh W 6.3 mph10.1 kmh 30.59 in1035.9 mb 0.00 in0.0 mm 0.00 in0.0 mm 0.00 in0.0 mm
02:55 PM 24.3°F-4.3°C 0.6°F-17.4°C 35% 5.8 mph W9.3 kmh W 6.3 mph10.1 kmh 30.59 in1035.9 mb 0.00 in0.0 mm 0.00 in0.0 mm 0.00 in0.0 mm
02:56 PM 24.1°F-4.4°C 0.5°F-17.5°C 35% 1.1 mph W1.8 kmh W 6.3 mph10.1 kmh 30.59 in1035.9 mb 0.00 in0.0 mm 0.00 in0.0 mm 0.00 in0.0 mm
02:57 PM 23.9°F-4.5°C 0.3°F-17.6°C 35% 2.2 mph SW3.5 kmh SW 6.3 mph10.1 kmh 30.59 in1035.9 mb 0.00 in0.0 mm 0.00 in0.0 mm 0.00 in0.0 mm
02:58 PM 24.1°F-4.4°C 1.1°F-17.2°C 36% 1.7 mph S2.7 kmh S 6.3 mph10.1 kmh 30.59 in1035.9 mb 0.00 in0.0 mm 0.00 in0.0 mm 0.00 in0.0 mm
02:59 PM 24.3°F-4.3°C 1.2°F-17.1°C 36% 3.7 mph S6.0 kmh S 6.3 mph10.1 kmh 30.59 in1035.9 mb 0.00 in0.0 mm 0.00 in0.0 mm 0.00 in0.0 mm
03:00 PM 24.3°F-4.3°C 1.2°F-17.1°C 36% 2.2 mph SSE3.5 kmh SSE 6.3 mph10.1 kmh 30.59 in1035.9 mb 0.00 in0.0 mm 0.00 in0.0 mm 0.00 in0.0 mm
03:01 PM 24.6°F-4.1°C 2.1°F-16.6°C 37% 3.2 mph SSW5.1 kmh SSW 6.3 mph10.1 kmh 30.59 in1035.9 mb 0.00 in0.0 mm 0.00 in0.0 mm 0.00 in0.0 mm
03:02 PM 24.4°F-4.2°C 0.7°F-17.4°C 35% 2.7 mph SE4.3 kmh SE 5.8 mph9.3 kmh 30.59 in1035.9 mb 0.00 in0.0 mm 0.00 in0.0 mm 0.00 in0.0 mm
03:03 PM 24.3°F-4.3°C 0.6°F-17.4°C 35% 2.7 mph SE4.3 kmh SE 5.8 mph9.3 kmh 30.59 in1035.9 mb 0.00 in0.0 mm 0.00 in0.0 mm 0.00 in0.0 mm
03:04 PM 24.1°F-4.4°C 0.5°F-17.5°C 35% 2.7 mph SSE4.3 kmh SSE 5.8 mph9.3 kmh 30.59 in1035.9 mb 0.00 in0.0 mm 0.00 in0.0 mm 0.00 in0.0 mm
03:05 PM 24.1°F-4.4°C 1.1°F-17.2°C 36% 4.2 mph S6.8 kmh S 5.8 mph9.3 kmh 30.59 in1035.9 mb 0.00 in0.0 mm 0.00 in0.0 mm 0.00 in0.0 mm
03:06 PM 24.3°F-4.3°C 0.6°F-17.4°C 35% 3.2 mph S5.1 kmh S 4.2 mph6.8 kmh 30.59 in1035.9 mb 0.00 in0.0 mm 0.00 in0.0 mm 0.00 in0.0 mm
03:07 PM 24.8°F-4.0°C 1.1°F-17.2°C 35% 2.7 mph S4.3 kmh S 4.2 mph6.8 kmh 30.59 in1035.9 mb 0.00 in0.0 mm 0.00 in0.0 mm 0.00 in0.0 mm
03:08 PM 25.2°F-3.8°C 1.4°F-17.0°C 35% 2.7 mph SE4.3 kmh SE 4.2 mph6.8 kmh 30.59 in1035.9 mb 0.00 in0.0 mm 0.00 in0.0 mm 0.00 in0.0 mm
03:09 PM 25.3°F-3.7°C 1.5°F-16.9°C 35% 4.2 mph S6.8 kmh S 4.7 mph7.6 kmh 30.59 in1035.9 mb 0.00 in0.0 mm 0.00 in0.0 mm 0.00 in0.0 mm
03:10 PM 25.0°F-3.9°C 0.6°F-17.4°C 34% 4.7 mph SSE7.6 kmh SSE 5.3 mph8.5 kmh 30.59 in1035.9 mb 0.00 in0.0 mm 0.00 in0.0 mm 0.00 in0.0 mm
03:11 PM 24.8°F-4.0°C 0.5°F-17.5°C 34% 2.2 mph S3.5 kmh S 5.3 mph8.5 kmh 30.59 in1035.9 mb 0.00 in0.0 mm 0.00 in0.0 mm 0.00 in0.0 mm
03:12 PM 25.0°F-3.9°C 1.3°F-17.1°C 35% 2.2 mph S3.5 kmh S 5.3 mph8.5 kmh 30.59 in1035.9 mb 0.00 in0.0 mm 0.00 in0.0 mm 0.00 in0.0 mm
03:13 PM 25.3°F-3.7°C 1.5°F-16.9°C 35% 2.2 mph WNW3.5 kmh WNW 5.3 mph8.5 kmh 30.59 in1035.9 mb 0.00 in0.0 mm 0.00 in0.0 mm 0.00 in0.0 mm
03:14 PM 26.1°F-3.3°C 1.6°F-16.9°C 34% 2.2 mph SSW3.5 kmh SSW 5.3 mph8.5 kmh 30.59 in1035.9 mb 0.00 in0.0 mm 0.00 in0.0 mm 0.00 in0.0 mm
03:15 PM 26.1°F-3.3°C 1.6°F-16.9°C 34% 1.7 mph WSW2.7 kmh WSW 5.3 mph8.5 kmh 30.59 in1035.9 mb 0.00 in0.0 mm 0.00 in0.0 mm 0.00 in0.0 mm
03:16 PM 26.1°F-3.3°C 1.6°F-16.9°C 34% 2.2 mph W3.5 kmh W 5.3 mph8.5 kmh 30.59 in1035.9 mb 0.00 in0.0 mm 0.00 in0.0 mm 0.00 in0.0 mm
03:17 PM 26.6°F-3.0°C 2.1°F-16.6°C 34% 1.7 mph SSW2.7 kmh SSW 5.3 mph8.5 kmh 30.59 in1035.9 mb 0.00 in0.0 mm 0.00 in0.0 mm 0.00 in0.0 mm
03:18 PM 26.8°F-2.9°C 1.6°F-16.9°C 33% 1.1 mph ESE1.8 kmh ESE 5.3 mph8.5 kmh 30.59 in1035.9 mb 0.00 in0.0 mm 0.00 in0.0 mm 0.00 in0.0 mm
03:19 PM 27.5°F-2.5°C 2.2°F-16.6°C 33% 1.7 mph SSE2.7 kmh SSE 5.3 mph8.5 kmh 30.59 in1035.9 mb 0.00 in0.0 mm 0.00 in0.0 mm 0.00 in0.0 mm
03:20 PM 27.9°F-2.3°C 2.6°F-16.3°C 33% 2.7 mph SSE4.3 kmh SSE 4.7 mph7.6 kmh 30.59 in1035.9 mb 0.00 in0.0 mm 0.00 in0.0 mm 0.00 in0.0 mm
03:21 PM 27.5°F-2.5°C 2.2°F-16.6°C 33% 3.7 mph W6.0 kmh W 3.7 mph6.0 kmh 30.59 in1035.9 mb 0.00 in0.0 mm 0.00 in0.0 mm 0.00 in0.0 mm
03:22 PM 27.5°F-2.5°C 1.6°F-16.9°C 32% 1.7 mph S2.7 kmh S 4.2 mph6.8 kmh 30.59 in1035.9 mb 0.00 in0.0 mm 0.00 in0.0 mm 0.00 in0.0 mm
03:23 PM 27.5°F-2.5°C 1.6°F-16.9°C 32% 2.7 mph SSE4.3 kmh SSE 4.2 mph6.8 kmh 30.59 in1035.9 mb 0.00 in0.0 mm 0.00 in0.0 mm 0.00 in0.0 mm
03:24 PM 27.5°F-2.5°C 1.6°F-16.9°C 32% 1.7 mph SSE2.7 kmh SSE 4.2 mph6.8 kmh 30.59 in1035.9 mb 0.00 in0.0 mm 0.00 in0.0 mm 0.00 in0.0 mm
03:25 PM 27.1°F-2.7°C 1.2°F-17.1°C 32% 4.2 mph SSE6.8 kmh SSE 4.2 mph6.8 kmh 30.59 in1035.9 mb 0.00 in0.0 mm 0.00 in0.0 mm 0.00 in0.0 mm
03:26 PM 27.5°F-2.5°C 1.6°F-16.9°C 32% 2.7 mph ESE4.3 kmh ESE 4.2 mph6.8 kmh 30.59 in1035.9 mb 0.00 in0.0 mm 0.00 in0.0 mm 0.00 in0.0 mm
03:27 PM 27.9°F-2.3°C 1.9°F-16.7°C 32% 1.7 mph ESE2.7 kmh ESE 4.2 mph6.8 kmh 30.59 in1035.9 mb 0.00 in0.0 mm 0.00 in0.0 mm 0.00 in0.0 mm
03:28 PM 28.2°F-2.1°C 2.2°F-16.6°C 32% 4.2 mph WSW6.8 kmh WSW 5.3 mph8.5 kmh 30.59 in1035.9 mb 0.00 in0.0 mm 0.00 in0.0 mm 0.00 in0.0 mm
03:29 PM 28.2°F-2.1°C 2.2°F-16.6°C 32% 2.7 mph E4.3 kmh E 5.3 mph8.5 kmh 30.58 in1035.6 mb 0.00 in0.0 mm 0.00 in0.0 mm 0.00 in0.0 mm
03:30 PM 28.0°F-2.2°C 2.0°F-16.7°C 32% 1.1 mph W1.8 kmh W 5.3 mph8.5 kmh 30.58 in1035.6 mb 0.00 in0.0 mm 0.00 in0.0 mm 0.00 in0.0 mm
03:31 PM 28.2°F-2.1°C 2.8°F-16.2°C 33% 2.7 mph W4.3 kmh W 5.3 mph8.5 kmh 30.58 in1035.6 mb 0.00 in0.0 mm 0.00 in0.0 mm 0.00 in0.0 mm
03:32 PM 28.0°F-2.2°C 2.0°F-16.7°C 32% 2.7 mph SSW4.3 kmh SSW 5.3 mph8.5 kmh 30.58 in1035.6 mb 0.00 in0.0 mm 0.00 in0.0 mm 0.00 in0.0 mm
03:33 PM 28.0°F-2.2°C 2.0°F-16.7°C 32% 2.7 mph ESE4.3 kmh ESE 5.3 mph8.5 kmh 30.58 in1035.6 mb 0.00 in0.0 mm 0.00 in0.0 mm 0.00 in0.0 mm
03:34 PM 28.0°F-2.2°C 2.0°F-16.7°C 32% 2.2 mph SSE3.5 kmh SSE 5.3 mph8.5 kmh 30.58 in1035.6 mb 0.00 in0.0 mm 0.00 in0.0 mm 0.00 in0.0 mm
03:35 PM 27.3°F-2.6°C 1.4°F-17.0°C 32% 3.7 mph SSE6.0 kmh SSE 5.3 mph8.5 kmh 30.58 in1035.6 mb 0.00 in0.0 mm 0.00 in0.0 mm 0.00 in0.0 mm
03:36 PM 26.8°F-2.9°C 0.9°F-17.3°C 32% 2.7 mph S4.3 kmh S 5.3 mph8.5 kmh 30.58 in1035.6 mb 0.00 in0.0 mm 0.00 in0.0 mm 0.00 in0.0 mm
03:37 PM 26.6°F-3.0°C 1.4°F-17.0°C 33% 3.2 mph S5.1 kmh S 5.3 mph8.5 kmh 30.58 in1035.6 mb 0.00 in0.0 mm 0.00 in0.0 mm 0.00 in0.0 mm
03:38 PM 26.6°F-3.0°C 1.4°F-17.0°C 33% 1.7 mph ESE2.7 kmh ESE 4.2 mph6.8 kmh 30.58 in1035.6 mb 0.00 in0.0 mm 0.00 in0.0 mm 0.00 in0.0 mm
03:39 PM 27.0°F-2.8°C 1.8°F-16.8°C 33% Calm Calm 4.2 mph6.8 kmh 30.58 in1035.6 mb 0.00 in0.0 mm 0.00 in0.0 mm 0.00 in0.0 mm
03:40 PM 27.5°F-2.5°C 2.2°F-16.6°C 33% 1.7 mph WNW2.7 kmh WNW 4.2 mph6.8 kmh 30.58 in1035.6 mb 0.00 in0.0 mm 0.00 in0.0 mm 0.00 in0.0 mm
03:41 PM 28.0°F-2.2°C 2.0°F-16.7°C 32% 2.7 mph WNW4.3 kmh WNW 4.2 mph6.8 kmh 30.58 in1035.6 mb 0.00 in0.0 mm 0.00 in0.0 mm 0.00 in0.0 mm
03:42 PM 28.0°F-2.2°C 2.0°F-16.7°C 32% 2.2 mph W3.5 kmh W 4.2 mph6.8 kmh 30.58 in1035.6 mb 0.00 in0.0 mm 0.00 in0.0 mm 0.00 in0.0 mm
03:43 PM 27.9°F-2.3°C 1.9°F-16.7°C 32% 1.7 mph S2.7 kmh S 4.2 mph6.8 kmh 30.58 in1035.6 mb 0.00 in0.0 mm 0.00 in0.0 mm 0.00 in0.0 mm
03:44 PM 26.8°F-2.9°C 1.6°F-16.9°C 33% 3.7 mph SE6.0 kmh SE 4.2 mph6.8 kmh 30.58 in1035.6 mb 0.00 in0.0 mm 0.00 in0.0 mm 0.00 in0.0 mm
03:45 PM 26.4°F-3.1°C 1.9°F-16.7°C 34% 3.7 mph W6.0 kmh W 3.7 mph6.0 kmh 30.58 in1035.6 mb 0.00 in0.0 mm 0.00 in0.0 mm 0.00 in0.0 mm
03:46 PM 26.4°F-3.1°C 1.9°F-16.7°C 34% 6.3 mph W10.1 kmh W 6.3 mph10.1 kmh 30.58 in1035.6 mb 0.00 in0.0 mm 0.00 in0.0 mm 0.00 in0.0 mm
03:47 PM 25.5°F-3.6°C 1.1°F-17.2°C 34% 1.7 mph W2.7 kmh W 6.3 mph10.1 kmh 30.58 in1035.6 mb 0.00 in0.0 mm 0.00 in0.0 mm 0.00 in0.0 mm
03:48 PM 25.7°F-3.5°C 1.3°F-17.1°C 34% 1.7 mph W2.7 kmh W 6.3 mph10.1 kmh 30.58 in1035.6 mb 0.00 in0.0 mm 0.00 in0.0 mm 0.00 in0.0 mm
03:49 PM 26.2°F-3.2°C 1.1°F-17.2°C 33% 1.1 mph WNW1.8 kmh WNW 6.3 mph10.1 kmh 30.58 in1035.6 mb 0.00 in0.0 mm 0.00 in0.0 mm 0.00 in0.0 mm
03:50 PM 26.4°F-3.1°C 1.2°F-17.1°C 33% 1.7 mph NW2.7 kmh NW 6.3 mph10.1 kmh 30.58 in1035.6 mb 0.00 in0.0 mm 0.00 in0.0 mm 0.00 in0.0 mm
03:51 PM 26.4°F-3.1°C 1.2°F-17.1°C 33% 1.1 mph W1.8 kmh W 6.3 mph10.1 kmh 30.58 in1035.6 mb 0.00 in0.0 mm 0.00 in0.0 mm 0.00 in0.0 mm
03:52 PM 26.2°F-3.2°C 1.7°F-16.8°C 34% 3.2 mph W5.1 kmh W 6.3 mph10.1 kmh 30.58 in1035.6 mb 0.00 in0.0 mm 0.00 in0.0 mm 0.00 in0.0 mm
03:53 PM 26.1°F-3.3°C 1.6°F-16.9°C 34% 6.8 mph W10.9 kmh W 6.8 mph10.9 kmh 30.58 in1035.6 mb 0.00 in0.0 mm 0.00 in0.0 mm 0.00 in0.0 mm
03:54 PM 26.1°F-3.3°C 1.6°F-16.9°C 34% 4.2 mph W6.8 kmh W 6.8 mph10.9 kmh 30.58 in1035.6 mb 0.00 in0.0 mm 0.00 in0.0 mm 0.00 in0.0 mm
03:55 PM 25.9°F-3.4°C 1.4°F-17.0°C 34% 4.2 mph WNW6.8 kmh WNW 6.8 mph10.9 kmh 30.58 in1035.6 mb 0.00 in0.0 mm 0.00 in0.0 mm 0.00 in0.0 mm
03:56 PM 25.5°F-3.6°C 1.1°F-17.2°C 34% 1.7 mph WSW2.7 kmh WSW 6.8 mph10.9 kmh 30.58 in1035.6 mb 0.00 in0.0 mm 0.00 in0.0 mm 0.00 in0.0 mm
03:57 PM 25.5°F-3.6°C 1.7°F-16.8°C 35% 2.7 mph SW4.3 kmh SW 6.8 mph10.9 kmh 30.58 in1035.6 mb 0.00 in0.0 mm 0.00 in0.0 mm 0.00 in0.0 mm
03:58 PM 25.7°F-3.5°C 1.3°F-17.1°C 34% 2.2 mph WNW3.5 kmh WNW 6.8 mph10.9 kmh 30.58 in1035.6 mb 0.00 in0.0 mm 0.00 in0.0 mm 0.00 in0.0 mm
03:59 PM 26.2°F-3.2°C 1.7°F-16.8°C 34% 1.1 mph SW1.8 kmh SW 6.8 mph10.9 kmh 30.58 in1035.6 mb 0.00 in0.0 mm 0.00 in0.0 mm 0.00 in0.0 mm
04:00 PM 26.6°F-3.0°C 2.1°F-16.6°C 34% 2.7 mph NNW4.3 kmh NNW 6.8 mph10.9 kmh 30.58 in1035.6 mb 0.00 in0.0 mm 0.00 in0.0 mm 0.00 in0.0 mm
04:01 PM 27.1°F-2.7°C 1.9°F-16.7°C 33% 2.2 mph SE3.5 kmh SE 6.8 mph10.9 kmh 30.58 in1035.6 mb 0.00 in0.0 mm 0.00 in0.0 mm 0.00 in0.0 mm
04:02 PM 27.1°F-2.7°C 1.9°F-16.7°C 33% 3.2 mph W5.1 kmh W 6.8 mph10.9 kmh 30.58 in1035.6 mb 0.00 in0.0 mm 0.00 in0.0 mm 0.00 in0.0 mm
04:03 PM 27.3°F-2.6°C 2.0°F-16.7°C 33% 1.7 mph S2.7 kmh S 6.8 mph10.9 kmh 30.58 in1035.6 mb 0.00 in0.0 mm 0.00 in0.0 mm 0.00 in0.0 mm
04:04 PM 27.7°F-2.4°C 2.4°F-16.4°C 33% 2.7 mph W4.3 kmh W 5.3 mph8.5 kmh 30.58 in1035.6 mb 0.00 in0.0 mm 0.00 in0.0 mm 0.00 in0.0 mm
04:05 PM 27.3°F-2.6°C 2.0°F-16.7°C 33% 2.2 mph W3.5 kmh W 3.2 mph5.1 kmh 30.58 in1035.6 mb 0.00 in0.0 mm 0.00 in0.0 mm 0.00 in0.0 mm
04:06 PM 27.3°F-2.6°C 2.0°F-16.7°C 33% 3.7 mph WSW6.0 kmh WSW 5.3 mph8.5 kmh 30.58 in1035.6 mb 0.00 in0.0 mm 0.00 in0.0 mm 0.00 in0.0 mm
04:07 PM 27.9°F-2.3°C 1.9°F-16.7°C 32% 4.7 mph WSW7.6 kmh WSW 5.3 mph8.5 kmh 30.58 in1035.6 mb 0.00 in0.0 mm 0.00 in0.0 mm 0.00 in0.0 mm
04:08 PM 28.2°F-2.1°C 1.5°F-16.9°C 31% 1.7 mph W2.7 kmh W 5.3 mph8.5 kmh 30.58 in1035.6 mb 0.00 in0.0 mm 0.00 in0.0 mm 0.00 in0.0 mm
04:09 PM 28.0°F-2.2°C 1.3°F-17.1°C 31% 2.2 mph W3.5 kmh W 5.3 mph8.5 kmh 30.58 in1035.6 mb 0.00 in0.0 mm 0.00 in0.0 mm 0.00 in0.0 mm
04:10 PM 28.0°F-2.2°C 2.0°F-16.7°C 32% 2.2 mph SSE3.5 kmh SSE 5.3 mph8.5 kmh 30.58 in1035.6 mb 0.00 in0.0 mm 0.00 in0.0 mm 0.00 in0.0 mm
04:11 PM 28.0°F-2.2°C 2.0°F-16.7°C 32% 1.1 mph ESE1.8 kmh ESE 5.3 mph8.5 kmh 30.58 in1035.6 mb 0.00 in0.0 mm 0.00 in0.0 mm 0.00 in0.0 mm
04:12 PM 28.0°F-2.2°C 2.0°F-16.7°C 32% 1.7 mph S2.7 kmh S 5.3 mph8.5 kmh 30.58 in1035.6 mb 0.00 in0.0 mm 0.00 in0.0 mm 0.00 in0.0 mm
04:13 PM 28.0°F-2.2°C 2.0°F-16.7°C 32% 1.7 mph WSW2.7 kmh WSW 5.3 mph8.5 kmh 30.58 in1035.6 mb 0.00 in0.0 mm 0.00 in0.0 mm 0.00 in0.0 mm
04:14 PM 29.1°F-1.6°C 0.9°F-17.3°C 29% 3.7 mph WSW6.0 kmh WSW 5.3 mph8.5 kmh 30.58 in1035.6 mb 0.00 in0.0 mm 0.00 in0.0 mm 0.00 in0.0 mm
04:15 PM 29.3°F-1.5°C 1.0°F-17.2°C 29% 4.7 mph WSW7.6 kmh WSW 5.3 mph8.5 kmh 30.58 in1035.6 mb 0.00 in0.0 mm 0.00 in0.0 mm 0.00 in0.0 mm
04:16 PM 29.3°F-1.5°C 1.0°F-17.2°C 29% 4.2 mph W6.8 kmh W 4.7 mph7.6 kmh 30.58 in1035.6 mb 0.00 in0.0 mm 0.00 in0.0 mm 0.00 in0.0 mm
04:17 PM 28.9°F-1.7°C 0.7°F-17.4°C 29% 2.7 mph W4.3 kmh W 5.3 mph8.5 kmh 30.57 in1035.2 mb 0.00 in0.0 mm 0.00 in0.0 mm 0.00 in0.0 mm
04:18 PM 28.2°F-2.1°C 0.1°F-17.7°C 29% 4.2 mph W6.8 kmh W 5.3 mph8.5 kmh 30.57 in1035.2 mb 0.00 in0.0 mm 0.00 in0.0 mm 0.00 in0.0 mm
04:19 PM 28.2°F-2.1°C 0.8°F-17.3°C 30% 2.7 mph WNW4.3 kmh WNW 5.3 mph8.5 kmh 30.57 in1035.2 mb 0.00 in0.0 mm 0.00 in0.0 mm 0.00 in0.0 mm
04:20 PM 28.2°F-2.1°C 0.8°F-17.3°C 30% 1.7 mph NW2.7 kmh NW 5.3 mph8.5 kmh 30.57 in1035.2 mb 0.00 in0.0 mm 0.00 in0.0 mm 0.00 in0.0 mm
04:21 PM 28.2°F-2.1°C 0.8°F-17.3°C 30% 2.2 mph W3.5 kmh W 5.3 mph8.5 kmh 30.57 in1035.2 mb 0.00 in0.0 mm 0.00 in0.0 mm 0.00 in0.0 mm
04:22 PM 27.9°F-2.3°C 0.5°F-17.5°C 30% 4.7 mph W7.6 kmh W 5.3 mph8.5 kmh 30.57 in1035.2 mb 0.00 in0.0 mm 0.00 in0.0 mm 0.00 in0.0 mm
04:23 PM 26.8°F-2.9°C 0.3°F-17.6°C 31% 1.7 mph ESE2.7 kmh ESE 5.3 mph8.5 kmh 30.57 in1035.2 mb 0.00 in0.0 mm 0.00 in0.0 mm 0.00 in0.0 mm
04:24 PM 27.0°F-2.8°C 0.4°F-17.6°C 31% 1.7 mph SE2.7 kmh SE 5.3 mph8.5 kmh 30.57 in1035.2 mb 0.00 in0.0 mm 0.00 in0.0 mm 0.00 in0.0 mm
04:25 PM 27.0°F-2.8°C 0.4°F-17.6°C 31% 1.1 mph WNW1.8 kmh WNW 5.3 mph8.5 kmh 30.57 in1035.2 mb 0.00 in0.0 mm 0.00 in0.0 mm 0.00 in0.0 mm
04:26 PM 27.0°F-2.8°C 1.1°F-17.2°C 32% 2.2 mph W3.5 kmh W 5.3 mph8.5 kmh 30.57 in1035.2 mb 0.00 in0.0 mm 0.00 in0.0 mm 0.00 in0.0 mm
04:27 PM 27.0°F-2.8°C 1.1°F-17.2°C 32% 2.7 mph S4.3 kmh S 5.3 mph8.5 kmh 30.57 in1035.2 mb 0.00 in0.0 mm 0.00 in0.0 mm 0.00 in0.0 mm
04:28 PM 27.0°F-2.8°C 1.1°F-17.2°C 32% 1.1 mph SSW1.8 kmh SSW 5.3 mph8.5 kmh 30.57 in1035.2 mb 0.00 in0.0 mm 0.00 in0.0 mm 0.00 in0.0 mm
04:29 PM 26.8°F-2.9°C 0.9°F-17.3°C 32% 2.2 mph SE3.5 kmh SE 5.3 mph8.5 kmh 30.57 in1035.2 mb 0.00 in0.0 mm 0.00 in0.0 mm 0.00 in0.0 mm
04:30 PM 26.8°F-2.9°C 0.9°F-17.3°C 32% 1.1 mph SE1.8 kmh SE 5.3 mph8.5 kmh 30.57 in1035.2 mb 0.00 in0.0 mm 0.00 in0.0 mm 0.00 in0.0 mm
04:31 PM 26.8°F-2.9°C 0.9°F-17.3°C 32% 1.1 mph ESE1.8 kmh ESE 5.3 mph8.5 kmh 30.57 in1035.2 mb 0.00 in0.0 mm 0.00 in0.0 mm 0.00 in0.0 mm
04:32 PM 27.3°F-2.6°C 1.4°F-17.0°C 32% Calm Calm 4.7 mph7.6 kmh 30.57 in1035.2 mb 0.00 in0.0 mm 0.00 in0.0 mm 0.00 in0.0 mm
04:33 PM 27.7°F-2.4°C 1.7°F-16.8°C 32% 2.2 mph W3.5 kmh W 4.7 mph7.6 kmh 30.57 in1035.2 mb 0.00 in0.0 mm 0.00 in0.0 mm 0.00 in0.0 mm
04:34 PM 27.7°F-2.4°C 1.7°F-16.8°C 32% 1.1 mph SSE1.8 kmh SSE 4.7 mph7.6 kmh 30.57 in1035.2 mb 0.00 in0.0 mm 0.00 in0.0 mm 0.00 in0.0 mm
04:35 PM 27.1°F-2.7°C 1.2°F-17.1°C 32% 2.7 mph SSE4.3 kmh SSE 4.7 mph7.6 kmh 30.57 in1035.2 mb 0.00 in0.0 mm 0.00 in0.0 mm 0.00 in0.0 mm
04:36 PM 26.1°F-3.3°C 1.0°F-17.2°C 33% 2.2 mph S3.5 kmh S 4.7 mph7.6 kmh 30.57 in1035.2 mb 0.00 in0.0 mm 0.00 in0.0 mm 0.00 in0.0 mm
04:37 PM 25.7°F-3.5°C 0.6°F-17.4°C 33% 2.7 mph ESE4.3 kmh ESE 3.2 mph5.1 kmh 30.57 in1035.2 mb 0.00 in0.0 mm 0.00 in0.0 mm 0.00 in0.0 mm
04:38 PM 25.3°F-3.7°C 0.3°F-17.6°C 33% 2.2 mph S3.5 kmh S 3.2 mph5.1 kmh 30.57 in1035.2 mb 0.00 in0.0 mm 0.00 in0.0 mm 0.00 in0.0 mm
04:39 PM 25.0°F-3.9°C 0.0°F-17.8°C 33% 2.7 mph SSE4.3 kmh SSE 3.2 mph5.1 kmh 30.57 in1035.2 mb 0.00 in0.0 mm 0.00 in0.0 mm 0.00 in0.0 mm
04:40 PM 25.0°F-3.9°C 0.0°F-17.8°C 33% 1.7 mph S2.7 kmh S 3.2 mph5.1 kmh 30.57 in1035.2 mb 0.00 in0.0 mm 0.00 in0.0 mm 0.00 in0.0 mm
04:41 PM 24.6°F-4.1°C 0.3°F-17.6°C 34% 1.7 mph SSE2.7 kmh SSE 3.2 mph5.1 kmh 30.57 in1035.2 mb 0.00 in0.0 mm 0.00 in0.0 mm 0.00 in0.0 mm
04:42 PM 24.6°F-4.1°C 0.3°F-17.6°C 34% 1.7 mph ESE2.7 kmh ESE 3.2 mph5.1 kmh 30.57 in1035.2 mb 0.00 in0.0 mm 0.00 in0.0 mm 0.00 in0.0 mm
04:43 PM 24.6°F-4.1°C 0.3°F-17.6°C 34% 1.1 mph SSE1.8 kmh SSE 3.2 mph5.1 kmh 30.57 in1035.2 mb 0.00 in0.0 mm 0.00 in0.0 mm 0.00 in0.0 mm
04:44 PM 24.3°F-4.3°C 0.0°F-17.8°C 34% 2.2 mph SSW3.5 kmh SSW 3.2 mph5.1 kmh 30.57 in1035.2 mb 0.00 in0.0 mm 0.00 in0.0 mm 0.00 in0.0 mm
04:45 PM 24.1°F-4.4°C 0.5°F-17.5°C 35% 1.1 mph SSE1.8 kmh SSE 3.2 mph5.1 kmh 30.57 in1035.2 mb 0.00 in0.0 mm 0.00 in0.0 mm 0.00 in0.0 mm
04:46 PM 24.1°F-4.4°C 0.5°F-17.5°C 35% 1.1 mph SSE1.8 kmh SSE 3.2 mph5.1 kmh 30.57 in1035.2 mb 0.00 in0.0 mm 0.00 in0.0 mm 0.00 in0.0 mm
04:47 PM 24.1°F-4.4°C 0.5°F-17.5°C 35% Calm Calm 2.7 mph4.3 kmh 30.57 in1035.2 mb 0.00 in0.0 mm 0.00 in0.0 mm 0.00 in0.0 mm
04:48 PM 23.9°F-4.5°C -0.3°F-17.9°C 34% 2.7 mph SSE4.3 kmh SSE 2.7 mph4.3 kmh 30.57 in1035.2 mb 0.00 in0.0 mm 0.00 in0.0 mm 0.00 in0.0 mm
04:49 PM 23.7°F-4.6°C -0.5°F-18.1°C 34% 1.7 mph WSW2.7 kmh WSW 2.7 mph4.3 kmh 30.57 in1035.2 mb 0.00 in0.0 mm 0.00 in0.0 mm 0.00 in0.0 mm
04:50 PM 23.7°F-4.6°C -0.5°F-18.1°C 34% Calm Calm 2.7 mph4.3 kmh 30.57 in1035.2 mb 0.00 in0.0 mm 0.00 in0.0 mm 0.00 in0.0 mm
04:51 PM 23.7°F-4.6°C 0.1°F-17.7°C 35% 1.1 mph SSE1.8 kmh SSE 2.7 mph4.3 kmh 30.57 in1035.2 mb 0.00 in0.0 mm 0.00 in0.0 mm 0.00 in0.0 mm
04:52 PM 23.7°F-4.6°C 0.1°F-17.7°C 35% 1.1 mph SSE1.8 kmh SSE 2.7 mph4.3 kmh 30.57 in1035.2 mb 0.00 in0.0 mm 0.00 in0.0 mm 0.00 in0.0 mm
04:53 PM 23.4°F-4.8°C 0.4°F-17.6°C 36% 1.1 mph S1.8 kmh S 2.7 mph4.3 kmh 30.57 in1035.2 mb 0.00 in0.0 mm 0.00 in0.0 mm 0.00 in0.0 mm
04:54 PM 23.2°F-4.9°C 0.3°F-17.6°C 36% 1.7 mph ESE2.7 kmh ESE 2.7 mph4.3 kmh 30.57 in1035.2 mb 0.00 in0.0 mm 0.00 in0.0 mm 0.00 in0.0 mm
04:55 PM 23.0°F-5.0°C 0.1°F-17.7°C 36% 1.1 mph SE1.8 kmh SE 2.7 mph4.3 kmh 30.57 in1035.2 mb 0.00 in0.0 mm 0.00 in0.0 mm 0.00 in0.0 mm
04:56 PM 23.0°F-5.0°C 0.1°F-17.7°C 36% 1.7 mph ESE2.7 kmh ESE 2.7 mph4.3 kmh 30.57 in1035.2 mb 0.00 in0.0 mm 0.00 in0.0 mm 0.00 in0.0 mm
04:57 PM 23.0°F-5.0°C 0.1°F-17.7°C 36% 2.2 mph ESE3.5 kmh ESE 2.7 mph4.3 kmh 30.57 in1035.2 mb 0.00 in0.0 mm 0.00 in0.0 mm 0.00 in0.0 mm
04:58 PM 22.8°F-5.1°C -0.1°F-17.8°C 36% 1.7 mph SE2.7 kmh SE 2.7 mph4.3 kmh 30.57 in1035.2 mb 0.00 in0.0 mm 0.00 in0.0 mm 0.00 in0.0 mm
04:59 PM 22.5°F-5.3°C 0.2°F-17.7°C 37% 1.1 mph SSE1.8 kmh SSE 2.2 mph3.5 kmh 30.57 in1035.2 mb 0.00 in0.0 mm 0.00 in0.0 mm 0.00 in0.0 mm
05:00 PM 22.3°F-5.4°C 0.6°F-17.4°C 38% Calm Calm 2.2 mph3.5 kmh 30.57 in1035.2 mb 0.00 in0.0 mm 0.00 in0.0 mm 0.00 in0.0 mm
05:01 PM 22.3°F-5.4°C 0.0°F-17.8°C 37% Calm Calm 2.2 mph3.5 kmh 30.57 in1035.2 mb 0.00 in0.0 mm 0.00 in0.0 mm 0.00 in0.0 mm
05:02 PM 22.3°F-5.4°C 0.0°F-17.8°C 37% Calm Calm 2.2 mph3.5 kmh 30.57 in1035.2 mb 0.00 in0.0 mm 0.00 in0.0 mm 0.00 in0.0 mm
05:03 PM 22.3°F-5.4°C 0.0°F-17.8°C 37% Calm Calm 2.2 mph3.5 kmh 30.57 in1035.2 mb 0.00 in0.0 mm 0.00 in0.0 mm 0.00 in0.0 mm
05:04 PM 22.3°F-5.4°C 0.6°F-17.4°C 38% Calm Calm 2.2 mph3.5 kmh 30.57 in1035.2 mb 0.00 in0.0 mm 0.00 in0.0 mm 0.00 in0.0 mm
05:05 PM 22.1°F-5.5°C 0.4°F-17.6°C 38% Calm Calm 2.2 mph3.5 kmh 30.57 in1035.2 mb 0.00 in0.0 mm 0.00 in0.0 mm 0.00 in0.0 mm
05:06 PM 21.9°F-5.6°C 0.2°F-17.7°C 38% Calm Calm 2.2 mph3.5 kmh 30.57 in1035.2 mb 0.00 in0.0 mm 0.00 in0.0 mm 0.00 in0.0 mm
05:07 PM 21.9°F-5.6°C 0.8°F-17.3°C 39% Calm Calm 2.2 mph3.5 kmh 30.57 in1035.2 mb 0.00 in0.0 mm 0.00 in0.0 mm 0.00 in0.0 mm
05:08 PM 21.7°F-5.7°C 0.6°F-17.4°C 39% Calm Calm 1.7 mph2.7 kmh 30.57 in1035.2 mb 0.00 in0.0 mm 0.00 in0.0 mm 0.00 in0.0 mm
05:09 PM 21.6°F-5.8°C 0.5°F-17.5°C 39% Calm Calm 1.1 mph1.8 kmh 30.57 in1035.2 mb 0.00 in0.0 mm 0.00 in0.0 mm 0.00 in0.0 mm
05:10 PM 21.4°F-5.9°C 0.3°F-17.6°C 39% Calm Calm -- 30.57 in1035.2 mb 0.00 in0.0 mm 0.00 in0.0 mm 0.00 in0.0 mm
05:11 PM 21.0°F-6.1°C 0.0°F-17.8°C 39% Calm Calm -- 30.57 in1035.2 mb 0.00 in0.0 mm 0.00 in0.0 mm 0.00 in0.0 mm
05:12 PM 20.8°F-6.2°C -0.2°F-17.9°C 39% Calm Calm -- 30.57 in1035.2 mb 0.00 in0.0 mm 0.00 in0.0 mm 0.00 in0.0 mm
05:13 PM 20.7°F-6.3°C -0.3°F-17.9°C 39% Calm Calm -- 30.57 in1035.2 mb 0.00 in0.0 mm 0.00 in0.0 mm 0.00 in0.0 mm
05:14 PM 20.5°F-6.4°C -0.5°F-18.1°C 39% Calm Calm -- 30.57 in1035.2 mb 0.00 in0.0 mm 0.00 in0.0 mm 0.00 in0.0 mm
05:15 PM 20.1°F-6.6°C -0.8°F-18.2°C 39% Calm Calm -- 30.57 in1035.2 mb 0.00 in0.0 mm 0.00 in0.0 mm 0.00 in0.0 mm
05:16 PM 19.8°F-6.8°C -0.1°F-17.8°C 41% Calm Calm -- 30.57 in1035.2 mb 0.00 in0.0 mm 0.00 in0.0 mm 0.00 in0.0 mm
05:17 PM 19.6°F-6.9°C 0.3°F-17.6°C 42% Calm Calm -- 30.57 in1035.2 mb 0.00 in0.0 mm 0.00 in0.0 mm 0.00 in0.0 mm
05:18 PM 19.4°F-7.0°C 0.6°F-17.4°C 43% Calm Calm -- 30.57 in1035.2 mb 0.00 in0.0 mm 0.00 in0.0 mm 0.00 in0.0 mm
05:19 PM 19.4°F-7.0°C 0.6°F-17.4°C 43% Calm Calm -- 30.57 in1035.2 mb 0.00 in0.0 mm 0.00 in0.0 mm 0.00 in0.0 mm
05:20 PM 19.2°F-7.1°C 0.4°F-17.6°C 43% Calm Calm -- 30.57 in1035.2 mb 0.00 in0.0 mm 0.00 in0.0 mm 0.00 in0.0 mm
05:21 PM 19.2°F-7.1°C 0.4°F-17.6°C 43% Calm Calm -- 30.57 in1035.2 mb 0.00 in0.0 mm 0.00 in0.0 mm 0.00 in0.0 mm
05:22 PM 19.0°F-7.2°C 0.7°F-17.4°C 44% Calm Calm -- 30.57 in1035.2 mb 0.00 in0.0 mm 0.00 in0.0 mm 0.00 in0.0 mm
05:23 PM 18.9°F-7.3°C 0.6°F-17.4°C 44% Calm Calm -- 30.57 in1035.2 mb 0.00 in0.0 mm 0.00 in0.0 mm 0.00 in0.0 mm
05:24 PM 18.9°F-7.3°C 0.6°F-17.4°C 44% Calm Calm -- 30.57 in1035.2 mb 0.00 in0.0 mm 0.00 in0.0 mm 0.00 in0.0 mm
05:25 PM 18.9°F-7.3°C 0.6°F-17.4°C 44% Calm Calm -- 30.57 in1035.2 mb 0.00 in0.0 mm 0.00 in0.0 mm 0.00 in0.0 mm
05:26 PM 18.9°F-7.3°C 0.6°F-17.4°C 44% Calm Calm -- 30.57 in1035.2 mb 0.00 in0.0 mm 0.00 in0.0 mm 0.00 in0.0 mm
05:27 PM 18.9°F-7.3°C 0.6°F-17.4°C 44% Calm Calm -- 30.57 in1035.2 mb 0.00 in0.0 mm 0.00 in0.0 mm 0.00 in0.0 mm
05:28 PM 18.9°F-7.3°C 0.6°F-17.4°C 44% Calm Calm -- 30.57 in1035.2 mb 0.00 in0.0 mm 0.00 in0.0 mm 0.00 in0.0 mm
05:29 PM 18.9°F-7.3°C 0.6°F-17.4°C 44% Calm Calm -- 30.57 in1035.2 mb 0.00 in0.0 mm 0.00 in0.0 mm 0.00 in0.0 mm
05:30 PM 18.7°F-7.4°C 0.4°F-17.6°C 44% Calm Calm -- 30.57 in1035.2 mb 0.00 in0.0 mm 0.00 in0.0 mm 0.00 in0.0 mm
05:31 PM 18.7°F-7.4°C 0.4°F-17.6°C 44% Calm Calm -- 30.57 in1035.2 mb 0.00 in0.0 mm 0.00 in0.0 mm 0.00 in0.0 mm
05:32 PM 18.3°F-7.6°C 0.1°F-17.7°C 44% Calm Calm -- 30.57 in1035.2 mb 0.00 in0.0 mm 0.00 in0.0 mm 0.00 in0.0 mm
05:33 PM 18.3°F-7.6°C 0.1°F-17.7°C 44% Calm Calm -- 30.57 in1035.2 mb 0.00 in0.0 mm 0.00 in0.0 mm 0.00 in0.0 mm
05:34 PM 18.1°F-7.7°C -0.1°F-17.8°C 44% Calm Calm -- 30.57 in1035.2 mb 0.00 in0.0 mm 0.00 in0.0 mm 0.00 in0.0 mm
05:35 PM 18.1°F-7.7°C -0.1°F-17.8°C 44% Calm Calm -- 30.57 in1035.2 mb 0.00 in0.0 mm 0.00 in0.0 mm 0.00 in0.0 mm
05:36 PM 18.0°F-7.8°C -0.2°F-17.9°C 44% Calm Calm -- 30.57 in1035.2 mb 0.00 in0.0 mm 0.00 in0.0 mm 0.00 in0.0 mm
05:37 PM 17.8°F-7.9°C 0.1°F-17.7°C 45% Calm Calm -- 30.57 in1035.2 mb 0.00 in0.0 mm 0.00 in0.0 mm 0.00 in0.0 mm
05:38 PM 17.6°F-8.0°C 0.8°F-17.3°C 47% Calm Calm -- 30.57 in1035.2 mb 0.00 in0.0 mm 0.00 in0.0 mm 0.00 in0.0 mm
05:39 PM 17.6°F-8.0°C 1.3°F-17.1°C 48% Calm Calm -- 30.57 in1035.2 mb 0.00 in0.0 mm 0.00 in0.0 mm 0.00 in0.0 mm
05:40 PM 17.4°F-8.1°C 1.1°F-17.2°C 48% Calm Calm -- 30.57 in1035.2 mb 0.00 in0.0 mm 0.00 in0.0 mm 0.00 in0.0 mm
05:41 PM 17.2°F-8.2°C 1.4°F-17.0°C 49% Calm Calm -- 30.56 in1034.9 mb 0.00 in0.0 mm 0.00 in0.0 mm 0.00 in0.0 mm
05:42 PM 17.2°F-8.2°C 1.4°F-17.0°C 49% Calm Calm -- 30.56 in1034.9 mb 0.00 in0.0 mm 0.00 in0.0 mm 0.00 in0.0 mm
05:43 PM 17.2°F-8.2°C 0.9°F-17.3°C 48% 1.1 mph S1.8 kmh S 1.7 mph2.7 kmh 30.56 in1034.9 mb 0.00 in0.0 mm 0.00 in0.0 mm 0.00 in0.0 mm
05:44 PM 17.2°F-8.2°C 1.4°F-17.0°C 49% 1.7 mph S2.7 kmh S 1.7 mph2.7 kmh 30.56 in1034.9 mb 0.00 in0.0 mm 0.00 in0.0 mm 0.00 in0.0 mm
05:45 PM 17.2°F-8.2°C 1.4°F-17.0°C 49% Calm Calm 1.7 mph2.7 kmh 30.56 in1034.9 mb 0.00 in0.0 mm 0.00 in0.0 mm 0.00 in0.0 mm
05:46 PM 17.2°F-8.2°C 1.4°F-17.0°C 49% Calm Calm 1.7 mph2.7 kmh 30.56 in1034.9 mb 0.00 in0.0 mm 0.00 in0.0 mm 0.00 in0.0 mm
05:49 PM 16.7°F-8.5°C 0.5°F-17.5°C 48% Calm Calm 1.7 mph2.7 kmh 30.56 in1034.9 mb 0.00 in0.0 mm 0.00 in0.0 mm 0.00 in0.0 mm
05:50 PM 16.7°F-8.5°C 0.5°F-17.5°C 48% Calm Calm 1.7 mph2.7 kmh 30.56 in1034.9 mb 0.00 in0.0 mm 0.00 in0.0 mm 0.00 in0.0 mm
05:51 PM 16.7°F-8.5°C 0.5°F-17.5°C 48% Calm Calm 1.7 mph2.7 kmh 30.56 in1034.9 mb 0.00 in0.0 mm 0.00 in0.0 mm 0.00 in0.0 mm
05:52 PM 16.5°F-8.6°C 0.3°F-17.6°C 48% Calm Calm 1.7 mph2.7 kmh 30.56 in1034.9 mb 0.00 in0.0 mm 0.00 in0.0 mm 0.00 in0.0 mm
05:53 PM 16.5°F-8.6°C 0.7°F-17.4°C 49% Calm Calm 1.7 mph2.7 kmh 30.56 in1034.9 mb 0.00 in0.0 mm 0.00 in0.0 mm 0.00 in0.0 mm
05:54 PM 16.5°F-8.6°C 0.7°F-17.4°C 49% Calm Calm 1.7 mph2.7 kmh 30.56 in1034.9 mb 0.00 in0.0 mm 0.00 in0.0 mm 0.00 in0.0 mm
05:55 PM 16.5°F-8.6°C 0.7°F-17.4°C 49% Calm Calm -- 30.56 in1034.9 mb 0.00 in0.0 mm 0.00 in0.0 mm 0.00 in0.0 mm
05:56 PM 16.3°F-8.7°C 0.5°F-17.5°C 49% Calm Calm -- 30.56 in1034.9 mb 0.00 in0.0 mm 0.00 in0.0 mm 0.00 in0.0 mm
05:57 PM 16.3°F-8.7°C 0.5°F-17.5°C 49% Calm Calm -- 30.56 in1034.9 mb 0.00 in0.0 mm 0.00 in0.0 mm 0.00 in0.0 mm
05:58 PM 16.3°F-8.7°C 0.5°F-17.5°C 49% Calm Calm -- 30.56 in1034.9 mb 0.00 in0.0 mm 0.00 in0.0 mm 0.00 in0.0 mm
05:59 PM 16.2°F-8.8°C 0.4°F-17.6°C 49% Calm Calm -- 30.56 in1034.9 mb 0.00 in0.0 mm 0.00 in0.0 mm 0.00 in0.0 mm
06:00 PM 16.2°F-8.8°C 0.4°F-17.6°C 49% Calm Calm -- 30.56 in1034.9 mb 0.00 in0.0 mm 0.00 in0.0 mm 0.00 in0.0 mm
06:01 PM 16.0°F-8.9°C -0.2°F-17.9°C 48% Calm Calm -- 30.56 in1034.9 mb 0.00 in0.0 mm 0.00 in0.0 mm 0.00 in0.0 mm
06:02 PM 15.8°F-9.0°C 0.1°F-17.7°C 49% Calm Calm -- 30.56 in1034.9 mb 0.00 in0.0 mm 0.00 in0.0 mm 0.00 in0.0 mm
06:03 PM 15.8°F-9.0°C 0.1°F-17.7°C 49% Calm Calm -- 30.56 in1034.9 mb 0.00 in0.0 mm 0.00 in0.0 mm 0.00 in0.0 mm
06:04 PM 15.8°F-9.0°C 0.1°F-17.7°C 49% Calm Calm -- 30.56 in1034.9 mb 0.00 in0.0 mm 0.00 in0.0 mm 0.00 in0.0 mm
06:05 PM 15.6°F-9.1°C -0.1°F-17.8°C 49% Calm Calm -- 30.56 in1034.9 mb 0.00 in0.0 mm 0.00 in0.0 mm 0.00 in0.0 mm
06:06 PM 15.6°F-9.1°C -0.1°F-17.8°C 49% Calm Calm -- 30.56 in1034.9 mb 0.00 in0.0 mm 0.00 in0.0 mm 0.00 in0.0 mm
06:07 PM 15.4°F-9.2°C -0.3°F-17.9°C 49% Calm Calm -- 30.56 in1034.9 mb 0.00 in0.0 mm 0.00 in0.0 mm 0.00 in0.0 mm
06:08 PM 15.4°F-9.2°C -0.3°F-17.9°C 49% Calm Calm -- 30.56 in1034.9 mb 0.00 in0.0 mm 0.00 in0.0 mm 0.00 in0.0 mm
06:09 PM 15.4°F-9.2°C -0.3°F-17.9°C 49% Calm Calm -- 30.56 in1034.9 mb 0.00 in0.0 mm 0.00 in0.0 mm 0.00 in0.0 mm
06:10 PM 15.3°F-9.3°C -0.4°F-18.0°C 49% Calm Calm -- 30.56 in1034.9 mb 0.00 in0.0 mm 0.00 in0.0 mm 0.00 in0.0 mm
06:11 PM 15.1°F-9.4°C -0.6°F-18.1°C 49% Calm Calm -- 30.56 in1034.9 mb 0.00 in0.0 mm 0.00 in0.0 mm 0.00 in0.0 mm
06:12 PM 15.1°F-9.4°C -0.6°F-18.1°C 49% Calm Calm -- 30.56 in1034.9 mb 0.00 in0.0 mm 0.00 in0.0 mm 0.00 in0.0 mm
06:13 PM 15.1°F-9.4°C -0.2°F-17.9°C 50% Calm Calm -- 30.56 in1034.9 mb 0.00 in0.0 mm 0.00 in0.0 mm 0.00 in0.0 mm
06:14 PM 15.1°F-9.4°C -0.2°F-17.9°C 50% Calm Calm -- 30.56 in1034.9 mb 0.00 in0.0 mm 0.00 in0.0 mm 0.00 in0.0 mm
06:15 PM 15.1°F-9.4°C -0.2°F-17.9°C 50% Calm Calm -- 30.56 in1034.9 mb 0.00 in0.0 mm 0.00 in0.0 mm 0.00 in0.0 mm
06:16 PM 14.9°F-9.5°C -0.3°F-17.9°C 50% Calm Calm -- 30.56 in1034.9 mb 0.00 in0.0 mm 0.00 in0.0 mm 0.00 in0.0 mm
06:17 PM 14.9°F-9.5°C -0.3°F-17.9°C 50% Calm Calm -- 30.56 in1034.9 mb 0.00 in0.0 mm 0.00 in0.0 mm 0.00 in0.0 mm
06:18 PM 14.7°F-9.6°C -0.5°F-18.1°C 50% Calm Calm -- 30.56 in1034.9 mb 0.00 in0.0 mm 0.00 in0.0 mm 0.00 in0.0 mm
06:19 PM 14.7°F-9.6°C -0.5°F-18.1°C 50% Calm Calm -- 30.56 in1034.9 mb 0.00 in0.0 mm 0.00 in0.0 mm 0.00 in0.0 mm
06:20 PM 14.7°F-9.6°C -0.5°F-18.1°C 50% Calm Calm -- 30.56 in1034.9 mb 0.00 in0.0 mm 0.00 in0.0 mm 0.00 in0.0 mm
06:21 PM 14.7°F-9.6°C -0.5°F-18.1°C 50% Calm Calm -- 30.56 in1034.9 mb 0.00 in0.0 mm 0.00 in0.0 mm 0.00 in0.0 mm
06:22 PM 14.7°F-9.6°C -0.5°F-18.1°C 50% Calm Calm -- 30.56 in1034.9 mb 0.00 in0.0 mm 0.00 in0.0 mm 0.00 in0.0 mm
06:23 PM 14.7°F-9.6°C -0.5°F-18.1°C 50% Calm Calm -- 30.56 in1034.9 mb 0.00 in0.0 mm 0.00 in0.0 mm 0.00 in0.0 mm
06:24 PM 14.7°F-9.6°C -0.5°F-18.1°C 50% Calm Calm -- 30.56 in1034.9 mb 0.00 in0.0 mm 0.00 in0.0 mm 0.00 in0.0 mm
06:25 PM 14.7°F-9.6°C -0.5°F-18.1°C 50% Calm Calm -- 30.56 in1034.9 mb 0.00 in0.0 mm 0.00 in0.0 mm 0.00 in0.0 mm
06:26 PM 14.5°F-9.7°C -0.7°F-18.2°C 50% Calm Calm -- 30.56 in1034.9 mb 0.00 in0.0 mm 0.00 in0.0 mm 0.00 in0.0 mm
06:27 PM 14.5°F-9.7°C -0.7°F-18.2°C 50% Calm Calm -- 30.56 in1034.9 mb 0.00 in0.0 mm 0.00 in0.0 mm 0.00 in0.0 mm
06:28 PM 14.5°F-9.7°C -0.7°F-18.2°C 50% Calm Calm -- 30.56 in1034.9 mb 0.00 in0.0 mm 0.00 in0.0 mm 0.00 in0.0 mm
06:29 PM 14.5°F-9.7°C -0.7°F-18.2°C 50% Calm Calm -- 30.56 in1034.9 mb 0.00 in0.0 mm 0.00 in0.0 mm 0.00 in0.0 mm
06:30 PM 14.5°F-9.7°C -0.7°F-18.2°C 50% Calm Calm -- 30.56 in1034.9 mb 0.00 in0.0 mm 0.00 in0.0 mm 0.00 in0.0 mm
06:31 PM 14.5°F-9.7°C -0.7°F-18.2°C 50% Calm Calm -- 30.56 in1034.9 mb 0.00 in0.0 mm 0.00 in0.0 mm 0.00 in0.0 mm
06:32 PM 14.5°F-9.7°C -0.3°F-17.9°C 51% Calm Calm -- 30.56 in1034.9 mb 0.00 in0.0 mm 0.00 in0.0 mm 0.00 in0.0 mm
06:33 PM 14.5°F-9.7°C 0.1°F-17.7°C 52% Calm Calm -- 30.56 in1034.9 mb 0.00 in0.0 mm 0.00 in0.0 mm 0.00 in0.0 mm
06:34 PM 14.5°F-9.7°C 0.1°F-17.7°C 52% Calm Calm -- 30.56 in1034.9 mb 0.00 in0.0 mm 0.00 in0.0 mm 0.00 in0.0 mm
06:35 PM 14.5°F-9.7°C 0.1°F-17.7°C 52% Calm Calm -- 30.56 in1034.9 mb 0.00 in0.0 mm 0.00 in0.0 mm 0.00 in0.0 mm
06:36 PM 14.5°F-9.7°C 0.5°F-17.5°C 53% Calm Calm -- 30.56 in1034.9 mb 0.00 in0.0 mm 0.00 in0.0 mm 0.00 in0.0 mm
06:37 PM 14.5°F-9.7°C 0.5°F-17.5°C 53% Calm Calm -- 30.56 in1034.9 mb 0.00 in0.0 mm 0.00 in0.0 mm 0.00 in0.0 mm
06:38 PM 14.5°F-9.7°C 0.5°F-17.5°C 53% Calm Calm -- 30.56 in1034.9 mb 0.00 in0.0 mm 0.00 in0.0 mm 0.00 in0.0 mm
06:39 PM 14.5°F-9.7°C 0.1°F-17.7°C 52% Calm Calm -- 30.56 in1034.9 mb 0.00 in0.0 mm 0.00 in0.0 mm 0.00 in0.0 mm
06:40 PM 14.4°F-9.8°C -0.4°F-18.0°C 51% Calm Calm -- 30.56 in1034.9 mb 0.00 in0.0 mm 0.00 in0.0 mm 0.00 in0.0 mm
06:41 PM 14.4°F-9.8°C -0.4°F-18.0°C 51% Calm Calm -- 30.56 in1034.9 mb 0.00 in0.0 mm 0.00 in0.0 mm 0.00 in0.0 mm
06:42 PM 14.4°F-9.8°C -0.4°F-18.0°C 51% Calm Calm -- 30.56 in1034.9 mb 0.00 in0.0 mm 0.00 in0.0 mm 0.00 in0.0 mm
06:43 PM 14.2°F-9.9°C -0.6°F-18.1°C 51% Calm Calm -- 30.56 in1034.9 mb 0.00 in0.0 mm 0.00 in0.0 mm 0.00 in0.0 mm
06:44 PM 14.2°F-9.9°C -0.6°F-18.1°C 51% Calm Calm -- 30.56 in1034.9 mb 0.00 in0.0 mm 0.00 in0.0 mm 0.00 in0.0 mm
06:45 PM 14.0°F-10.0°C -0.8°F-18.2°C 51% Calm Calm -- 30.56 in1034.9 mb 0.00 in0.0 mm 0.00 in0.0 mm 0.00 in0.0 mm
06:46 PM 14.0°F-10.0°C -0.8°F-18.2°C 51% Calm Calm -- 30.56 in1034.9 mb 0.00 in0.0 mm 0.00 in0.0 mm 0.00 in0.0 mm
06:47 PM 14.0°F-10.0°C -0.8°F-18.2°C 51% Calm Calm -- 30.56 in1034.9 mb 0.00 in0.0 mm 0.00 in0.0 mm 0.00 in0.0 mm
06:48 PM 14.0°F-10.0°C -0.3°F-17.9°C 52% Calm Calm -- 30.56 in1034.9 mb 0.00 in0.0 mm 0.00 in0.0 mm 0.00 in0.0 mm
06:49 PM 14.0°F-10.0°C -0.3°F-17.9°C 52% Calm Calm -- 30.56 in1034.9 mb 0.00 in0.0 mm 0.00 in0.0 mm 0.00 in0.0 mm
06:50 PM 14.0°F-10.0°C -0.3°F-17.9°C 52% Calm Calm -- 30.56 in1034.9 mb 0.00 in0.0 mm 0.00 in0.0 mm 0.00 in0.0 mm
06:51 PM 13.8°F-10.1°C -0.5°F-18.1°C 52% Calm Calm -- 30.56 in1034.9 mb 0.00 in0.0 mm 0.00 in0.0 mm 0.00 in0.0 mm
06:52 PM 13.8°F-10.1°C -0.5°F-18.1°C 52% Calm Calm -- 30.56 in1034.9 mb 0.00 in0.0 mm 0.00 in0.0 mm 0.00 in0.0 mm
06:53 PM 13.8°F-10.1°C -0.5°F-18.1°C 52% Calm Calm -- 30.56 in1034.9 mb 0.00 in0.0 mm 0.00 in0.0 mm 0.00 in0.0 mm
06:54 PM 13.8°F-10.1°C -0.5°F-18.1°C 52% Calm Calm -- 30.56 in1034.9 mb 0.00 in0.0 mm 0.00 in0.0 mm 0.00 in0.0 mm
06:55 PM 13.8°F-10.1°C -0.5°F-18.1°C 52% Calm Calm -- 30.56 in1034.9 mb 0.00 in0.0 mm 0.00 in0.0 mm 0.00 in0.0 mm
06:56 PM 13.8°F-10.1°C -0.5°F-18.1°C 52% Calm Calm -- 30.56 in1034.9 mb 0.00 in0.0 mm 0.00 in0.0 mm 0.00 in0.0 mm
06:57 PM 13.8°F-10.1°C -0.5°F-18.1°C 52% Calm Calm -- 30.56 in1034.9 mb 0.00 in0.0 mm 0.00 in0.0 mm 0.00 in0.0 mm
06:58 PM 14.0°F-10.0°C -0.8°F-18.2°C 51% Calm Calm -- 30.56 in1034.9 mb 0.00 in0.0 mm 0.00 in0.0 mm 0.00 in0.0 mm
06:59 PM 14.0°F-10.0°C -0.8°F-18.2°C 51% Calm Calm -- 30.56 in1034.9 mb 0.00 in0.0 mm 0.00 in0.0 mm 0.00 in0.0 mm
07:00 PM 13.8°F-10.1°C -0.9°F-18.3°C 51% Calm Calm -- 30.56 in1034.9 mb 0.00 in0.0 mm 0.00 in0.0 mm 0.00 in0.0 mm
07:01 PM 13.8°F-10.1°C -0.9°F-18.3°C 51% Calm Calm -- 30.56 in1034.9 mb 0.00 in0.0 mm 0.00 in0.0 mm 0.00 in0.0 mm
07:02 PM 13.8°F-10.1°C -0.9°F-18.3°C 51% Calm Calm -- 30.56 in1034.9 mb 0.00 in0.0 mm 0.00 in0.0 mm 0.00 in0.0 mm
07:03 PM 13.8°F-10.1°C -0.9°F-18.3°C 51% Calm Calm -- 30.56 in1034.9 mb 0.00 in0.0 mm 0.00 in0.0 mm 0.00 in0.0 mm
07:04 PM 13.8°F-10.1°C -0.9°F-18.3°C 51% Calm Calm -- 30.56 in1034.9 mb 0.00 in0.0 mm 0.00 in0.0 mm 0.00 in0.0 mm
07:05 PM 13.8°F-10.1°C -0.9°F-18.3°C 51% Calm Calm -- 30.56 in1034.9 mb 0.00 in0.0 mm 0.00 in0.0 mm 0.00 in0.0 mm
07:06 PM 13.8°F-10.1°C -0.9°F-18.3°C 51% Calm Calm -- 30.56 in1034.9 mb 0.00 in0.0 mm 0.00 in0.0 mm 0.00 in0.0 mm
07:07 PM 13.6°F-10.2°C -1.1°F-18.4°C 51% Calm Calm -- 30.56 in1034.9 mb 0.00 in0.0 mm 0.00 in0.0 mm 0.00 in0.0 mm
07:08 PM 13.6°F-10.2°C -1.1°F-18.4°C 51% Calm Calm -- 30.56 in1034.9 mb 0.00 in0.0 mm 0.00 in0.0 mm 0.00 in0.0 mm
07:09 PM 14.0°F-10.0°C -0.8°F-18.2°C 51% 1.7 mph SSW2.7 kmh SSW 2.7 mph4.3 kmh 30.56 in1034.9 mb 0.00 in0.0 mm 0.00 in0.0 mm 0.00 in0.0 mm
07:10 PM 14.4°F-9.8°C -0.4°F-18.0°C 51% Calm Calm 2.7 mph4.3 kmh 30.56 in1034.9 mb 0.00 in0.0 mm 0.00 in0.0 mm 0.00 in0.0 mm
07:11 PM 14.4°F-9.8°C -0.4°F-18.0°C 51% Calm Calm 2.7 mph4.3 kmh 30.56 in1034.9 mb 0.00 in0.0 mm 0.00 in0.0 mm 0.00 in0.0 mm
07:12 PM 14.2°F-9.9°C -0.6°F-18.1°C 51% Calm Calm 2.7 mph4.3 kmh 30.56 in1034.9 mb 0.00 in0.0 mm 0.00 in0.0 mm 0.00 in0.0 mm
07:13 PM 14.0°F-10.0°C -0.8°F-18.2°C 51% Calm Calm 2.7 mph4.3 kmh 30.56 in1034.9 mb 0.00 in0.0 mm 0.00 in0.0 mm 0.00 in0.0 mm
07:14 PM 14.0°F-10.0°C -0.3°F-17.9°C 52% Calm Calm 2.7 mph4.3 kmh 30.56 in1034.9 mb 0.00 in0.0 mm 0.00 in0.0 mm 0.00 in0.0 mm
07:15 PM 14.0°F-10.0°C -0.3°F-17.9°C 52% Calm Calm 2.7 mph4.3 kmh 30.56 in1034.9 mb 0.00 in0.0 mm 0.00 in0.0 mm 0.00 in0.0 mm
07:16 PM 13.8°F-10.1°C -0.5°F-18.1°C 52% Calm Calm 2.7 mph4.3 kmh 30.55 in1034.5 mb 0.00 in0.0 mm 0.00 in0.0 mm 0.00 in0.0 mm
07:17 PM 13.8°F-10.1°C -0.5°F-18.1°C 52% 1.7 mph SE2.7 kmh SE 2.7 mph4.3 kmh 30.55 in1034.5 mb 0.00 in0.0 mm 0.00 in0.0 mm 0.00 in0.0 mm
07:18 PM 14.4°F-9.8°C -0.4°F-18.0°C 51% 1.7 mph SE2.7 kmh SE 2.7 mph4.3 kmh 30.55 in1034.5 mb 0.00 in0.0 mm 0.00 in0.0 mm 0.00 in0.0 mm
07:19 PM 14.7°F-9.6°C -0.1°F-17.8°C 51% 1.1 mph S1.8 kmh S 2.2 mph3.5 kmh 30.55 in1034.5 mb 0.00 in0.0 mm 0.00 in0.0 mm 0.00 in0.0 mm
07:20 PM 14.9°F-9.5°C 0.1°F-17.7°C 51% 2.7 mph SSE4.3 kmh SSE 2.7 mph4.3 kmh 30.55 in1034.5 mb 0.00 in0.0 mm 0.00 in0.0 mm 0.00 in0.0 mm
07:21 PM 15.3°F-9.3°C -0.4°F-18.0°C 49% 2.2 mph S3.5 kmh S 2.7 mph4.3 kmh 30.55 in1034.5 mb 0.00 in0.0 mm 0.00 in0.0 mm 0.00 in0.0 mm
07:22 PM 15.4°F-9.2°C -0.3°F-17.9°C 49% 2.2 mph ESE3.5 kmh ESE 2.7 mph4.3 kmh 30.55 in1034.5 mb 0.00 in0.0 mm 0.00 in0.0 mm 0.00 in0.0 mm
07:23 PM 15.8°F-9.0°C -0.4°F-18.0°C 48% 2.2 mph SE3.5 kmh SE 2.7 mph4.3 kmh 30.55 in1034.5 mb 0.00 in0.0 mm 0.00 in0.0 mm 0.00 in0.0 mm
07:24 PM 16.0°F-8.9°C -0.6°F-18.1°C 47% 3.2 mph SSW5.1 kmh SSW 3.2 mph5.1 kmh 30.55 in1034.5 mb 0.00 in0.0 mm 0.00 in0.0 mm 0.00 in0.0 mm
07:25 PM 16.7°F-8.5°C -0.4°F-18.0°C 46% 2.7 mph SSE4.3 kmh SSE 4.2 mph6.8 kmh 30.55 in1034.5 mb 0.00 in0.0 mm 0.00 in0.0 mm 0.00 in0.0 mm
07:26 PM 16.9°F-8.4°C -0.3°F-17.9°C 46% 2.2 mph S3.5 kmh S 4.2 mph6.8 kmh 30.55 in1034.5 mb 0.00 in0.0 mm 0.00 in0.0 mm 0.00 in0.0 mm
07:27 PM 16.9°F-8.4°C -0.3°F-17.9°C 46% 2.7 mph SSW4.3 kmh SSW 4.2 mph6.8 kmh 30.55 in1034.5 mb 0.00 in0.0 mm 0.00 in0.0 mm 0.00 in0.0 mm
07:28 PM 17.1°F-8.3°C -0.5°F-18.1°C 45% 2.7 mph S4.3 kmh S 4.2 mph6.8 kmh 30.54 in1034.2 mb 0.00 in0.0 mm 0.00 in0.0 mm 0.00 in0.0 mm
07:29 PM 17.2°F-8.2°C -0.4°F-18.0°C 45% 1.1 mph SSE1.8 kmh SSE 4.2 mph6.8 kmh 30.54 in1034.2 mb 0.00 in0.0 mm 0.00 in0.0 mm 0.00 in0.0 mm
07:30 PM 17.2°F-8.2°C -0.4°F-18.0°C 45% 3.2 mph S5.1 kmh S 4.2 mph6.8 kmh 30.54 in1034.2 mb 0.00 in0.0 mm 0.00 in0.0 mm 0.00 in0.0 mm
07:31 PM 17.2°F-8.2°C -0.4°F-18.0°C 45% 4.7 mph S7.6 kmh S 4.7 mph7.6 kmh 30.54 in1034.2 mb 0.00 in0.0 mm 0.00 in0.0 mm 0.00 in0.0 mm
07:32 PM 17.4°F-8.1°C -0.7°F-18.2°C 44% 1.7 mph SSE2.7 kmh SSE 4.7 mph7.6 kmh 30.54 in1034.2 mb 0.00 in0.0 mm 0.00 in0.0 mm 0.00 in0.0 mm
07:33 PM 17.2°F-8.2°C -0.4°F-18.0°C 45% 2.2 mph SW3.5 kmh SW 4.7 mph7.6 kmh 30.54 in1034.2 mb 0.00 in0.0 mm 0.00 in0.0 mm 0.00 in0.0 mm
07:34 PM 17.4°F-8.1°C -0.3°F-17.9°C 45% 4.7 mph SE7.6 kmh SE 4.7 mph7.6 kmh 30.54 in1034.2 mb 0.00 in0.0 mm 0.00 in0.0 mm 0.00 in0.0 mm
07:35 PM 17.6°F-8.0°C -0.6°F-18.1°C 44% 2.7 mph SSE4.3 kmh SSE 4.7 mph7.6 kmh 30.54 in1034.2 mb 0.00 in0.0 mm 0.00 in0.0 mm 0.00 in0.0 mm
07:36 PM 17.4°F-8.1°C -0.7°F-18.2°C 44% 3.2 mph SSE5.1 kmh SSE 4.7 mph7.6 kmh 30.54 in1034.2 mb 0.00 in0.0 mm 0.00 in0.0 mm 0.00 in0.0 mm
07:37 PM 17.6°F-8.0°C -0.6°F-18.1°C 44% 3.7 mph SSE6.0 kmh SSE 4.7 mph7.6 kmh 30.54 in1034.2 mb 0.00 in0.0 mm 0.00 in0.0 mm 0.00 in0.0 mm
07:38 PM 18.1°F-7.7°C -1.1°F-18.4°C 42% 2.7 mph S4.3 kmh S 4.7 mph7.6 kmh 30.54 in1034.2 mb 0.00 in0.0 mm 0.00 in0.0 mm 0.00 in0.0 mm
07:39 PM 18.1°F-7.7°C -1.1°F-18.4°C 42% 2.7 mph SE4.3 kmh SE 4.7 mph7.6 kmh 30.54 in1034.2 mb 0.00 in0.0 mm 0.00 in0.0 mm 0.00 in0.0 mm
07:40 PM 18.1°F-7.7°C -1.1°F-18.4°C 42% 3.2 mph SSE5.1 kmh SSE 4.7 mph7.6 kmh 30.54 in1034.2 mb 0.00 in0.0 mm 0.00 in0.0 mm 0.00 in0.0 mm
07:41 PM 18.1°F-7.7°C -1.1°F-18.4°C 42% 2.2 mph SSE3.5 kmh SSE 4.7 mph7.6 kmh 30.54 in1034.2 mb 0.00 in0.0 mm 0.00 in0.0 mm 0.00 in0.0 mm
07:42 PM 18.0°F-7.8°C -0.7°F-18.2°C 43% 1.7 mph SSE2.7 kmh SSE 4.7 mph7.6 kmh 30.54 in1034.2 mb 0.00 in0.0 mm 0.00 in0.0 mm 0.00 in0.0 mm
07:43 PM 17.6°F-8.0°C -0.6°F-18.1°C 44% 1.7 mph E2.7 kmh E 4.7 mph7.6 kmh 30.54 in1034.2 mb 0.00 in0.0 mm 0.00 in0.0 mm 0.00 in0.0 mm
07:44 PM 17.4°F-8.1°C -0.7°F-18.2°C 44% 1.7 mph SSE2.7 kmh SSE 4.7 mph7.6 kmh 30.54 in1034.2 mb 0.00 in0.0 mm 0.00 in0.0 mm 0.00 in0.0 mm
07:45 PM 17.2°F-8.2°C -0.9°F-18.3°C 44% 1.7 mph SSE2.7 kmh SSE 4.2 mph6.8 kmh